<?xml version="1.0" encoding="UTF-8" standalone="no" ?>
<gpx xmlns="http://www.topografix.com/GPX/1/1" xmlns:xsi="http://www.w3.org/2001/XMLSchema-instance" xsi:schemaLocation="http://www.topografix.com/GPX/1/1 http://www.topografix.com/GPX/1/1/gpx.xsd" version="1.1" creator="VisuGPX - https://www.visugpx.com">
  <metadata>
    <name>Aveyron</name>
    <desc><![CDATA[9 jours de vélo dans l'Aveyron (et un peu du Lot)]]></desc>
  </metadata>
  <trk>
    <name><![CDATA[j5]]></name>
    <desc><![CDATA[comment ...]]></desc>
    <extensions>
      <line xmlns="http://www.topografix.com/GPX/gpx_style/0/2">
        <color>ff0080</color>
        <width>4</width>
      </line>
    </extensions>
    <trkseg>
      <trkpt lat="44.60857" lon="2.04178">
        <ele>195</ele>
        <time>2021-08-31T07:11:26Z</time>
      </trkpt>
      <trkpt lat="44.60857" lon="2.04178">
        <ele>196</ele>
        <time>2021-08-31T07:11:27Z</time>
      </trkpt>
      <trkpt lat="44.60853" lon="2.04181">
        <ele>203</ele>
        <time>2021-08-31T07:12:19Z</time>
      </trkpt>
      <trkpt lat="44.60853" lon="2.04189">
        <ele>208</ele>
        <time>2021-08-31T07:12:23Z</time>
      </trkpt>
      <trkpt lat="44.6085" lon="2.04195">
        <ele>207</ele>
        <time>2021-08-31T07:12:27Z</time>
      </trkpt>
      <trkpt lat="44.60846" lon="2.04198">
        <ele>207</ele>
        <time>2021-08-31T07:12:32Z</time>
      </trkpt>
      <trkpt lat="44.60842" lon="2.04198">
        <ele>207</ele>
        <time>2021-08-31T07:12:38Z</time>
      </trkpt>
      <trkpt lat="44.60832" lon="2.04201">
        <ele>205</ele>
        <time>2021-08-31T07:12:47Z</time>
      </trkpt>
      <trkpt lat="44.60826" lon="2.04202">
        <ele>204</ele>
        <time>2021-08-31T07:12:52Z</time>
      </trkpt>
      <trkpt lat="44.60825" lon="2.04195">
        <ele>204</ele>
        <time>2021-08-31T07:12:57Z</time>
      </trkpt>
      <trkpt lat="44.60818" lon="2.04186">
        <ele>205</ele>
        <time>2021-08-31T07:13:03Z</time>
      </trkpt>
      <trkpt lat="44.60814" lon="2.0418">
        <ele>206</ele>
        <time>2021-08-31T07:13:06Z</time>
      </trkpt>
      <trkpt lat="44.60814" lon="2.04173">
        <ele>207</ele>
        <time>2021-08-31T07:13:12Z</time>
      </trkpt>
      <trkpt lat="44.6081" lon="2.04176">
        <ele>203</ele>
        <time>2021-08-31T07:13:47Z</time>
      </trkpt>
      <trkpt lat="44.60806" lon="2.04179">
        <ele>202</ele>
        <time>2021-08-31T07:13:51Z</time>
      </trkpt>
      <trkpt lat="44.60807" lon="2.04187">
        <ele>202</ele>
        <time>2021-08-31T07:13:53Z</time>
      </trkpt>
      <trkpt lat="44.60805" lon="2.04194">
        <ele>201</ele>
        <time>2021-08-31T07:13:55Z</time>
      </trkpt>
      <trkpt lat="44.60799" lon="2.04196">
        <ele>202</ele>
        <time>2021-08-31T07:13:57Z</time>
      </trkpt>
      <trkpt lat="44.60793" lon="2.04197">
        <ele>202</ele>
        <time>2021-08-31T07:13:59Z</time>
      </trkpt>
      <trkpt lat="44.60745" lon="2.04213">
        <ele>205</ele>
        <time>2021-08-31T07:14:17Z</time>
      </trkpt>
      <trkpt lat="44.6074" lon="2.04216">
        <ele>205</ele>
        <time>2021-08-31T07:14:19Z</time>
      </trkpt>
      <trkpt lat="44.60729" lon="2.04217">
        <ele>204</ele>
        <time>2021-08-31T07:14:23Z</time>
      </trkpt>
      <trkpt lat="44.6072" lon="2.0422">
        <ele>204</ele>
        <time>2021-08-31T07:14:27Z</time>
      </trkpt>
      <trkpt lat="44.60712" lon="2.04222">
        <ele>203</ele>
        <time>2021-08-31T07:14:31Z</time>
      </trkpt>
      <trkpt lat="44.60707" lon="2.04208">
        <ele>204</ele>
        <time>2021-08-31T07:14:44Z</time>
      </trkpt>
      <trkpt lat="44.60708" lon="2.04192">
        <ele>204</ele>
        <time>2021-08-31T07:14:48Z</time>
      </trkpt>
      <trkpt lat="44.60708" lon="2.04175">
        <ele>204</ele>
        <time>2021-08-31T07:14:52Z</time>
      </trkpt>
      <trkpt lat="44.60691" lon="2.04036">
        <ele>196</ele>
        <time>2021-08-31T07:15:23Z</time>
      </trkpt>
      <trkpt lat="44.60689" lon="2.04019">
        <ele>197</ele>
        <time>2021-08-31T07:15:26Z</time>
      </trkpt>
      <trkpt lat="44.60688" lon="2.04003">
        <ele>197</ele>
        <time>2021-08-31T07:15:29Z</time>
      </trkpt>
      <trkpt lat="44.60681" lon="2.03947">
        <ele>196</ele>
        <time>2021-08-31T07:15:39Z</time>
      </trkpt>
      <trkpt lat="44.60681" lon="2.0394">
        <ele>196</ele>
        <time>2021-08-31T07:15:40Z</time>
      </trkpt>
      <trkpt lat="44.60664" lon="2.03794">
        <ele>192</ele>
        <time>2021-08-31T07:16:03Z</time>
      </trkpt>
      <trkpt lat="44.60651" lon="2.03652">
        <ele>193</ele>
        <time>2021-08-31T07:16:25Z</time>
      </trkpt>
      <trkpt lat="44.60626" lon="2.03446">
        <ele>193</ele>
        <time>2021-08-31T07:16:55Z</time>
      </trkpt>
      <trkpt lat="44.60624" lon="2.03434">
        <ele>193</ele>
        <time>2021-08-31T07:16:57Z</time>
      </trkpt>
      <trkpt lat="44.60624" lon="2.03424">
        <ele>192</ele>
        <time>2021-08-31T07:16:59Z</time>
      </trkpt>
      <trkpt lat="44.60629" lon="2.03418">
        <ele>192</ele>
        <time>2021-08-31T07:17:01Z</time>
      </trkpt>
      <trkpt lat="44.60634" lon="2.03412">
        <ele>192</ele>
        <time>2021-08-31T07:17:03Z</time>
      </trkpt>
      <trkpt lat="44.60638" lon="2.03407">
        <ele>191</ele>
        <time>2021-08-31T07:17:05Z</time>
      </trkpt>
      <trkpt lat="44.60655" lon="2.03403">
        <ele>190</ele>
        <time>2021-08-31T07:17:12Z</time>
      </trkpt>
      <trkpt lat="44.60655" lon="2.03398">
        <ele>191</ele>
        <time>2021-08-31T07:18:57Z</time>
      </trkpt>
      <trkpt lat="44.6065" lon="2.03396">
        <ele>192</ele>
        <time>2021-08-31T07:19:02Z</time>
      </trkpt>
      <trkpt lat="44.60652" lon="2.03368">
        <ele>191</ele>
        <time>2021-08-31T07:19:10Z</time>
      </trkpt>
      <trkpt lat="44.60654" lon="2.03341">
        <ele>188</ele>
        <time>2021-08-31T07:19:14Z</time>
      </trkpt>
      <trkpt lat="44.60657" lon="2.03283">
        <ele>191</ele>
        <time>2021-08-31T07:19:27Z</time>
      </trkpt>
      <trkpt lat="44.60666" lon="2.03231">
        <ele>192</ele>
        <time>2021-08-31T07:19:42Z</time>
      </trkpt>
      <trkpt lat="44.60674" lon="2.03173">
        <ele>189</ele>
        <time>2021-08-31T07:19:52Z</time>
      </trkpt>
      <trkpt lat="44.60677" lon="2.03162">
        <ele>189</ele>
        <time>2021-08-31T07:19:54Z</time>
      </trkpt>
      <trkpt lat="44.6068" lon="2.03151">
        <ele>191</ele>
        <time>2021-08-31T07:19:56Z</time>
      </trkpt>
      <trkpt lat="44.6068" lon="2.03128">
        <ele>189</ele>
        <time>2021-08-31T07:20:00Z</time>
      </trkpt>
      <trkpt lat="44.60681" lon="2.03117">
        <ele>189</ele>
        <time>2021-08-31T07:20:02Z</time>
      </trkpt>
      <trkpt lat="44.60681" lon="2.03108">
        <ele>189</ele>
        <time>2021-08-31T07:20:04Z</time>
      </trkpt>
      <trkpt lat="44.60676" lon="2.031">
        <ele>188</ele>
        <time>2021-08-31T07:20:06Z</time>
      </trkpt>
      <trkpt lat="44.60671" lon="2.03097">
        <ele>187</ele>
        <time>2021-08-31T07:20:09Z</time>
      </trkpt>
      <trkpt lat="44.60628" lon="2.03094">
        <ele>187</ele>
        <time>2021-08-31T07:20:23Z</time>
      </trkpt>
      <trkpt lat="44.60623" lon="2.0309">
        <ele>187</ele>
        <time>2021-08-31T07:20:25Z</time>
      </trkpt>
      <trkpt lat="44.60623" lon="2.03041">
        <ele>184</ele>
        <time>2021-08-31T07:20:35Z</time>
      </trkpt>
      <trkpt lat="44.60626" lon="2.03022">
        <ele>185</ele>
        <time>2021-08-31T07:20:39Z</time>
      </trkpt>
      <trkpt lat="44.60635" lon="2.02996">
        <ele>185</ele>
        <time>2021-08-31T07:20:45Z</time>
      </trkpt>
      <trkpt lat="44.60638" lon="2.02982">
        <ele>185</ele>
        <time>2021-08-31T07:20:50Z</time>
      </trkpt>
      <trkpt lat="44.60641" lon="2.02975">
        <ele>185</ele>
        <time>2021-08-31T07:20:55Z</time>
      </trkpt>
      <trkpt lat="44.60658" lon="2.02984">
        <ele>185</ele>
        <time>2021-08-31T07:21:01Z</time>
      </trkpt>
      <trkpt lat="44.60663" lon="2.02982">
        <ele>185</ele>
        <time>2021-08-31T07:21:03Z</time>
      </trkpt>
      <trkpt lat="44.60668" lon="2.0298">
        <ele>186</ele>
        <time>2021-08-31T07:21:07Z</time>
      </trkpt>
      <trkpt lat="44.6067" lon="2.02965">
        <ele>186</ele>
        <time>2021-08-31T07:21:12Z</time>
      </trkpt>
      <trkpt lat="44.60689" lon="2.02851">
        <ele>190</ele>
        <time>2021-08-31T07:21:40Z</time>
      </trkpt>
      <trkpt lat="44.60695" lon="2.02805">
        <ele>191</ele>
        <time>2021-08-31T07:21:50Z</time>
      </trkpt>
      <trkpt lat="44.60696" lon="2.02788">
        <ele>192</ele>
        <time>2021-08-31T07:21:54Z</time>
      </trkpt>
      <trkpt lat="44.60701" lon="2.02721">
        <ele>191</ele>
        <time>2021-08-31T07:22:08Z</time>
      </trkpt>
      <trkpt lat="44.60706" lon="2.02675">
        <ele>190</ele>
        <time>2021-08-31T07:22:18Z</time>
      </trkpt>
      <trkpt lat="44.607" lon="2.02623">
        <ele>187</ele>
        <time>2021-08-31T07:22:30Z</time>
      </trkpt>
      <trkpt lat="44.60701" lon="2.02617">
        <ele>188</ele>
        <time>2021-08-31T07:23:45Z</time>
      </trkpt>
      <trkpt lat="44.60699" lon="2.0261">
        <ele>188</ele>
        <time>2021-08-31T07:23:48Z</time>
      </trkpt>
      <trkpt lat="44.60693" lon="2.02605">
        <ele>188</ele>
        <time>2021-08-31T07:23:51Z</time>
      </trkpt>
      <trkpt lat="44.60688" lon="2.026">
        <ele>187</ele>
        <time>2021-08-31T07:23:53Z</time>
      </trkpt>
      <trkpt lat="44.60683" lon="2.02582">
        <ele>187</ele>
        <time>2021-08-31T07:23:56Z</time>
      </trkpt>
      <trkpt lat="44.60673" lon="2.02378">
        <ele>190</ele>
        <time>2021-08-31T07:24:26Z</time>
      </trkpt>
      <trkpt lat="44.60633" lon="2.02224">
        <ele>185</ele>
        <time>2021-08-31T07:24:52Z</time>
      </trkpt>
      <trkpt lat="44.60567" lon="2.02087">
        <ele>182</ele>
        <time>2021-08-31T07:25:25Z</time>
      </trkpt>
      <trkpt lat="44.60563" lon="2.02081">
        <ele>180</ele>
        <time>2021-08-31T07:26:14Z</time>
      </trkpt>
      <trkpt lat="44.60453" lon="2.02012">
        <ele>181</ele>
        <time>2021-08-31T07:26:44Z</time>
      </trkpt>
      <trkpt lat="44.60433" lon="2.01999">
        <ele>181</ele>
        <time>2021-08-31T07:26:49Z</time>
      </trkpt>
      <trkpt lat="44.6039" lon="2.01913">
        <ele>178</ele>
        <time>2021-08-31T07:27:07Z</time>
      </trkpt>
      <trkpt lat="44.60381" lon="2.01899">
        <ele>178</ele>
        <time>2021-08-31T07:27:10Z</time>
      </trkpt>
      <trkpt lat="44.60373" lon="2.01893">
        <ele>179</ele>
        <time>2021-08-31T07:27:12Z</time>
      </trkpt>
      <trkpt lat="44.6036" lon="2.0189">
        <ele>179</ele>
        <time>2021-08-31T07:27:15Z</time>
      </trkpt>
      <trkpt lat="44.6028" lon="2.01905">
        <ele>186</ele>
        <time>2021-08-31T07:27:36Z</time>
      </trkpt>
      <trkpt lat="44.60265" lon="2.01902">
        <ele>187</ele>
        <time>2021-08-31T07:27:40Z</time>
      </trkpt>
      <trkpt lat="44.60245" lon="2.01891">
        <ele>190</ele>
        <time>2021-08-31T07:27:46Z</time>
      </trkpt>
      <trkpt lat="44.60162" lon="2.01805">
        <ele>186</ele>
        <time>2021-08-31T07:28:18Z</time>
      </trkpt>
      <trkpt lat="44.60121" lon="2.01765">
        <ele>182</ele>
        <time>2021-08-31T07:28:32Z</time>
      </trkpt>
      <trkpt lat="44.60056" lon="2.01716">
        <ele>181</ele>
        <time>2021-08-31T07:28:47Z</time>
      </trkpt>
      <trkpt lat="44.59986" lon="2.01625">
        <ele>175</ele>
        <time>2021-08-31T07:29:08Z</time>
      </trkpt>
      <trkpt lat="44.59971" lon="2.0159">
        <ele>173</ele>
        <time>2021-08-31T07:29:14Z</time>
      </trkpt>
      <trkpt lat="44.59948" lon="2.01538">
        <ele>171</ele>
        <time>2021-08-31T07:29:22Z</time>
      </trkpt>
      <trkpt lat="44.59825" lon="2.01327">
        <ele>168</ele>
        <time>2021-08-31T07:29:53Z</time>
      </trkpt>
      <trkpt lat="44.59739" lon="2.01128">
        <ele>176</ele>
        <time>2021-08-31T07:30:23Z</time>
      </trkpt>
      <trkpt lat="44.59642" lon="2.00917">
        <ele>179</ele>
        <time>2021-08-31T07:30:54Z</time>
      </trkpt>
      <trkpt lat="44.59544" lon="2.00699">
        <ele>181</ele>
        <time>2021-08-31T07:31:24Z</time>
      </trkpt>
      <trkpt lat="44.59524" lon="2.00663">
        <ele>181</ele>
        <time>2021-08-31T07:31:30Z</time>
      </trkpt>
      <trkpt lat="44.59501" lon="2.00634">
        <ele>180</ele>
        <time>2021-08-31T07:31:35Z</time>
      </trkpt>
      <trkpt lat="44.59353" lon="2.00488">
        <ele>174</ele>
        <time>2021-08-31T07:32:05Z</time>
      </trkpt>
      <trkpt lat="44.59241" lon="2.00317">
        <ele>177</ele>
        <time>2021-08-31T07:32:36Z</time>
      </trkpt>
      <trkpt lat="44.5915" lon="2.00142">
        <ele>180</ele>
        <time>2021-08-31T07:33:06Z</time>
      </trkpt>
      <trkpt lat="44.59085" lon="2.0002">
        <ele>187</ele>
        <time>2021-08-31T07:33:32Z</time>
      </trkpt>
      <trkpt lat="44.59046" lon="1.99976">
        <ele>189</ele>
        <time>2021-08-31T07:33:48Z</time>
      </trkpt>
      <trkpt lat="44.59001" lon="1.99937">
        <ele>188</ele>
        <time>2021-08-31T07:34:01Z</time>
      </trkpt>
      <trkpt lat="44.58884" lon="1.99803">
        <ele>192</ele>
        <time>2021-08-31T07:34:32Z</time>
      </trkpt>
      <trkpt lat="44.58796" lon="1.99704">
        <ele>197</ele>
        <time>2021-08-31T07:35:02Z</time>
      </trkpt>
      <trkpt lat="44.58781" lon="1.99678">
        <ele>197</ele>
        <time>2021-08-31T07:35:08Z</time>
      </trkpt>
      <trkpt lat="44.58771" lon="1.99647">
        <ele>197</ele>
        <time>2021-08-31T07:35:14Z</time>
      </trkpt>
      <trkpt lat="44.58767" lon="1.99615">
        <ele>197</ele>
        <time>2021-08-31T07:35:19Z</time>
      </trkpt>
      <trkpt lat="44.58767" lon="1.99582">
        <ele>197</ele>
        <time>2021-08-31T07:35:24Z</time>
      </trkpt>
      <trkpt lat="44.58774" lon="1.99548">
        <ele>196</ele>
        <time>2021-08-31T07:35:29Z</time>
      </trkpt>
      <trkpt lat="44.58798" lon="1.99467">
        <ele>193</ele>
        <time>2021-08-31T07:35:39Z</time>
      </trkpt>
      <trkpt lat="44.58802" lon="1.99426">
        <ele>192</ele>
        <time>2021-08-31T07:35:43Z</time>
      </trkpt>
      <trkpt lat="44.58797" lon="1.99382">
        <ele>190</ele>
        <time>2021-08-31T07:35:47Z</time>
      </trkpt>
      <trkpt lat="44.58729" lon="1.99098">
        <ele>190</ele>
        <time>2021-08-31T07:36:18Z</time>
      </trkpt>
      <trkpt lat="44.58717" lon="1.99004">
        <ele>189</ele>
        <time>2021-08-31T07:36:35Z</time>
      </trkpt>
      <trkpt lat="44.58716" lon="1.98996">
        <ele>189</ele>
        <time>2021-08-31T07:36:37Z</time>
      </trkpt>
      <trkpt lat="44.58716" lon="1.98988">
        <ele>189</ele>
        <time>2021-08-31T07:36:39Z</time>
      </trkpt>
      <trkpt lat="44.58717" lon="1.98979">
        <ele>190</ele>
        <time>2021-08-31T07:36:41Z</time>
      </trkpt>
      <trkpt lat="44.58715" lon="1.98751">
        <ele>190</ele>
        <time>2021-08-31T07:37:12Z</time>
      </trkpt>
      <trkpt lat="44.58721" lon="1.98711">
        <ele>189</ele>
        <time>2021-08-31T07:37:16Z</time>
      </trkpt>
      <trkpt lat="44.58743" lon="1.98658">
        <ele>188</ele>
        <time>2021-08-31T07:37:21Z</time>
      </trkpt>
      <trkpt lat="44.58839" lon="1.98464">
        <ele>180</ele>
        <time>2021-08-31T07:37:44Z</time>
      </trkpt>
      <trkpt lat="44.58843" lon="1.98459">
        <ele>181</ele>
        <time>2021-08-31T07:37:45Z</time>
      </trkpt>
      <trkpt lat="44.58849" lon="1.98453">
        <ele>182</ele>
        <time>2021-08-31T07:37:47Z</time>
      </trkpt>
      <trkpt lat="44.58859" lon="1.9845">
        <ele>184</ele>
        <time>2021-08-31T07:39:13Z</time>
      </trkpt>
      <trkpt lat="44.58858" lon="1.98442">
        <ele>185</ele>
        <time>2021-08-31T07:39:18Z</time>
      </trkpt>
      <trkpt lat="44.58866" lon="1.98425">
        <ele>185</ele>
        <time>2021-08-31T07:39:22Z</time>
      </trkpt>
      <trkpt lat="44.58873" lon="1.98395">
        <ele>185</ele>
        <time>2021-08-31T07:39:27Z</time>
      </trkpt>
      <trkpt lat="44.58886" lon="1.98157">
        <ele>186</ele>
        <time>2021-08-31T07:39:58Z</time>
      </trkpt>
      <trkpt lat="44.58884" lon="1.98073">
        <ele>185</ele>
        <time>2021-08-31T07:40:09Z</time>
      </trkpt>
      <trkpt lat="44.58864" lon="1.97846">
        <ele>186</ele>
        <time>2021-08-31T07:40:39Z</time>
      </trkpt>
      <trkpt lat="44.58859" lon="1.97806">
        <ele>186</ele>
        <time>2021-08-31T07:40:45Z</time>
      </trkpt>
      <trkpt lat="44.5884" lon="1.97731">
        <ele>188</ele>
        <time>2021-08-31T07:40:59Z</time>
      </trkpt>
      <trkpt lat="44.58805" lon="1.97539">
        <ele>188</ele>
        <time>2021-08-31T07:41:29Z</time>
      </trkpt>
      <trkpt lat="44.58753" lon="1.97317">
        <ele>186</ele>
        <time>2021-08-31T07:42:00Z</time>
      </trkpt>
      <trkpt lat="44.58686" lon="1.97118">
        <ele>183</ele>
        <time>2021-08-31T07:42:30Z</time>
      </trkpt>
      <trkpt lat="44.58644" lon="1.96892">
        <ele>185</ele>
        <time>2021-08-31T07:43:01Z</time>
      </trkpt>
      <trkpt lat="44.58595" lon="1.96684">
        <ele>185</ele>
        <time>2021-08-31T07:43:33Z</time>
      </trkpt>
      <trkpt lat="44.5857" lon="1.96528">
        <ele>190</ele>
        <time>2021-08-31T07:43:59Z</time>
      </trkpt>
      <trkpt lat="44.58569" lon="1.96521">
        <ele>191</ele>
        <time>2021-08-31T07:44:01Z</time>
      </trkpt>
      <trkpt lat="44.5857" lon="1.96513">
        <ele>191</ele>
        <time>2021-08-31T07:44:04Z</time>
      </trkpt>
      <trkpt lat="44.58575" lon="1.96507">
        <ele>191</ele>
        <time>2021-08-31T07:44:37Z</time>
      </trkpt>
      <trkpt lat="44.58588" lon="1.96495">
        <ele>189</ele>
        <time>2021-08-31T07:44:41Z</time>
      </trkpt>
      <trkpt lat="44.58599" lon="1.96476">
        <ele>188</ele>
        <time>2021-08-31T07:44:44Z</time>
      </trkpt>
      <trkpt lat="44.58623" lon="1.96404">
        <ele>184</ele>
        <time>2021-08-31T07:44:52Z</time>
      </trkpt>
      <trkpt lat="44.58632" lon="1.96392">
        <ele>182</ele>
        <time>2021-08-31T07:44:54Z</time>
      </trkpt>
      <trkpt lat="44.58644" lon="1.96384">
        <ele>182</ele>
        <time>2021-08-31T07:44:56Z</time>
      </trkpt>
      <trkpt lat="44.58778" lon="1.96344">
        <ele>179</ele>
        <time>2021-08-31T07:45:16Z</time>
      </trkpt>
      <trkpt lat="44.58919" lon="1.96249">
        <ele>180</ele>
        <time>2021-08-31T07:45:47Z</time>
      </trkpt>
      <trkpt lat="44.5902" lon="1.96177">
        <ele>180</ele>
        <time>2021-08-31T07:46:17Z</time>
      </trkpt>
      <trkpt lat="44.59099" lon="1.96117">
        <ele>180</ele>
        <time>2021-08-31T07:46:37Z</time>
      </trkpt>
      <trkpt lat="44.59118" lon="1.96101">
        <ele>180</ele>
        <time>2021-08-31T07:46:43Z</time>
      </trkpt>
      <trkpt lat="44.59123" lon="1.96097">
        <ele>181</ele>
        <time>2021-08-31T07:46:46Z</time>
      </trkpt>
      <trkpt lat="44.59128" lon="1.9609">
        <ele>180</ele>
        <time>2021-08-31T07:46:48Z</time>
      </trkpt>
      <trkpt lat="44.59128" lon="1.96082">
        <ele>180</ele>
        <time>2021-08-31T07:46:50Z</time>
      </trkpt>
      <trkpt lat="44.59124" lon="1.959">
        <ele>179</ele>
        <time>2021-08-31T07:47:21Z</time>
      </trkpt>
      <trkpt lat="44.59117" lon="1.9568">
        <ele>177</ele>
        <time>2021-08-31T07:47:51Z</time>
      </trkpt>
      <trkpt lat="44.59151" lon="1.95464">
        <ele>177</ele>
        <time>2021-08-31T07:48:21Z</time>
      </trkpt>
      <trkpt lat="44.59189" lon="1.9524">
        <ele>181</ele>
        <time>2021-08-31T07:48:51Z</time>
      </trkpt>
      <trkpt lat="44.59254" lon="1.95015">
        <ele>180</ele>
        <time>2021-08-31T07:49:22Z</time>
      </trkpt>
      <trkpt lat="44.59316" lon="1.9481">
        <ele>178</ele>
        <time>2021-08-31T07:49:52Z</time>
      </trkpt>
      <trkpt lat="44.59349" lon="1.94587">
        <ele>176</ele>
        <time>2021-08-31T07:50:22Z</time>
      </trkpt>
      <trkpt lat="44.59376" lon="1.94485">
        <ele>175</ele>
        <time>2021-08-31T07:50:36Z</time>
      </trkpt>
      <trkpt lat="44.5945" lon="1.94273">
        <ele>176</ele>
        <time>2021-08-31T07:51:06Z</time>
      </trkpt>
      <trkpt lat="44.59525" lon="1.94064">
        <ele>168</ele>
        <time>2021-08-31T07:51:37Z</time>
      </trkpt>
      <trkpt lat="44.59581" lon="1.93887">
        <ele>166</ele>
        <time>2021-08-31T07:52:03Z</time>
      </trkpt>
      <trkpt lat="44.59606" lon="1.93768">
        <ele>160</ele>
        <time>2021-08-31T07:52:20Z</time>
      </trkpt>
      <trkpt lat="44.59689" lon="1.93591">
        <ele>166</ele>
        <time>2021-08-31T07:52:48Z</time>
      </trkpt>
      <trkpt lat="44.59805" lon="1.93419">
        <ele>170</ele>
        <time>2021-08-31T07:53:19Z</time>
      </trkpt>
      <trkpt lat="44.59924" lon="1.93258">
        <ele>172</ele>
        <time>2021-08-31T07:53:49Z</time>
      </trkpt>
      <trkpt lat="44.60005" lon="1.93053">
        <ele>174</ele>
        <time>2021-08-31T07:54:19Z</time>
      </trkpt>
      <trkpt lat="44.60085" lon="1.9284">
        <ele>177</ele>
        <time>2021-08-31T07:54:50Z</time>
      </trkpt>
      <trkpt lat="44.60134" lon="1.92681">
        <ele>178</ele>
        <time>2021-08-31T07:55:12Z</time>
      </trkpt>
      <trkpt lat="44.60174" lon="1.92477">
        <ele>178</ele>
        <time>2021-08-31T07:55:42Z</time>
      </trkpt>
      <trkpt lat="44.60183" lon="1.924">
        <ele>177</ele>
        <time>2021-08-31T07:55:54Z</time>
      </trkpt>
      <trkpt lat="44.60175" lon="1.92207">
        <ele>175</ele>
        <time>2021-08-31T07:56:24Z</time>
      </trkpt>
      <trkpt lat="44.60155" lon="1.91987">
        <ele>175</ele>
        <time>2021-08-31T07:56:53Z</time>
      </trkpt>
      <trkpt lat="44.60143" lon="1.91946">
        <ele>174</ele>
        <time>2021-08-31T07:56:59Z</time>
      </trkpt>
      <trkpt lat="44.60084" lon="1.91833">
        <ele>177</ele>
        <time>2021-08-31T07:57:17Z</time>
      </trkpt>
      <trkpt lat="44.60072" lon="1.91819">
        <ele>177</ele>
        <time>2021-08-31T07:57:20Z</time>
      </trkpt>
      <trkpt lat="44.60026" lon="1.91786">
        <ele>175</ele>
        <time>2021-08-31T07:57:30Z</time>
      </trkpt>
      <trkpt lat="44.59935" lon="1.9174">
        <ele>173</ele>
        <time>2021-08-31T07:57:56Z</time>
      </trkpt>
      <trkpt lat="44.59906" lon="1.91715">
        <ele>172</ele>
        <time>2021-08-31T07:58:04Z</time>
      </trkpt>
      <trkpt lat="44.59824" lon="1.91572">
        <ele>174</ele>
        <time>2021-08-31T07:58:32Z</time>
      </trkpt>
      <trkpt lat="44.59816" lon="1.91545">
        <ele>175</ele>
        <time>2021-08-31T07:58:36Z</time>
      </trkpt>
      <trkpt lat="44.59811" lon="1.91509">
        <ele>176</ele>
        <time>2021-08-31T07:58:41Z</time>
      </trkpt>
      <trkpt lat="44.59814" lon="1.91489">
        <ele>174</ele>
        <time>2021-08-31T07:58:44Z</time>
      </trkpt>
      <trkpt lat="44.59843" lon="1.91279">
        <ele>158</ele>
        <time>2021-08-31T07:59:14Z</time>
      </trkpt>
      <trkpt lat="44.59867" lon="1.91054">
        <ele>156</ele>
        <time>2021-08-31T07:59:45Z</time>
      </trkpt>
      <trkpt lat="44.59885" lon="1.9099">
        <ele>160</ele>
        <time>2021-08-31T07:59:54Z</time>
      </trkpt>
      <trkpt lat="44.59966" lon="1.90816">
        <ele>172</ele>
        <time>2021-08-31T08:00:22Z</time>
      </trkpt>
      <trkpt lat="44.59994" lon="1.90782">
        <ele>173</ele>
        <time>2021-08-31T08:00:29Z</time>
      </trkpt>
      <trkpt lat="44.60145" lon="1.90681">
        <ele>175</ele>
        <time>2021-08-31T08:01:00Z</time>
      </trkpt>
      <trkpt lat="44.60303" lon="1.9058">
        <ele>171</ele>
        <time>2021-08-31T08:01:31Z</time>
      </trkpt>
      <trkpt lat="44.60339" lon="1.90562">
        <ele>172</ele>
        <time>2021-08-31T08:01:38Z</time>
      </trkpt>
      <trkpt lat="44.60385" lon="1.90556">
        <ele>171</ele>
        <time>2021-08-31T08:01:47Z</time>
      </trkpt>
      <trkpt lat="44.60431" lon="1.90561">
        <ele>171</ele>
        <time>2021-08-31T08:01:55Z</time>
      </trkpt>
      <trkpt lat="44.60597" lon="1.90633">
        <ele>169</ele>
        <time>2021-08-31T08:02:26Z</time>
      </trkpt>
      <trkpt lat="44.60749" lon="1.90701">
        <ele>165</ele>
        <time>2021-08-31T08:02:56Z</time>
      </trkpt>
      <trkpt lat="44.60849" lon="1.90724">
        <ele>164</ele>
        <time>2021-08-31T08:03:14Z</time>
      </trkpt>
      <trkpt lat="44.6087" lon="1.90725">
        <ele>164</ele>
        <time>2021-08-31T08:03:18Z</time>
      </trkpt>
      <trkpt lat="44.60909" lon="1.90719">
        <ele>162</ele>
        <time>2021-08-31T08:03:26Z</time>
      </trkpt>
      <trkpt lat="44.60959" lon="1.90682">
        <ele>157</ele>
        <time>2021-08-31T08:03:37Z</time>
      </trkpt>
      <trkpt lat="44.60976" lon="1.90662">
        <ele>156</ele>
        <time>2021-08-31T08:03:41Z</time>
      </trkpt>
      <trkpt lat="44.6099" lon="1.90635">
        <ele>155</ele>
        <time>2021-08-31T08:03:45Z</time>
      </trkpt>
      <trkpt lat="44.61008" lon="1.90564">
        <ele>155</ele>
        <time>2021-08-31T08:03:55Z</time>
      </trkpt>
      <trkpt lat="44.61014" lon="1.90491">
        <ele>153</ele>
        <time>2021-08-31T08:04:05Z</time>
      </trkpt>
      <trkpt lat="44.6101" lon="1.9045">
        <ele>151</ele>
        <time>2021-08-31T08:04:11Z</time>
      </trkpt>
      <trkpt lat="44.60986" lon="1.90381">
        <ele>146</ele>
        <time>2021-08-31T08:04:22Z</time>
      </trkpt>
      <trkpt lat="44.60963" lon="1.90341">
        <ele>150</ele>
        <time>2021-08-31T08:04:28Z</time>
      </trkpt>
      <trkpt lat="44.60889" lon="1.90214">
        <ele>155</ele>
        <time>2021-08-31T08:04:53Z</time>
      </trkpt>
      <trkpt lat="44.60882" lon="1.90208">
        <ele>154</ele>
        <time>2021-08-31T08:04:55Z</time>
      </trkpt>
      <trkpt lat="44.60859" lon="1.9018">
        <ele>154</ele>
        <time>2021-08-31T08:05:04Z</time>
      </trkpt>
      <trkpt lat="44.60853" lon="1.90175">
        <ele>151</ele>
        <time>2021-08-31T08:05:08Z</time>
      </trkpt>
      <trkpt lat="44.60855" lon="1.90167">
        <ele>150</ele>
        <time>2021-08-31T08:06:18Z</time>
      </trkpt>
      <trkpt lat="44.60855" lon="1.90153">
        <ele>149</ele>
        <time>2021-08-31T08:06:34Z</time>
      </trkpt>
      <trkpt lat="44.60849" lon="1.90153">
        <ele>149</ele>
        <time>2021-08-31T08:06:41Z</time>
      </trkpt>
      <trkpt lat="44.60845" lon="1.90149">
        <ele>153</ele>
        <time>2021-08-31T08:07:05Z</time>
      </trkpt>
      <trkpt lat="44.6084" lon="1.90151">
        <ele>156</ele>
        <time>2021-08-31T08:07:08Z</time>
      </trkpt>
      <trkpt lat="44.60785" lon="1.90108">
        <ele>161</ele>
        <time>2021-08-31T08:07:32Z</time>
      </trkpt>
      <trkpt lat="44.6078" lon="1.90105">
        <ele>160</ele>
        <time>2021-08-31T08:07:34Z</time>
      </trkpt>
      <trkpt lat="44.60776" lon="1.90102">
        <ele>160</ele>
        <time>2021-08-31T08:07:36Z</time>
      </trkpt>
      <trkpt lat="44.60772" lon="1.90095">
        <ele>161</ele>
        <time>2021-08-31T08:07:39Z</time>
      </trkpt>
      <trkpt lat="44.60767" lon="1.9009">
        <ele>161</ele>
        <time>2021-08-31T08:07:42Z</time>
      </trkpt>
      <trkpt lat="44.60763" lon="1.90085">
        <ele>162</ele>
        <time>2021-08-31T08:07:45Z</time>
      </trkpt>
      <trkpt lat="44.60759" lon="1.90081">
        <ele>162</ele>
        <time>2021-08-31T08:07:48Z</time>
      </trkpt>
      <trkpt lat="44.60756" lon="1.90075">
        <ele>162</ele>
        <time>2021-08-31T08:07:51Z</time>
      </trkpt>
      <trkpt lat="44.60751" lon="1.90062">
        <ele>161</ele>
        <time>2021-08-31T08:07:55Z</time>
      </trkpt>
      <trkpt lat="44.60747" lon="1.90045">
        <ele>161</ele>
        <time>2021-08-31T08:07:59Z</time>
      </trkpt>
      <trkpt lat="44.60736" lon="1.90005">
        <ele>158</ele>
        <time>2021-08-31T08:08:09Z</time>
      </trkpt>
      <trkpt lat="44.60734" lon="1.89996">
        <ele>158</ele>
        <time>2021-08-31T08:08:11Z</time>
      </trkpt>
      <trkpt lat="44.60732" lon="1.89986">
        <ele>159</ele>
        <time>2021-08-31T08:08:13Z</time>
      </trkpt>
      <trkpt lat="44.60729" lon="1.89979">
        <ele>159</ele>
        <time>2021-08-31T08:08:15Z</time>
      </trkpt>
      <trkpt lat="44.60727" lon="1.89969">
        <ele>160</ele>
        <time>2021-08-31T08:08:17Z</time>
      </trkpt>
      <trkpt lat="44.60717" lon="1.89931">
        <ele>162</ele>
        <time>2021-08-31T08:08:27Z</time>
      </trkpt>
      <trkpt lat="44.60715" lon="1.89918">
        <ele>162</ele>
        <time>2021-08-31T08:08:31Z</time>
      </trkpt>
      <trkpt lat="44.60713" lon="1.89912">
        <ele>162</ele>
        <time>2021-08-31T08:08:33Z</time>
      </trkpt>
      <trkpt lat="44.60698" lon="1.89861">
        <ele>163</ele>
        <time>2021-08-31T08:08:45Z</time>
      </trkpt>
      <trkpt lat="44.60664" lon="1.89723">
        <ele>163</ele>
        <time>2021-08-31T08:09:11Z</time>
      </trkpt>
      <trkpt lat="44.60648" lon="1.89562">
        <ele>165</ele>
        <time>2021-08-31T08:09:37Z</time>
      </trkpt>
      <trkpt lat="44.60649" lon="1.89472">
        <ele>165</ele>
        <time>2021-08-31T08:09:51Z</time>
      </trkpt>
      <trkpt lat="44.60668" lon="1.89371">
        <ele>167</ele>
        <time>2021-08-31T08:10:06Z</time>
      </trkpt>
      <trkpt lat="44.60683" lon="1.89332">
        <ele>168</ele>
        <time>2021-08-31T08:10:12Z</time>
      </trkpt>
      <trkpt lat="44.60722" lon="1.89281">
        <ele>169</ele>
        <time>2021-08-31T08:10:23Z</time>
      </trkpt>
      <trkpt lat="44.60847" lon="1.89169">
        <ele>168</ele>
        <time>2021-08-31T08:10:54Z</time>
      </trkpt>
      <trkpt lat="44.60896" lon="1.89126">
        <ele>166</ele>
        <time>2021-08-31T08:11:06Z</time>
      </trkpt>
      <trkpt lat="44.60943" lon="1.89049">
        <ele>169</ele>
        <time>2021-08-31T08:11:20Z</time>
      </trkpt>
      <trkpt lat="44.60963" lon="1.88988">
        <ele>170</ele>
        <time>2021-08-31T08:11:29Z</time>
      </trkpt>
      <trkpt lat="44.60972" lon="1.8893">
        <ele>171</ele>
        <time>2021-08-31T08:11:37Z</time>
      </trkpt>
      <trkpt lat="44.60973" lon="1.88893">
        <ele>171</ele>
        <time>2021-08-31T08:11:42Z</time>
      </trkpt>
      <trkpt lat="44.6095" lon="1.8876">
        <ele>173</ele>
        <time>2021-08-31T08:12:01Z</time>
      </trkpt>
      <trkpt lat="44.60921" lon="1.88657">
        <ele>170</ele>
        <time>2021-08-31T08:12:16Z</time>
      </trkpt>
      <trkpt lat="44.60875" lon="1.88575">
        <ele>166</ele>
        <time>2021-08-31T08:12:30Z</time>
      </trkpt>
      <trkpt lat="44.60811" lon="1.88503">
        <ele>168</ele>
        <time>2021-08-31T08:12:45Z</time>
      </trkpt>
      <trkpt lat="44.60668" lon="1.88411">
        <ele>164</ele>
        <time>2021-08-31T08:13:15Z</time>
      </trkpt>
      <trkpt lat="44.60592" lon="1.88369">
        <ele>153</ele>
        <time>2021-08-31T08:13:31Z</time>
      </trkpt>
      <trkpt lat="44.60474" lon="1.88325">
        <ele>147</ele>
        <time>2021-08-31T08:13:54Z</time>
      </trkpt>
      <trkpt lat="44.60318" lon="1.88239">
        <ele>146</ele>
        <time>2021-08-31T08:14:26Z</time>
      </trkpt>
      <trkpt lat="44.60187" lon="1.88146">
        <ele>145</ele>
        <time>2021-08-31T08:14:54Z</time>
      </trkpt>
      <trkpt lat="44.60061" lon="1.8801">
        <ele>152</ele>
        <time>2021-08-31T08:15:25Z</time>
      </trkpt>
      <trkpt lat="44.60037" lon="1.87973">
        <ele>152</ele>
        <time>2021-08-31T08:15:32Z</time>
      </trkpt>
      <trkpt lat="44.60023" lon="1.87938">
        <ele>151</ele>
        <time>2021-08-31T08:15:37Z</time>
      </trkpt>
      <trkpt lat="44.59998" lon="1.87858">
        <ele>153</ele>
        <time>2021-08-31T08:15:49Z</time>
      </trkpt>
      <trkpt lat="44.59985" lon="1.87826">
        <ele>153</ele>
        <time>2021-08-31T08:15:54Z</time>
      </trkpt>
      <trkpt lat="44.59967" lon="1.87799">
        <ele>153</ele>
        <time>2021-08-31T08:15:59Z</time>
      </trkpt>
      <trkpt lat="44.59925" lon="1.87756">
        <ele>158</ele>
        <time>2021-08-31T08:16:09Z</time>
      </trkpt>
      <trkpt lat="44.59895" lon="1.87729">
        <ele>159</ele>
        <time>2021-08-31T08:16:16Z</time>
      </trkpt>
      <trkpt lat="44.59756" lon="1.87583">
        <ele>173</ele>
        <time>2021-08-31T08:16:47Z</time>
      </trkpt>
      <trkpt lat="44.59617" lon="1.87449">
        <ele>162</ele>
        <time>2021-08-31T08:17:19Z</time>
      </trkpt>
      <trkpt lat="44.59604" lon="1.87438">
        <ele>161</ele>
        <time>2021-08-31T08:17:22Z</time>
      </trkpt>
      <trkpt lat="44.59594" lon="1.87434">
        <ele>161</ele>
        <time>2021-08-31T08:17:24Z</time>
      </trkpt>
      <trkpt lat="44.59585" lon="1.87426">
        <ele>161</ele>
        <time>2021-08-31T08:17:26Z</time>
      </trkpt>
      <trkpt lat="44.59455" lon="1.87369">
        <ele>166</ele>
        <time>2021-08-31T08:17:53Z</time>
      </trkpt>
      <trkpt lat="44.59422" lon="1.87366">
        <ele>164</ele>
        <time>2021-08-31T08:18:00Z</time>
      </trkpt>
      <trkpt lat="44.59275" lon="1.87304">
        <ele>175</ele>
        <time>2021-08-31T08:18:30Z</time>
      </trkpt>
      <trkpt lat="44.59136" lon="1.87256">
        <ele>174</ele>
        <time>2021-08-31T08:19:01Z</time>
      </trkpt>
      <trkpt lat="44.59109" lon="1.87225">
        <ele>173</ele>
        <time>2021-08-31T08:19:08Z</time>
      </trkpt>
      <trkpt lat="44.59093" lon="1.872">
        <ele>171</ele>
        <time>2021-08-31T08:19:13Z</time>
      </trkpt>
      <trkpt lat="44.59073" lon="1.87155">
        <ele>170</ele>
        <time>2021-08-31T08:19:21Z</time>
      </trkpt>
      <trkpt lat="44.59069" lon="1.87134">
        <ele>172</ele>
        <time>2021-08-31T08:19:24Z</time>
      </trkpt>
      <trkpt lat="44.59068" lon="1.87105">
        <ele>172</ele>
        <time>2021-08-31T08:19:28Z</time>
      </trkpt>
      <trkpt lat="44.5907" lon="1.87086">
        <ele>172</ele>
        <time>2021-08-31T08:19:31Z</time>
      </trkpt>
      <trkpt lat="44.59081" lon="1.87042">
        <ele>171</ele>
        <time>2021-08-31T08:19:39Z</time>
      </trkpt>
      <trkpt lat="44.59143" lon="1.8691">
        <ele>171</ele>
        <time>2021-08-31T08:20:09Z</time>
      </trkpt>
      <trkpt lat="44.5924" lon="1.86765">
        <ele>174</ele>
        <time>2021-08-31T08:20:41Z</time>
      </trkpt>
      <trkpt lat="44.59324" lon="1.8664">
        <ele>178</ele>
        <time>2021-08-31T08:21:08Z</time>
      </trkpt>
      <trkpt lat="44.59328" lon="1.86629">
        <ele>178</ele>
        <time>2021-08-31T08:21:10Z</time>
      </trkpt>
      <trkpt lat="44.59358" lon="1.86575">
        <ele>181</ele>
        <time>2021-08-31T08:21:20Z</time>
      </trkpt>
      <trkpt lat="44.59413" lon="1.86424">
        <ele>177</ele>
        <time>2021-08-31T08:21:44Z</time>
      </trkpt>
      <trkpt lat="44.59421" lon="1.86363">
        <ele>175</ele>
        <time>2021-08-31T08:21:53Z</time>
      </trkpt>
      <trkpt lat="44.59419" lon="1.86294">
        <ele>172</ele>
        <time>2021-08-31T08:22:03Z</time>
      </trkpt>
      <trkpt lat="44.59386" lon="1.86074">
        <ele>169</ele>
        <time>2021-08-31T08:22:34Z</time>
      </trkpt>
      <trkpt lat="44.59348" lon="1.85873">
        <ele>172</ele>
        <time>2021-08-31T08:23:04Z</time>
      </trkpt>
      <trkpt lat="44.59346" lon="1.85843">
        <ele>172</ele>
        <time>2021-08-31T08:23:08Z</time>
      </trkpt>
      <trkpt lat="44.59346" lon="1.85835">
        <ele>172</ele>
        <time>2021-08-31T08:23:09Z</time>
      </trkpt>
      <trkpt lat="44.59343" lon="1.85799">
        <ele>171</ele>
        <time>2021-08-31T08:23:14Z</time>
      </trkpt>
      <trkpt lat="44.59345" lon="1.85745">
        <ele>169</ele>
        <time>2021-08-31T08:23:21Z</time>
      </trkpt>
      <trkpt lat="44.59395" lon="1.8556">
        <ele>168</ele>
        <time>2021-08-31T08:23:52Z</time>
      </trkpt>
      <trkpt lat="44.59444" lon="1.85388">
        <ele>168</ele>
        <time>2021-08-31T08:24:22Z</time>
      </trkpt>
      <trkpt lat="44.59482" lon="1.85189">
        <ele>166</ele>
        <time>2021-08-31T08:24:54Z</time>
      </trkpt>
      <trkpt lat="44.59494" lon="1.85047">
        <ele>165</ele>
        <time>2021-08-31T08:25:15Z</time>
      </trkpt>
      <trkpt lat="44.59489" lon="1.84865">
        <ele>159</ele>
        <time>2021-08-31T08:25:43Z</time>
      </trkpt>
      <trkpt lat="44.59487" lon="1.84853">
        <ele>159</ele>
        <time>2021-08-31T08:25:45Z</time>
      </trkpt>
      <trkpt lat="44.59486" lon="1.84652">
        <ele>156</ele>
        <time>2021-08-31T08:26:16Z</time>
      </trkpt>
      <trkpt lat="44.59478" lon="1.84451">
        <ele>164</ele>
        <time>2021-08-31T08:26:46Z</time>
      </trkpt>
      <trkpt lat="44.59483" lon="1.84408">
        <ele>164</ele>
        <time>2021-08-31T08:26:52Z</time>
      </trkpt>
      <trkpt lat="44.59493" lon="1.8437">
        <ele>164</ele>
        <time>2021-08-31T08:26:58Z</time>
      </trkpt>
      <trkpt lat="44.59527" lon="1.84279">
        <ele>163</ele>
        <time>2021-08-31T08:27:15Z</time>
      </trkpt>
      <trkpt lat="44.59535" lon="1.84213">
        <ele>164</ele>
        <time>2021-08-31T08:27:25Z</time>
      </trkpt>
      <trkpt lat="44.59535" lon="1.84164">
        <ele>163</ele>
        <time>2021-08-31T08:27:33Z</time>
      </trkpt>
      <trkpt lat="44.5953" lon="1.84129">
        <ele>162</ele>
        <time>2021-08-31T08:27:39Z</time>
      </trkpt>
      <trkpt lat="44.59465" lon="1.8396">
        <ele>161</ele>
        <time>2021-08-31T08:28:10Z</time>
      </trkpt>
      <trkpt lat="44.59449" lon="1.83923">
        <ele>158</ele>
        <time>2021-08-31T08:28:17Z</time>
      </trkpt>
      <trkpt lat="44.59425" lon="1.83886">
        <ele>155</ele>
        <time>2021-08-31T08:28:25Z</time>
      </trkpt>
      <trkpt lat="44.59406" lon="1.83874">
        <ele>155</ele>
        <time>2021-08-31T08:28:30Z</time>
      </trkpt>
      <trkpt lat="44.59339" lon="1.83842">
        <ele>154</ele>
        <time>2021-08-31T08:28:46Z</time>
      </trkpt>
      <trkpt lat="44.59331" lon="1.8384">
        <ele>155</ele>
        <time>2021-08-31T08:28:48Z</time>
      </trkpt>
      <trkpt lat="44.59324" lon="1.83847">
        <ele>155</ele>
        <time>2021-08-31T08:28:50Z</time>
      </trkpt>
      <trkpt lat="44.59314" lon="1.83875">
        <ele>157</ele>
        <time>2021-08-31T08:28:58Z</time>
      </trkpt>
      <trkpt lat="44.59311" lon="1.8388">
        <ele>159</ele>
        <time>2021-08-31T08:29:00Z</time>
      </trkpt>
      <trkpt lat="44.59312" lon="1.83888">
        <ele>162</ele>
        <time>2021-08-31T08:30:00Z</time>
      </trkpt>
      <trkpt lat="44.59311" lon="1.83894">
        <ele>162</ele>
        <time>2021-08-31T08:30:04Z</time>
      </trkpt>
      <trkpt lat="44.5931" lon="1.83901">
        <ele>162</ele>
        <time>2021-08-31T08:30:20Z</time>
      </trkpt>
      <trkpt lat="44.59308" lon="1.83908">
        <ele>162</ele>
        <time>2021-08-31T08:30:23Z</time>
      </trkpt>
      <trkpt lat="44.59305" lon="1.83916">
        <ele>163</ele>
        <time>2021-08-31T08:30:26Z</time>
      </trkpt>
      <trkpt lat="44.59299" lon="1.83937">
        <ele>165</ele>
        <time>2021-08-31T08:30:33Z</time>
      </trkpt>
      <trkpt lat="44.59299" lon="1.83958">
        <ele>165</ele>
        <time>2021-08-31T08:30:42Z</time>
      </trkpt>
      <trkpt lat="44.59301" lon="1.83972">
        <ele>165</ele>
        <time>2021-08-31T08:30:49Z</time>
      </trkpt>
      <trkpt lat="44.59298" lon="1.83976">
        <ele>166</ele>
        <time>2021-08-31T08:31:16Z</time>
      </trkpt>
      <trkpt lat="44.59295" lon="1.83976">
        <ele>167</ele>
        <time>2021-08-31T08:36:17Z</time>
      </trkpt>
      <trkpt lat="44.59293" lon="1.83983">
        <ele>167</ele>
        <time>2021-08-31T08:36:19Z</time>
      </trkpt>
      <trkpt lat="44.59296" lon="1.83991">
        <ele>167</ele>
        <time>2021-08-31T08:36:21Z</time>
      </trkpt>
      <trkpt lat="44.59296" lon="1.83999">
        <ele>168</ele>
        <time>2021-08-31T08:36:23Z</time>
      </trkpt>
      <trkpt lat="44.59296" lon="1.84006">
        <ele>168</ele>
        <time>2021-08-31T08:36:25Z</time>
      </trkpt>
      <trkpt lat="44.59292" lon="1.84012">
        <ele>169</ele>
        <time>2021-08-31T08:36:27Z</time>
      </trkpt>
      <trkpt lat="44.59285" lon="1.84023">
        <ele>170</ele>
        <time>2021-08-31T08:36:32Z</time>
      </trkpt>
      <trkpt lat="44.59282" lon="1.84028">
        <ele>169</ele>
        <time>2021-08-31T08:36:45Z</time>
      </trkpt>
      <trkpt lat="44.5927" lon="1.84031">
        <ele>167</ele>
        <time>2021-08-31T08:36:51Z</time>
      </trkpt>
      <trkpt lat="44.59264" lon="1.84031">
        <ele>167</ele>
        <time>2021-08-31T08:36:53Z</time>
      </trkpt>
      <trkpt lat="44.59239" lon="1.8404">
        <ele>166</ele>
        <time>2021-08-31T08:37:06Z</time>
      </trkpt>
      <trkpt lat="44.59234" lon="1.84042">
        <ele>166</ele>
        <time>2021-08-31T08:37:09Z</time>
      </trkpt>
      <trkpt lat="44.59227" lon="1.84045">
        <ele>166</ele>
        <time>2021-08-31T08:37:21Z</time>
      </trkpt>
      <trkpt lat="44.59223" lon="1.8405">
        <ele>166</ele>
        <time>2021-08-31T08:37:24Z</time>
      </trkpt>
      <trkpt lat="44.5922" lon="1.84057">
        <ele>166</ele>
        <time>2021-08-31T08:37:28Z</time>
      </trkpt>
      <trkpt lat="44.59218" lon="1.84054">
        <ele>166</ele>
        <time>2021-08-31T08:38:08Z</time>
      </trkpt>
      <trkpt lat="44.59219" lon="1.84047">
        <ele>166</ele>
        <time>2021-08-31T08:38:39Z</time>
      </trkpt>
      <trkpt lat="44.59223" lon="1.84043">
        <ele>167</ele>
        <time>2021-08-31T08:38:43Z</time>
      </trkpt>
      <trkpt lat="44.59226" lon="1.84038">
        <ele>167</ele>
        <time>2021-08-31T08:38:50Z</time>
      </trkpt>
      <trkpt lat="44.59231" lon="1.84038">
        <ele>167</ele>
        <time>2021-08-31T08:42:06Z</time>
      </trkpt>
      <trkpt lat="44.59238" lon="1.84037">
        <ele>167</ele>
        <time>2021-08-31T08:42:09Z</time>
      </trkpt>
      <trkpt lat="44.59244" lon="1.84033">
        <ele>164</ele>
        <time>2021-08-31T08:42:12Z</time>
      </trkpt>
      <trkpt lat="44.59249" lon="1.84029">
        <ele>163</ele>
        <time>2021-08-31T08:42:15Z</time>
      </trkpt>
      <trkpt lat="44.59265" lon="1.84019">
        <ele>160</ele>
        <time>2021-08-31T08:42:24Z</time>
      </trkpt>
      <trkpt lat="44.5927" lon="1.84015">
        <ele>158</ele>
        <time>2021-08-31T08:42:27Z</time>
      </trkpt>
      <trkpt lat="44.59274" lon="1.84009">
        <ele>157</ele>
        <time>2021-08-31T08:43:02Z</time>
      </trkpt>
      <trkpt lat="44.59286" lon="1.83979">
        <ele>155</ele>
        <time>2021-08-31T08:43:10Z</time>
      </trkpt>
      <trkpt lat="44.59289" lon="1.8397">
        <ele>154</ele>
        <time>2021-08-31T08:43:12Z</time>
      </trkpt>
      <trkpt lat="44.59289" lon="1.83962">
        <ele>153</ele>
        <time>2021-08-31T08:43:14Z</time>
      </trkpt>
      <trkpt lat="44.59294" lon="1.83947">
        <ele>153</ele>
        <time>2021-08-31T08:43:18Z</time>
      </trkpt>
      <trkpt lat="44.59295" lon="1.83929">
        <ele>152</ele>
        <time>2021-08-31T08:43:22Z</time>
      </trkpt>
      <trkpt lat="44.59314" lon="1.83883">
        <ele>150</ele>
        <time>2021-08-31T08:43:34Z</time>
      </trkpt>
      <trkpt lat="44.59319" lon="1.83873">
        <ele>148</ele>
        <time>2021-08-31T08:43:38Z</time>
      </trkpt>
      <trkpt lat="44.59326" lon="1.8385">
        <ele>145</ele>
        <time>2021-08-31T08:43:46Z</time>
      </trkpt>
      <trkpt lat="44.59311" lon="1.83836">
        <ele>141</ele>
        <time>2021-08-31T08:43:53Z</time>
      </trkpt>
      <trkpt lat="44.59277" lon="1.83835">
        <ele>144</ele>
        <time>2021-08-31T08:44:01Z</time>
      </trkpt>
      <trkpt lat="44.59202" lon="1.83857">
        <ele>150</ele>
        <time>2021-08-31T08:44:23Z</time>
      </trkpt>
      <trkpt lat="44.592" lon="1.83863">
        <ele>153</ele>
        <time>2021-08-31T08:44:56Z</time>
      </trkpt>
      <trkpt lat="44.59193" lon="1.83865">
        <ele>153</ele>
        <time>2021-08-31T08:44:58Z</time>
      </trkpt>
      <trkpt lat="44.59176" lon="1.83877">
        <ele>158</ele>
        <time>2021-08-31T08:45:04Z</time>
      </trkpt>
      <trkpt lat="44.59136" lon="1.839">
        <ele>165</ele>
        <time>2021-08-31T08:45:14Z</time>
      </trkpt>
      <trkpt lat="44.59128" lon="1.83903">
        <ele>166</ele>
        <time>2021-08-31T08:45:16Z</time>
      </trkpt>
      <trkpt lat="44.59055" lon="1.83937">
        <ele>170</ele>
        <time>2021-08-31T08:45:34Z</time>
      </trkpt>
      <trkpt lat="44.58966" lon="1.84029">
        <ele>174</ele>
        <time>2021-08-31T08:46:05Z</time>
      </trkpt>
      <trkpt lat="44.58918" lon="1.84069">
        <ele>174</ele>
        <time>2021-08-31T08:46:18Z</time>
      </trkpt>
      <trkpt lat="44.58913" lon="1.84076">
        <ele>174</ele>
        <time>2021-08-31T08:46:20Z</time>
      </trkpt>
      <trkpt lat="44.58858" lon="1.84137">
        <ele>177</ele>
        <time>2021-08-31T08:46:36Z</time>
      </trkpt>
      <trkpt lat="44.58851" lon="1.84144">
        <ele>177</ele>
        <time>2021-08-31T08:46:38Z</time>
      </trkpt>
      <trkpt lat="44.58769" lon="1.84295">
        <ele>185</ele>
        <time>2021-08-31T08:47:08Z</time>
      </trkpt>
      <trkpt lat="44.5876" lon="1.84313">
        <ele>185</ele>
        <time>2021-08-31T08:47:11Z</time>
      </trkpt>
      <trkpt lat="44.58757" lon="1.84316">
        <ele>185</ele>
        <time>2021-08-31T08:47:12Z</time>
      </trkpt>
      <trkpt lat="44.58748" lon="1.84333">
        <ele>186</ele>
        <time>2021-08-31T08:47:15Z</time>
      </trkpt>
      <trkpt lat="44.5874" lon="1.84352">
        <ele>187</ele>
        <time>2021-08-31T08:47:18Z</time>
      </trkpt>
      <trkpt lat="44.5871" lon="1.84398">
        <ele>188</ele>
        <time>2021-08-31T08:47:27Z</time>
      </trkpt>
      <trkpt lat="44.58707" lon="1.84404">
        <ele>188</ele>
        <time>2021-08-31T08:47:28Z</time>
      </trkpt>
      <trkpt lat="44.58666" lon="1.84471">
        <ele>184</ele>
        <time>2021-08-31T08:47:41Z</time>
      </trkpt>
      <trkpt lat="44.58655" lon="1.84483">
        <ele>179</ele>
        <time>2021-08-31T08:47:44Z</time>
      </trkpt>
      <trkpt lat="44.58647" lon="1.84492">
        <ele>175</ele>
        <time>2021-08-31T08:47:46Z</time>
      </trkpt>
      <trkpt lat="44.58632" lon="1.84503">
        <ele>172</ele>
        <time>2021-08-31T08:47:50Z</time>
      </trkpt>
      <trkpt lat="44.58613" lon="1.84513">
        <ele>172</ele>
        <time>2021-08-31T08:47:54Z</time>
      </trkpt>
      <trkpt lat="44.58605" lon="1.84516">
        <ele>172</ele>
        <time>2021-08-31T08:47:56Z</time>
      </trkpt>
      <trkpt lat="44.5859" lon="1.84517">
        <ele>171</ele>
        <time>2021-08-31T08:48:00Z</time>
      </trkpt>
      <trkpt lat="44.5856" lon="1.84493">
        <ele>168</ele>
        <time>2021-08-31T08:48:09Z</time>
      </trkpt>
      <trkpt lat="44.58554" lon="1.84493">
        <ele>168</ele>
        <time>2021-08-31T08:48:11Z</time>
      </trkpt>
      <trkpt lat="44.58554" lon="1.845">
        <ele>168</ele>
        <time>2021-08-31T08:48:20Z</time>
      </trkpt>
      <trkpt lat="44.58558" lon="1.84506">
        <ele>169</ele>
        <time>2021-08-31T08:48:23Z</time>
      </trkpt>
      <trkpt lat="44.5856" lon="1.84501">
        <ele>168</ele>
        <time>2021-08-31T08:52:55Z</time>
      </trkpt>
      <trkpt lat="44.58559" lon="1.84493">
        <ele>168</ele>
        <time>2021-08-31T08:53:01Z</time>
      </trkpt>
      <trkpt lat="44.58552" lon="1.84477">
        <ele>168</ele>
        <time>2021-08-31T08:53:05Z</time>
      </trkpt>
      <trkpt lat="44.58547" lon="1.84467">
        <ele>168</ele>
        <time>2021-08-31T08:53:07Z</time>
      </trkpt>
      <trkpt lat="44.58542" lon="1.84453">
        <ele>169</ele>
        <time>2021-08-31T08:53:11Z</time>
      </trkpt>
      <trkpt lat="44.58543" lon="1.84418">
        <ele>169</ele>
        <time>2021-08-31T08:53:19Z</time>
      </trkpt>
      <trkpt lat="44.5855" lon="1.8439">
        <ele>168</ele>
        <time>2021-08-31T08:53:25Z</time>
      </trkpt>
      <trkpt lat="44.58592" lon="1.84233">
        <ele>162</ele>
        <time>2021-08-31T08:53:57Z</time>
      </trkpt>
      <trkpt lat="44.58635" lon="1.84071">
        <ele>158</ele>
        <time>2021-08-31T08:54:29Z</time>
      </trkpt>
      <trkpt lat="44.58678" lon="1.83916">
        <ele>152</ele>
        <time>2021-08-31T08:54:59Z</time>
      </trkpt>
      <trkpt lat="44.58685" lon="1.83873">
        <ele>151</ele>
        <time>2021-08-31T08:55:07Z</time>
      </trkpt>
      <trkpt lat="44.58696" lon="1.837">
        <ele>145</ele>
        <time>2021-08-31T08:55:39Z</time>
      </trkpt>
      <trkpt lat="44.58699" lon="1.83641">
        <ele>143</ele>
        <time>2021-08-31T08:55:49Z</time>
      </trkpt>
      <trkpt lat="44.58699" lon="1.83629">
        <ele>142</ele>
        <time>2021-08-31T08:55:51Z</time>
      </trkpt>
      <trkpt lat="44.58697" lon="1.83583">
        <ele>140</ele>
        <time>2021-08-31T08:55:59Z</time>
      </trkpt>
      <trkpt lat="44.58687" lon="1.83444">
        <ele>145</ele>
        <time>2021-08-31T08:56:22Z</time>
      </trkpt>
      <trkpt lat="44.58662" lon="1.83357">
        <ele>146</ele>
        <time>2021-08-31T08:56:37Z</time>
      </trkpt>
      <trkpt lat="44.58644" lon="1.83325">
        <ele>146</ele>
        <time>2021-08-31T08:56:43Z</time>
      </trkpt>
      <trkpt lat="44.5859" lon="1.83263">
        <ele>149</ele>
        <time>2021-08-31T08:56:58Z</time>
      </trkpt>
      <trkpt lat="44.58547" lon="1.83237">
        <ele>154</ele>
        <time>2021-08-31T08:57:07Z</time>
      </trkpt>
      <trkpt lat="44.58519" lon="1.83226">
        <ele>158</ele>
        <time>2021-08-31T08:57:13Z</time>
      </trkpt>
      <trkpt lat="44.5846" lon="1.83228">
        <ele>168</ele>
        <time>2021-08-31T08:57:25Z</time>
      </trkpt>
      <trkpt lat="44.58392" lon="1.83262">
        <ele>177</ele>
        <time>2021-08-31T08:57:39Z</time>
      </trkpt>
      <trkpt lat="44.58326" lon="1.83292">
        <ele>174</ele>
        <time>2021-08-31T08:57:53Z</time>
      </trkpt>
      <trkpt lat="44.58289" lon="1.83308">
        <ele>170</ele>
        <time>2021-08-31T08:58:01Z</time>
      </trkpt>
      <trkpt lat="44.58272" lon="1.83315">
        <ele>169</ele>
        <time>2021-08-31T08:58:05Z</time>
      </trkpt>
      <trkpt lat="44.58187" lon="1.83359">
        <ele>167</ele>
        <time>2021-08-31T08:58:24Z</time>
      </trkpt>
      <trkpt lat="44.58163" lon="1.83372">
        <ele>165</ele>
        <time>2021-08-31T08:58:29Z</time>
      </trkpt>
      <trkpt lat="44.58021" lon="1.83441">
        <ele>156</ele>
        <time>2021-08-31T08:59:00Z</time>
      </trkpt>
      <trkpt lat="44.57988" lon="1.83457">
        <ele>152</ele>
        <time>2021-08-31T08:59:07Z</time>
      </trkpt>
      <trkpt lat="44.57942" lon="1.83486">
        <ele>150</ele>
        <time>2021-08-31T08:59:18Z</time>
      </trkpt>
      <trkpt lat="44.57873" lon="1.8352">
        <ele>153</ele>
        <time>2021-08-31T08:59:32Z</time>
      </trkpt>
      <trkpt lat="44.57765" lon="1.8353">
        <ele>161</ele>
        <time>2021-08-31T08:59:53Z</time>
      </trkpt>
      <trkpt lat="44.57717" lon="1.83508">
        <ele>162</ele>
        <time>2021-08-31T09:00:03Z</time>
      </trkpt>
      <trkpt lat="44.57696" lon="1.83487">
        <ele>162</ele>
        <time>2021-08-31T09:00:08Z</time>
      </trkpt>
      <trkpt lat="44.57679" lon="1.83467">
        <ele>163</ele>
        <time>2021-08-31T09:00:12Z</time>
      </trkpt>
      <trkpt lat="44.57665" lon="1.83436">
        <ele>163</ele>
        <time>2021-08-31T09:00:17Z</time>
      </trkpt>
      <trkpt lat="44.57652" lon="1.83375">
        <ele>163</ele>
        <time>2021-08-31T09:00:26Z</time>
      </trkpt>
      <trkpt lat="44.57647" lon="1.83338">
        <ele>163</ele>
        <time>2021-08-31T09:00:32Z</time>
      </trkpt>
      <trkpt lat="44.57648" lon="1.83321">
        <ele>162</ele>
        <time>2021-08-31T09:00:36Z</time>
      </trkpt>
      <trkpt lat="44.57648" lon="1.83314">
        <ele>161</ele>
        <time>2021-08-31T09:00:38Z</time>
      </trkpt>
      <trkpt lat="44.57646" lon="1.83306">
        <ele>158</ele>
        <time>2021-08-31T09:00:40Z</time>
      </trkpt>
      <trkpt lat="44.57648" lon="1.83285">
        <ele>156</ele>
        <time>2021-08-31T09:00:44Z</time>
      </trkpt>
      <trkpt lat="44.57636" lon="1.8311">
        <ele>145</ele>
        <time>2021-08-31T09:01:14Z</time>
      </trkpt>
      <trkpt lat="44.5763" lon="1.83036">
        <ele>144</ele>
        <time>2021-08-31T09:01:26Z</time>
      </trkpt>
      <trkpt lat="44.57627" lon="1.83001">
        <ele>143</ele>
        <time>2021-08-31T09:01:32Z</time>
      </trkpt>
      <trkpt lat="44.57615" lon="1.82784">
        <ele>131</ele>
        <time>2021-08-31T09:02:03Z</time>
      </trkpt>
      <trkpt lat="44.57584" lon="1.82576">
        <ele>121</ele>
        <time>2021-08-31T09:02:34Z</time>
      </trkpt>
      <trkpt lat="44.57542" lon="1.82423">
        <ele>110</ele>
        <time>2021-08-31T09:02:57Z</time>
      </trkpt>
      <trkpt lat="44.57458" lon="1.82235">
        <ele>95</ele>
        <time>2021-08-31T09:03:26Z</time>
      </trkpt>
      <trkpt lat="44.57431" lon="1.82207">
        <ele>95</ele>
        <time>2021-08-31T09:03:32Z</time>
      </trkpt>
      <trkpt lat="44.57396" lon="1.82184">
        <ele>94</ele>
        <time>2021-08-31T09:03:38Z</time>
      </trkpt>
      <trkpt lat="44.57367" lon="1.82172">
        <ele>97</ele>
        <time>2021-08-31T09:03:42Z</time>
      </trkpt>
      <trkpt lat="44.57323" lon="1.82165">
        <ele>100</ele>
        <time>2021-08-31T09:03:48Z</time>
      </trkpt>
      <trkpt lat="44.57311" lon="1.82165">
        <ele>102</ele>
        <time>2021-08-31T09:03:50Z</time>
      </trkpt>
      <trkpt lat="44.57299" lon="1.82167">
        <ele>104</ele>
        <time>2021-08-31T09:03:52Z</time>
      </trkpt>
      <trkpt lat="44.57232" lon="1.82191">
        <ele>115</ele>
        <time>2021-08-31T09:04:04Z</time>
      </trkpt>
      <trkpt lat="44.57202" lon="1.82211">
        <ele>120</ele>
        <time>2021-08-31T09:04:10Z</time>
      </trkpt>
      <trkpt lat="44.57118" lon="1.82292">
        <ele>134</ele>
        <time>2021-08-31T09:04:29Z</time>
      </trkpt>
      <trkpt lat="44.57095" lon="1.82319">
        <ele>139</ele>
        <time>2021-08-31T09:04:35Z</time>
      </trkpt>
      <trkpt lat="44.57071" lon="1.82347">
        <ele>141</ele>
        <time>2021-08-31T09:04:41Z</time>
      </trkpt>
      <trkpt lat="44.57041" lon="1.82384">
        <ele>146</ele>
        <time>2021-08-31T09:04:49Z</time>
      </trkpt>
      <trkpt lat="44.57029" lon="1.82405">
        <ele>150</ele>
        <time>2021-08-31T09:04:53Z</time>
      </trkpt>
      <trkpt lat="44.56907" lon="1.82571">
        <ele>158</ele>
        <time>2021-08-31T09:05:24Z</time>
      </trkpt>
      <trkpt lat="44.56872" lon="1.82621">
        <ele>164</ele>
        <time>2021-08-31T09:05:34Z</time>
      </trkpt>
      <trkpt lat="44.56867" lon="1.82622">
        <ele>161</ele>
        <time>2021-08-31T09:05:35Z</time>
      </trkpt>
      <trkpt lat="44.56863" lon="1.82625">
        <ele>159</ele>
        <time>2021-08-31T09:05:36Z</time>
      </trkpt>
      <trkpt lat="44.56828" lon="1.82667">
        <ele>154</ele>
        <time>2021-08-31T09:05:45Z</time>
      </trkpt>
      <trkpt lat="44.56809" lon="1.82681">
        <ele>152</ele>
        <time>2021-08-31T09:05:49Z</time>
      </trkpt>
      <trkpt lat="44.56804" lon="1.82683">
        <ele>152</ele>
        <time>2021-08-31T09:05:50Z</time>
      </trkpt>
      <trkpt lat="44.56785" lon="1.82688">
        <ele>152</ele>
        <time>2021-08-31T09:05:54Z</time>
      </trkpt>
      <trkpt lat="44.56763" lon="1.8268">
        <ele>151</ele>
        <time>2021-08-31T09:05:58Z</time>
      </trkpt>
      <trkpt lat="44.56754" lon="1.82672">
        <ele>150</ele>
        <time>2021-08-31T09:06:00Z</time>
      </trkpt>
      <trkpt lat="44.56745" lon="1.82659">
        <ele>149</ele>
        <time>2021-08-31T09:06:02Z</time>
      </trkpt>
      <trkpt lat="44.56742" lon="1.82652">
        <ele>148</ele>
        <time>2021-08-31T09:06:03Z</time>
      </trkpt>
      <trkpt lat="44.5674" lon="1.82637">
        <ele>144</ele>
        <time>2021-08-31T09:06:05Z</time>
      </trkpt>
      <trkpt lat="44.56748" lon="1.82433">
        <ele>141</ele>
        <time>2021-08-31T09:06:33Z</time>
      </trkpt>
      <trkpt lat="44.56758" lon="1.82219">
        <ele>141</ele>
        <time>2021-08-31T09:07:04Z</time>
      </trkpt>
      <trkpt lat="44.56762" lon="1.8206">
        <ele>145</ele>
        <time>2021-08-31T09:07:26Z</time>
      </trkpt>
      <trkpt lat="44.56758" lon="1.82041">
        <ele>145</ele>
        <time>2021-08-31T09:07:29Z</time>
      </trkpt>
      <trkpt lat="44.56757" lon="1.82034">
        <ele>146</ele>
        <time>2021-08-31T09:07:30Z</time>
      </trkpt>
      <trkpt lat="44.56732" lon="1.81812">
        <ele>149</ele>
        <time>2021-08-31T09:08:01Z</time>
      </trkpt>
      <trkpt lat="44.56698" lon="1.81587">
        <ele>152</ele>
        <time>2021-08-31T09:08:31Z</time>
      </trkpt>
      <trkpt lat="44.5667" lon="1.81516">
        <ele>154</ele>
        <time>2021-08-31T09:08:42Z</time>
      </trkpt>
      <trkpt lat="44.56662" lon="1.81498">
        <ele>155</ele>
        <time>2021-08-31T09:08:45Z</time>
      </trkpt>
      <trkpt lat="44.56631" lon="1.81421">
        <ele>160</ele>
        <time>2021-08-31T09:08:56Z</time>
      </trkpt>
      <trkpt lat="44.56559" lon="1.8126">
        <ele>160</ele>
        <time>2021-08-31T09:09:20Z</time>
      </trkpt>
      <trkpt lat="44.56499" lon="1.81046">
        <ele>157</ele>
        <time>2021-08-31T09:09:50Z</time>
      </trkpt>
      <trkpt lat="44.56443" lon="1.80826">
        <ele>153</ele>
        <time>2021-08-31T09:10:20Z</time>
      </trkpt>
      <trkpt lat="44.5638" lon="1.80599">
        <ele>151</ele>
        <time>2021-08-31T09:10:51Z</time>
      </trkpt>
      <trkpt lat="44.56338" lon="1.80457">
        <ele>147</ele>
        <time>2021-08-31T09:11:10Z</time>
      </trkpt>
      <trkpt lat="44.56334" lon="1.80423">
        <ele>143</ele>
        <time>2021-08-31T09:11:14Z</time>
      </trkpt>
      <trkpt lat="44.56336" lon="1.8039">
        <ele>140</ele>
        <time>2021-08-31T09:11:18Z</time>
      </trkpt>
      <trkpt lat="44.56351" lon="1.80341">
        <ele>139</ele>
        <time>2021-08-31T09:11:25Z</time>
      </trkpt>
      <trkpt lat="44.56358" lon="1.80327">
        <ele>138</ele>
        <time>2021-08-31T09:11:27Z</time>
      </trkpt>
      <trkpt lat="44.56385" lon="1.8029">
        <ele>123</ele>
        <time>2021-08-31T09:11:33Z</time>
      </trkpt>
      <trkpt lat="44.56429" lon="1.80258">
        <ele>109</ele>
        <time>2021-08-31T09:11:42Z</time>
      </trkpt>
      <trkpt lat="44.56475" lon="1.80234">
        <ele>101</ele>
        <time>2021-08-31T09:11:51Z</time>
      </trkpt>
      <trkpt lat="44.56501" lon="1.80235">
        <ele>103</ele>
        <time>2021-08-31T09:11:57Z</time>
      </trkpt>
      <trkpt lat="44.56575" lon="1.8025">
        <ele>116</ele>
        <time>2021-08-31T09:12:11Z</time>
      </trkpt>
      <trkpt lat="44.56732" lon="1.80318">
        <ele>116</ele>
        <time>2021-08-31T09:12:41Z</time>
      </trkpt>
      <trkpt lat="44.56868" lon="1.80359">
        <ele>122</ele>
        <time>2021-08-31T09:13:07Z</time>
      </trkpt>
      <trkpt lat="44.56897" lon="1.80361">
        <ele>126</ele>
        <time>2021-08-31T09:13:12Z</time>
      </trkpt>
      <trkpt lat="44.56932" lon="1.80347">
        <ele>131</ele>
        <time>2021-08-31T09:13:18Z</time>
      </trkpt>
      <trkpt lat="44.56951" lon="1.80336">
        <ele>129</ele>
        <time>2021-08-31T09:13:21Z</time>
      </trkpt>
      <trkpt lat="44.56965" lon="1.80332">
        <ele>125</ele>
        <time>2021-08-31T09:13:23Z</time>
      </trkpt>
      <trkpt lat="44.57143" lon="1.80257">
        <ele>31</ele>
        <time>2021-08-31T09:13:53Z</time>
      </trkpt>
      <trkpt lat="44.57152" lon="1.80248">
        <ele>31</ele>
        <time>2021-08-31T09:13:55Z</time>
      </trkpt>
      <trkpt lat="44.57164" lon="1.80228">
        <ele>34</ele>
        <time>2021-08-31T09:13:58Z</time>
      </trkpt>
      <trkpt lat="44.57176" lon="1.8022">
        <ele>30</ele>
        <time>2021-08-31T09:14:00Z</time>
      </trkpt>
      <trkpt lat="44.57187" lon="1.80211">
        <ele>19</ele>
        <time>2021-08-31T09:14:02Z</time>
      </trkpt>
      <trkpt lat="44.57203" lon="1.80156">
        <ele>13</ele>
        <time>2021-08-31T09:14:09Z</time>
      </trkpt>
      <trkpt lat="44.57212" lon="1.80142">
        <ele>9</ele>
        <time>2021-08-31T09:14:11Z</time>
      </trkpt>
      <trkpt lat="44.57221" lon="1.80128">
        <ele>6</ele>
        <time>2021-08-31T09:14:13Z</time>
      </trkpt>
      <trkpt lat="44.5723" lon="1.80115">
        <ele>-2</ele>
        <time>2021-08-31T09:14:15Z</time>
      </trkpt>
      <trkpt lat="44.57239" lon="1.80102">
        <ele>-7</ele>
        <time>2021-08-31T09:14:17Z</time>
      </trkpt>
      <trkpt lat="44.57253" lon="1.80071">
        <ele>-8</ele>
        <time>2021-08-31T09:14:21Z</time>
      </trkpt>
      <trkpt lat="44.57257" lon="1.80055">
        <ele>-2</ele>
        <time>2021-08-31T09:14:23Z</time>
      </trkpt>
      <trkpt lat="44.57262" lon="1.80038">
        <ele>194</ele>
        <time>2021-08-31T09:14:25Z</time>
      </trkpt>
      <trkpt lat="44.57267" lon="1.80004">
        <ele>17</ele>
        <time>2021-08-31T09:14:29Z</time>
      </trkpt>
      <trkpt lat="44.57275" lon="1.79956">
        <ele>23</ele>
        <time>2021-08-31T09:14:35Z</time>
      </trkpt>
      <trkpt lat="44.57277" lon="1.79925">
        <ele>27</ele>
        <time>2021-08-31T09:14:39Z</time>
      </trkpt>
      <trkpt lat="44.57276" lon="1.79909">
        <ele>27</ele>
        <time>2021-08-31T09:14:41Z</time>
      </trkpt>
      <trkpt lat="44.57268" lon="1.79892">
        <ele>31</ele>
        <time>2021-08-31T09:14:44Z</time>
      </trkpt>
      <trkpt lat="44.57266" lon="1.79877">
        <ele>36</ele>
        <time>2021-08-31T09:14:46Z</time>
      </trkpt>
      <trkpt lat="44.57257" lon="1.79857">
        <ele>40</ele>
        <time>2021-08-31T09:14:49Z</time>
      </trkpt>
      <trkpt lat="44.57226" lon="1.79715">
        <ele>62</ele>
        <time>2021-08-31T09:15:08Z</time>
      </trkpt>
      <trkpt lat="44.57191" lon="1.79616">
        <ele>66</ele>
        <time>2021-08-31T09:15:22Z</time>
      </trkpt>
      <trkpt lat="44.57176" lon="1.79585">
        <ele>70</ele>
        <time>2021-08-31T09:15:26Z</time>
      </trkpt>
      <trkpt lat="44.57082" lon="1.79453">
        <ele>85</ele>
        <time>2021-08-31T09:15:48Z</time>
      </trkpt>
      <trkpt lat="44.57071" lon="1.79444">
        <ele>86</ele>
        <time>2021-08-31T09:15:50Z</time>
      </trkpt>
      <trkpt lat="44.57041" lon="1.7942">
        <ele>91</ele>
        <time>2021-08-31T09:15:56Z</time>
      </trkpt>
      <trkpt lat="44.56985" lon="1.79369">
        <ele>102</ele>
        <time>2021-08-31T09:16:08Z</time>
      </trkpt>
      <trkpt lat="44.56977" lon="1.79367">
        <ele>103</ele>
        <time>2021-08-31T09:16:11Z</time>
      </trkpt>
      <trkpt lat="44.56962" lon="1.7939">
        <ele>108</ele>
        <time>2021-08-31T09:16:18Z</time>
      </trkpt>
      <trkpt lat="44.56959" lon="1.79387">
        <ele>112</ele>
        <time>2021-08-31T09:17:03Z</time>
      </trkpt>
      <trkpt lat="44.56963" lon="1.79386">
        <ele>127</ele>
        <time>2021-08-31T09:23:28Z</time>
      </trkpt>
      <trkpt lat="44.56972" lon="1.79369">
        <ele>125</ele>
        <time>2021-08-31T09:23:34Z</time>
      </trkpt>
      <trkpt lat="44.56973" lon="1.79362">
        <ele>124</ele>
        <time>2021-08-31T09:23:36Z</time>
      </trkpt>
      <trkpt lat="44.56968" lon="1.79349">
        <ele>124</ele>
        <time>2021-08-31T09:23:41Z</time>
      </trkpt>
      <trkpt lat="44.56954" lon="1.79329">
        <ele>124</ele>
        <time>2021-08-31T09:23:47Z</time>
      </trkpt>
      <trkpt lat="44.56918" lon="1.79252">
        <ele>126</ele>
        <time>2021-08-31T09:24:01Z</time>
      </trkpt>
      <trkpt lat="44.56911" lon="1.79206">
        <ele>127</ele>
        <time>2021-08-31T09:24:08Z</time>
      </trkpt>
      <trkpt lat="44.56909" lon="1.79176">
        <ele>129</ele>
        <time>2021-08-31T09:24:12Z</time>
      </trkpt>
      <trkpt lat="44.5692" lon="1.7913">
        <ele>127</ele>
        <time>2021-08-31T09:24:19Z</time>
      </trkpt>
      <trkpt lat="44.56925" lon="1.79118">
        <ele>124</ele>
        <time>2021-08-31T09:24:21Z</time>
      </trkpt>
      <trkpt lat="44.56929" lon="1.79108">
        <ele>122</ele>
        <time>2021-08-31T09:24:23Z</time>
      </trkpt>
      <trkpt lat="44.56928" lon="1.79101">
        <ele>120</ele>
        <time>2021-08-31T09:24:25Z</time>
      </trkpt>
      <trkpt lat="44.56931" lon="1.79082">
        <ele>117</ele>
        <time>2021-08-31T09:24:31Z</time>
      </trkpt>
      <trkpt lat="44.56934" lon="1.79074">
        <ele>115</ele>
        <time>2021-08-31T09:24:33Z</time>
      </trkpt>
      <trkpt lat="44.56937" lon="1.79066">
        <ele>112</ele>
        <time>2021-08-31T09:24:35Z</time>
      </trkpt>
      <trkpt lat="44.56982" lon="1.78938">
        <ele>80</ele>
        <time>2021-08-31T09:24:55Z</time>
      </trkpt>
      <trkpt lat="44.56989" lon="1.78887">
        <ele>81</ele>
        <time>2021-08-31T09:25:03Z</time>
      </trkpt>
      <trkpt lat="44.56986" lon="1.78878">
        <ele>85</ele>
        <time>2021-08-31T09:25:35Z</time>
      </trkpt>
      <trkpt lat="44.56984" lon="1.78858">
        <ele>93</ele>
        <time>2021-08-31T09:25:40Z</time>
      </trkpt>
      <trkpt lat="44.56971" lon="1.78824">
        <ele>99</ele>
        <time>2021-08-31T09:25:48Z</time>
      </trkpt>
      <trkpt lat="44.56886" lon="1.78689">
        <ele>112</ele>
        <time>2021-08-31T09:26:16Z</time>
      </trkpt>
      <trkpt lat="44.5686" lon="1.78664">
        <ele>114</ele>
        <time>2021-08-31T09:26:22Z</time>
      </trkpt>
      <trkpt lat="44.56762" lon="1.78591">
        <ele>118</ele>
        <time>2021-08-31T09:26:42Z</time>
      </trkpt>
      <trkpt lat="44.56728" lon="1.78577">
        <ele>119</ele>
        <time>2021-08-31T09:26:48Z</time>
      </trkpt>
      <trkpt lat="44.56636" lon="1.78574">
        <ele>122</ele>
        <time>2021-08-31T09:27:04Z</time>
      </trkpt>
      <trkpt lat="44.56605" lon="1.78575">
        <ele>124</ele>
        <time>2021-08-31T09:27:10Z</time>
      </trkpt>
      <trkpt lat="44.56556" lon="1.78573">
        <ele>127</ele>
        <time>2021-08-31T09:27:19Z</time>
      </trkpt>
      <trkpt lat="44.56546" lon="1.78575">
        <ele>127</ele>
        <time>2021-08-31T09:27:21Z</time>
      </trkpt>
      <trkpt lat="44.56535" lon="1.78575">
        <ele>128</ele>
        <time>2021-08-31T09:27:23Z</time>
      </trkpt>
      <trkpt lat="44.56389" lon="1.78578">
        <ele>136</ele>
        <time>2021-08-31T09:27:50Z</time>
      </trkpt>
      <trkpt lat="44.56375" lon="1.78577">
        <ele>141</ele>
        <time>2021-08-31T09:27:53Z</time>
      </trkpt>
      <trkpt lat="44.56361" lon="1.78568">
        <ele>144</ele>
        <time>2021-08-31T09:27:56Z</time>
      </trkpt>
      <trkpt lat="44.56339" lon="1.78546">
        <ele>149</ele>
        <time>2021-08-31T09:28:01Z</time>
      </trkpt>
      <trkpt lat="44.56335" lon="1.7854">
        <ele>148</ele>
        <time>2021-08-31T09:28:02Z</time>
      </trkpt>
      <trkpt lat="44.562" lon="1.78396">
        <ele>128</ele>
        <time>2021-08-31T09:28:33Z</time>
      </trkpt>
      <trkpt lat="44.56067" lon="1.78256">
        <ele>118</ele>
        <time>2021-08-31T09:29:03Z</time>
      </trkpt>
      <trkpt lat="44.56028" lon="1.78213">
        <ele>119</ele>
        <time>2021-08-31T09:29:12Z</time>
      </trkpt>
      <trkpt lat="44.56014" lon="1.7819">
        <ele>119</ele>
        <time>2021-08-31T09:29:16Z</time>
      </trkpt>
      <trkpt lat="44.56002" lon="1.78153">
        <ele>121</ele>
        <time>2021-08-31T09:29:21Z</time>
      </trkpt>
      <trkpt lat="44.56" lon="1.78137">
        <ele>122</ele>
        <time>2021-08-31T09:29:23Z</time>
      </trkpt>
      <trkpt lat="44.56" lon="1.78129">
        <ele>122</ele>
        <time>2021-08-31T09:29:24Z</time>
      </trkpt>
      <trkpt lat="44.56029" lon="1.78043">
        <ele>116</ele>
        <time>2021-08-31T09:29:35Z</time>
      </trkpt>
      <trkpt lat="44.5606" lon="1.77933">
        <ele>106</ele>
        <time>2021-08-31T09:29:50Z</time>
      </trkpt>
      <trkpt lat="44.56075" lon="1.77898">
        <ele>102</ele>
        <time>2021-08-31T09:29:55Z</time>
      </trkpt>
      <trkpt lat="44.5608" lon="1.77883">
        <ele>99</ele>
        <time>2021-08-31T09:29:57Z</time>
      </trkpt>
      <trkpt lat="44.56086" lon="1.77867">
        <ele>97</ele>
        <time>2021-08-31T09:29:59Z</time>
      </trkpt>
      <trkpt lat="44.56091" lon="1.77852">
        <ele>94</ele>
        <time>2021-08-31T09:30:01Z</time>
      </trkpt>
      <trkpt lat="44.56097" lon="1.77837">
        <ele>92</ele>
        <time>2021-08-31T09:30:03Z</time>
      </trkpt>
      <trkpt lat="44.56127" lon="1.77736">
        <ele>87</ele>
        <time>2021-08-31T09:30:17Z</time>
      </trkpt>
      <trkpt lat="44.56149" lon="1.77659">
        <ele>92</ele>
        <time>2021-08-31T09:30:27Z</time>
      </trkpt>
      <trkpt lat="44.56171" lon="1.77613">
        <ele>96</ele>
        <time>2021-08-31T09:30:34Z</time>
      </trkpt>
      <trkpt lat="44.56209" lon="1.77532">
        <ele>105</ele>
        <time>2021-08-31T09:30:46Z</time>
      </trkpt>
      <trkpt lat="44.56222" lon="1.77491">
        <ele>109</ele>
        <time>2021-08-31T09:30:52Z</time>
      </trkpt>
      <trkpt lat="44.56224" lon="1.77476">
        <ele>111</ele>
        <time>2021-08-31T09:30:54Z</time>
      </trkpt>
      <trkpt lat="44.56228" lon="1.77438">
        <ele>116</ele>
        <time>2021-08-31T09:30:59Z</time>
      </trkpt>
      <trkpt lat="44.56227" lon="1.77383">
        <ele>126</ele>
        <time>2021-08-31T09:31:06Z</time>
      </trkpt>
      <trkpt lat="44.56224" lon="1.77367">
        <ele>128</ele>
        <time>2021-08-31T09:31:08Z</time>
      </trkpt>
      <trkpt lat="44.5621" lon="1.77223">
        <ele>144</ele>
        <time>2021-08-31T09:31:27Z</time>
      </trkpt>
      <trkpt lat="44.56206" lon="1.77205">
        <ele>145</ele>
        <time>2021-08-31T09:31:30Z</time>
      </trkpt>
      <trkpt lat="44.56198" lon="1.77112">
        <ele>153</ele>
        <time>2021-08-31T09:31:48Z</time>
      </trkpt>
      <trkpt lat="44.56197" lon="1.77103">
        <ele>154</ele>
        <time>2021-08-31T09:31:51Z</time>
      </trkpt>
      <trkpt lat="44.56196" lon="1.77096">
        <ele>154</ele>
        <time>2021-08-31T09:31:53Z</time>
      </trkpt>
      <trkpt lat="44.56196" lon="1.77083">
        <ele>156</ele>
        <time>2021-08-31T09:31:57Z</time>
      </trkpt>
      <trkpt lat="44.56197" lon="1.77075">
        <ele>156</ele>
        <time>2021-08-31T09:31:59Z</time>
      </trkpt>
      <trkpt lat="44.56192" lon="1.77033">
        <ele>157</ele>
        <time>2021-08-31T09:32:09Z</time>
      </trkpt>
      <trkpt lat="44.56182" lon="1.76993">
        <ele>157</ele>
        <time>2021-08-31T09:32:21Z</time>
      </trkpt>
      <trkpt lat="44.56157" lon="1.76944">
        <ele>154</ele>
        <time>2021-08-31T09:32:33Z</time>
      </trkpt>
      <trkpt lat="44.56126" lon="1.76913">
        <ele>152</ele>
        <time>2021-08-31T09:32:42Z</time>
      </trkpt>
      <trkpt lat="44.56089" lon="1.76895">
        <ele>148</ele>
        <time>2021-08-31T09:32:50Z</time>
      </trkpt>
      <trkpt lat="44.56019" lon="1.76883">
        <ele>144</ele>
        <time>2021-08-31T09:33:04Z</time>
      </trkpt>
      <trkpt lat="44.55879" lon="1.76903">
        <ele>143</ele>
        <time>2021-08-31T09:33:30Z</time>
      </trkpt>
      <trkpt lat="44.55868" lon="1.76908">
        <ele>145</ele>
        <time>2021-08-31T09:33:32Z</time>
      </trkpt>
      <trkpt lat="44.55709" lon="1.77011">
        <ele>155</ele>
        <time>2021-08-31T09:34:02Z</time>
      </trkpt>
      <trkpt lat="44.5558" lon="1.77071">
        <ele>160</ele>
        <time>2021-08-31T09:34:26Z</time>
      </trkpt>
      <trkpt lat="44.55441" lon="1.77106">
        <ele>156</ele>
        <time>2021-08-31T09:34:56Z</time>
      </trkpt>
      <trkpt lat="44.55433" lon="1.77107">
        <ele>155</ele>
        <time>2021-08-31T09:34:58Z</time>
      </trkpt>
      <trkpt lat="44.5542" lon="1.77106">
        <ele>155</ele>
        <time>2021-08-31T09:35:02Z</time>
      </trkpt>
      <trkpt lat="44.55409" lon="1.7711">
        <ele>155</ele>
        <time>2021-08-31T09:35:06Z</time>
      </trkpt>
      <trkpt lat="44.55404" lon="1.77114">
        <ele>154</ele>
        <time>2021-08-31T09:35:08Z</time>
      </trkpt>
      <trkpt lat="44.55375" lon="1.77124">
        <ele>151</ele>
        <time>2021-08-31T09:35:19Z</time>
      </trkpt>
      <trkpt lat="44.5537" lon="1.77124">
        <ele>150</ele>
        <time>2021-08-31T09:35:21Z</time>
      </trkpt>
      <trkpt lat="44.55364" lon="1.7714">
        <ele>148</ele>
        <time>2021-08-31T09:35:26Z</time>
      </trkpt>
      <trkpt lat="44.55363" lon="1.77148">
        <ele>147</ele>
        <time>2021-08-31T09:35:28Z</time>
      </trkpt>
      <trkpt lat="44.55362" lon="1.77159">
        <ele>146</ele>
        <time>2021-08-31T09:35:30Z</time>
      </trkpt>
      <trkpt lat="44.55361" lon="1.77168">
        <ele>145</ele>
        <time>2021-08-31T09:35:32Z</time>
      </trkpt>
      <trkpt lat="44.55358" lon="1.77175">
        <ele>145</ele>
        <time>2021-08-31T09:35:34Z</time>
      </trkpt>
      <trkpt lat="44.55359" lon="1.77182">
        <ele>144</ele>
        <time>2021-08-31T09:35:36Z</time>
      </trkpt>
      <trkpt lat="44.55364" lon="1.77185">
        <ele>143</ele>
        <time>2021-08-31T09:35:40Z</time>
      </trkpt>
      <trkpt lat="44.5538" lon="1.77179">
        <ele>144</ele>
        <time>2021-08-31T09:35:46Z</time>
      </trkpt>
      <trkpt lat="44.55382" lon="1.77172">
        <ele>144</ele>
        <time>2021-08-31T09:35:49Z</time>
      </trkpt>
      <trkpt lat="44.55385" lon="1.77167">
        <ele>142</ele>
        <time>2021-08-31T09:51:54Z</time>
      </trkpt>
      <trkpt lat="44.55386" lon="1.77175">
        <ele>142</ele>
        <time>2021-08-31T09:52:34Z</time>
      </trkpt>
      <trkpt lat="44.55384" lon="1.77185">
        <ele>142</ele>
        <time>2021-08-31T09:52:37Z</time>
      </trkpt>
      <trkpt lat="44.55378" lon="1.77196">
        <ele>142</ele>
        <time>2021-08-31T09:52:41Z</time>
      </trkpt>
      <trkpt lat="44.55376" lon="1.77202">
        <ele>143</ele>
        <time>2021-08-31T09:52:43Z</time>
      </trkpt>
      <trkpt lat="44.55374" lon="1.77215">
        <ele>143</ele>
        <time>2021-08-31T09:52:47Z</time>
      </trkpt>
      <trkpt lat="44.55372" lon="1.77223">
        <ele>144</ele>
        <time>2021-08-31T09:52:50Z</time>
      </trkpt>
      <trkpt lat="44.55368" lon="1.77228">
        <ele>143</ele>
        <time>2021-08-31T09:52:53Z</time>
      </trkpt>
      <trkpt lat="44.55363" lon="1.77233">
        <ele>143</ele>
        <time>2021-08-31T09:52:56Z</time>
      </trkpt>
      <trkpt lat="44.55362" lon="1.77243">
        <ele>142</ele>
        <time>2021-08-31T09:52:59Z</time>
      </trkpt>
      <trkpt lat="44.55365" lon="1.77249">
        <ele>143</ele>
        <time>2021-08-31T09:53:04Z</time>
      </trkpt>
      <trkpt lat="44.55362" lon="1.77254">
        <ele>144</ele>
        <time>2021-08-31T09:53:08Z</time>
      </trkpt>
      <trkpt lat="44.55356" lon="1.77254">
        <ele>144</ele>
        <time>2021-08-31T09:53:23Z</time>
      </trkpt>
      <trkpt lat="44.55351" lon="1.77251">
        <ele>141</ele>
        <time>2021-08-31T09:53:26Z</time>
      </trkpt>
      <trkpt lat="44.55342" lon="1.77243">
        <ele>139</ele>
        <time>2021-08-31T09:53:32Z</time>
      </trkpt>
      <trkpt lat="44.55322" lon="1.77241">
        <ele>137</ele>
        <time>2021-08-31T09:53:41Z</time>
      </trkpt>
      <trkpt lat="44.55312" lon="1.7724">
        <ele>129</ele>
        <time>2021-08-31T09:54:25Z</time>
      </trkpt>
      <trkpt lat="44.5531" lon="1.7723">
        <ele>127</ele>
        <time>2021-08-31T10:00:55Z</time>
      </trkpt>
      <trkpt lat="44.55282" lon="1.7722">
        <ele>127</ele>
        <time>2021-08-31T10:01:48Z</time>
      </trkpt>
      <trkpt lat="44.55261" lon="1.77202">
        <ele>121</ele>
        <time>2021-08-31T10:01:57Z</time>
      </trkpt>
      <trkpt lat="44.55254" lon="1.7719">
        <ele>120</ele>
        <time>2021-08-31T10:02:03Z</time>
      </trkpt>
      <trkpt lat="44.55241" lon="1.77192">
        <ele>119</ele>
        <time>2021-08-31T10:02:07Z</time>
      </trkpt>
      <trkpt lat="44.55232" lon="1.77179">
        <ele>121</ele>
        <time>2021-08-31T10:02:14Z</time>
      </trkpt>
      <trkpt lat="44.5522" lon="1.7717">
        <ele>124</ele>
        <time>2021-08-31T10:02:22Z</time>
      </trkpt>
      <trkpt lat="44.55209" lon="1.77166">
        <ele>130</ele>
        <time>2021-08-31T10:02:27Z</time>
      </trkpt>
      <trkpt lat="44.55199" lon="1.77157">
        <ele>133</ele>
        <time>2021-08-31T10:02:31Z</time>
      </trkpt>
      <trkpt lat="44.55131" lon="1.77094">
        <ele>131</ele>
        <time>2021-08-31T10:02:59Z</time>
      </trkpt>
      <trkpt lat="44.55124" lon="1.7708">
        <ele>132</ele>
        <time>2021-08-31T10:03:05Z</time>
      </trkpt>
      <trkpt lat="44.55121" lon="1.77067">
        <ele>135</ele>
        <time>2021-08-31T10:03:12Z</time>
      </trkpt>
      <trkpt lat="44.5513" lon="1.77049">
        <ele>142</ele>
        <time>2021-08-31T10:03:26Z</time>
      </trkpt>
      <trkpt lat="44.5521" lon="1.76997">
        <ele>154</ele>
        <time>2021-08-31T10:03:58Z</time>
      </trkpt>
      <trkpt lat="44.55237" lon="1.76974">
        <ele>157</ele>
        <time>2021-08-31T10:04:11Z</time>
      </trkpt>
      <trkpt lat="44.55238" lon="1.76959">
        <ele>158</ele>
        <time>2021-08-31T10:04:16Z</time>
      </trkpt>
      <trkpt lat="44.5521" lon="1.76887">
        <ele>158</ele>
        <time>2021-08-31T10:04:36Z</time>
      </trkpt>
      <trkpt lat="44.55168" lon="1.76731">
        <ele>151</ele>
        <time>2021-08-31T10:05:06Z</time>
      </trkpt>
      <trkpt lat="44.55115" lon="1.7656">
        <ele>151</ele>
        <time>2021-08-31T10:05:36Z</time>
      </trkpt>
      <trkpt lat="44.55061" lon="1.76378">
        <ele>151</ele>
        <time>2021-08-31T10:06:07Z</time>
      </trkpt>
      <trkpt lat="44.55013" lon="1.76228">
        <ele>151</ele>
        <time>2021-08-31T10:06:32Z</time>
      </trkpt>
      <trkpt lat="44.54985" lon="1.7618">
        <ele>150</ele>
        <time>2021-08-31T10:06:41Z</time>
      </trkpt>
      <trkpt lat="44.5494" lon="1.76129">
        <ele>148</ele>
        <time>2021-08-31T10:06:53Z</time>
      </trkpt>
      <trkpt lat="44.5481" lon="1.76048">
        <ele>139</ele>
        <time>2021-08-31T10:07:23Z</time>
      </trkpt>
      <trkpt lat="44.54666" lon="1.75976">
        <ele>131</ele>
        <time>2021-08-31T10:07:54Z</time>
      </trkpt>
      <trkpt lat="44.54598" lon="1.75968">
        <ele>124</ele>
        <time>2021-08-31T10:08:08Z</time>
      </trkpt>
      <trkpt lat="44.54479" lon="1.76006">
        <ele>123</ele>
        <time>2021-08-31T10:08:32Z</time>
      </trkpt>
      <trkpt lat="44.54447" lon="1.76027">
        <ele>124</ele>
        <time>2021-08-31T10:08:39Z</time>
      </trkpt>
      <trkpt lat="44.54392" lon="1.76075">
        <ele>132</ele>
        <time>2021-08-31T10:08:51Z</time>
      </trkpt>
      <trkpt lat="44.54377" lon="1.76085">
        <ele>134</ele>
        <time>2021-08-31T10:08:54Z</time>
      </trkpt>
      <trkpt lat="44.54361" lon="1.76087">
        <ele>135</ele>
        <time>2021-08-31T10:08:57Z</time>
      </trkpt>
      <trkpt lat="44.54344" lon="1.76085">
        <ele>135</ele>
        <time>2021-08-31T10:09:00Z</time>
      </trkpt>
      <trkpt lat="44.54283" lon="1.76048">
        <ele>140</ele>
        <time>2021-08-31T10:09:11Z</time>
      </trkpt>
      <trkpt lat="44.54157" lon="1.75895">
        <ele>142</ele>
        <time>2021-08-31T10:09:37Z</time>
      </trkpt>
      <trkpt lat="44.54149" lon="1.75879">
        <ele>141</ele>
        <time>2021-08-31T10:09:39Z</time>
      </trkpt>
      <trkpt lat="44.54143" lon="1.75861">
        <ele>141</ele>
        <time>2021-08-31T10:09:41Z</time>
      </trkpt>
      <trkpt lat="44.5414" lon="1.75842">
        <ele>141</ele>
        <time>2021-08-31T10:09:43Z</time>
      </trkpt>
      <trkpt lat="44.54139" lon="1.75773">
        <ele>140</ele>
        <time>2021-08-31T10:09:50Z</time>
      </trkpt>
      <trkpt lat="44.54105" lon="1.75633">
        <ele>138</ele>
        <time>2021-08-31T10:10:05Z</time>
      </trkpt>
      <trkpt lat="44.54024" lon="1.75452">
        <ele>134</ele>
        <time>2021-08-31T10:10:28Z</time>
      </trkpt>
      <trkpt lat="44.53992" lon="1.754">
        <ele>132</ele>
        <time>2021-08-31T10:10:35Z</time>
      </trkpt>
      <trkpt lat="44.53922" lon="1.75325">
        <ele>130</ele>
        <time>2021-08-31T10:10:48Z</time>
      </trkpt>
      <trkpt lat="44.53889" lon="1.75304">
        <ele>128</ele>
        <time>2021-08-31T10:10:54Z</time>
      </trkpt>
      <trkpt lat="44.53859" lon="1.75292">
        <ele>124</ele>
        <time>2021-08-31T10:10:59Z</time>
      </trkpt>
      <trkpt lat="44.53805" lon="1.75293">
        <ele>120</ele>
        <time>2021-08-31T10:11:08Z</time>
      </trkpt>
      <trkpt lat="44.53699" lon="1.7535">
        <ele>118</ele>
        <time>2021-08-31T10:11:26Z</time>
      </trkpt>
      <trkpt lat="44.53681" lon="1.75371">
        <ele>118</ele>
        <time>2021-08-31T10:11:30Z</time>
      </trkpt>
      <trkpt lat="44.53623" lon="1.75484">
        <ele>125</ele>
        <time>2021-08-31T10:11:47Z</time>
      </trkpt>
      <trkpt lat="44.53616" lon="1.75512">
        <ele>127</ele>
        <time>2021-08-31T10:11:51Z</time>
      </trkpt>
      <trkpt lat="44.53606" lon="1.75543">
        <ele>133</ele>
        <time>2021-08-31T10:11:55Z</time>
      </trkpt>
      <trkpt lat="44.53552" lon="1.75617">
        <ele>139</ele>
        <time>2021-08-31T10:12:07Z</time>
      </trkpt>
      <trkpt lat="44.53537" lon="1.75632">
        <ele>139</ele>
        <time>2021-08-31T10:12:10Z</time>
      </trkpt>
      <trkpt lat="44.53531" lon="1.75636">
        <ele>140</ele>
        <time>2021-08-31T10:12:11Z</time>
      </trkpt>
      <trkpt lat="44.53524" lon="1.75638">
        <ele>139</ele>
        <time>2021-08-31T10:12:12Z</time>
      </trkpt>
      <trkpt lat="44.53511" lon="1.7564">
        <ele>140</ele>
        <time>2021-08-31T10:12:14Z</time>
      </trkpt>
      <trkpt lat="44.53505" lon="1.75639">
        <ele>141</ele>
        <time>2021-08-31T10:12:15Z</time>
      </trkpt>
      <trkpt lat="44.53491" lon="1.75626">
        <ele>144</ele>
        <time>2021-08-31T10:12:18Z</time>
      </trkpt>
      <trkpt lat="44.53399" lon="1.75443">
        <ele>141</ele>
        <time>2021-08-31T10:12:45Z</time>
      </trkpt>
      <trkpt lat="44.53372" lon="1.75331">
        <ele>138</ele>
        <time>2021-08-31T10:13:00Z</time>
      </trkpt>
      <trkpt lat="44.53368" lon="1.75295">
        <ele>138</ele>
        <time>2021-08-31T10:13:05Z</time>
      </trkpt>
      <trkpt lat="44.53382" lon="1.75232">
        <ele>139</ele>
        <time>2021-08-31T10:13:14Z</time>
      </trkpt>
      <trkpt lat="44.53402" lon="1.75169">
        <ele>142</ele>
        <time>2021-08-31T10:13:24Z</time>
      </trkpt>
      <trkpt lat="44.53404" lon="1.75156">
        <ele>143</ele>
        <time>2021-08-31T10:13:26Z</time>
      </trkpt>
      <trkpt lat="44.53476" lon="1.74941">
        <ele>150</ele>
        <time>2021-08-31T10:13:57Z</time>
      </trkpt>
      <trkpt lat="44.53501" lon="1.74868">
        <ele>151</ele>
        <time>2021-08-31T10:14:07Z</time>
      </trkpt>
      <trkpt lat="44.53504" lon="1.74854">
        <ele>151</ele>
        <time>2021-08-31T10:14:09Z</time>
      </trkpt>
      <trkpt lat="44.53502" lon="1.74832">
        <ele>149</ele>
        <time>2021-08-31T10:14:12Z</time>
      </trkpt>
      <trkpt lat="44.53496" lon="1.74817">
        <ele>147</ele>
        <time>2021-08-31T10:14:14Z</time>
      </trkpt>
      <trkpt lat="44.53464" lon="1.74774">
        <ele>145</ele>
        <time>2021-08-31T10:14:22Z</time>
      </trkpt>
      <trkpt lat="44.5335" lon="1.74642">
        <ele>136</ele>
        <time>2021-08-31T10:14:52Z</time>
      </trkpt>
      <trkpt lat="44.5323" lon="1.74495">
        <ele>126</ele>
        <time>2021-08-31T10:15:22Z</time>
      </trkpt>
      <trkpt lat="44.53149" lon="1.74393">
        <ele>126</ele>
        <time>2021-08-31T10:15:41Z</time>
      </trkpt>
      <trkpt lat="44.53049" lon="1.74189">
        <ele>121</ele>
        <time>2021-08-31T10:16:12Z</time>
      </trkpt>
      <trkpt lat="44.52961" lon="1.73983">
        <ele>129</ele>
        <time>2021-08-31T10:16:42Z</time>
      </trkpt>
      <trkpt lat="44.52875" lon="1.73776">
        <ele>133</ele>
        <time>2021-08-31T10:17:12Z</time>
      </trkpt>
      <trkpt lat="44.52835" lon="1.7366">
        <ele>132</ele>
        <time>2021-08-31T10:17:29Z</time>
      </trkpt>
      <trkpt lat="44.52786" lon="1.73426">
        <ele>129</ele>
        <time>2021-08-31T10:17:59Z</time>
      </trkpt>
      <trkpt lat="44.52731" lon="1.73182">
        <ele>128</ele>
        <time>2021-08-31T10:18:30Z</time>
      </trkpt>
      <trkpt lat="44.52698" lon="1.73043">
        <ele>126</ele>
        <time>2021-08-31T10:18:48Z</time>
      </trkpt>
      <trkpt lat="44.52685" lon="1.73016">
        <ele>125</ele>
        <time>2021-08-31T10:18:52Z</time>
      </trkpt>
      <trkpt lat="44.52547" lon="1.72833">
        <ele>121</ele>
        <time>2021-08-31T10:19:23Z</time>
      </trkpt>
      <trkpt lat="44.5252" lon="1.72809">
        <ele>121</ele>
        <time>2021-08-31T10:19:29Z</time>
      </trkpt>
      <trkpt lat="44.52494" lon="1.72796">
        <ele>123</ele>
        <time>2021-08-31T10:19:34Z</time>
      </trkpt>
      <trkpt lat="44.52362" lon="1.72771">
        <ele>119</ele>
        <time>2021-08-31T10:19:57Z</time>
      </trkpt>
      <trkpt lat="44.52233" lon="1.72787">
        <ele>111</ele>
        <time>2021-08-31T10:20:19Z</time>
      </trkpt>
      <trkpt lat="44.52145" lon="1.72781">
        <ele>111</ele>
        <time>2021-08-31T10:20:33Z</time>
      </trkpt>
      <trkpt lat="44.52111" lon="1.72788">
        <ele>114</ele>
        <time>2021-08-31T10:20:39Z</time>
      </trkpt>
      <trkpt lat="44.51978" lon="1.72836">
        <ele>113</ele>
        <time>2021-08-31T10:21:05Z</time>
      </trkpt>
      <trkpt lat="44.51839" lon="1.72871">
        <ele>112</ele>
        <time>2021-08-31T10:21:31Z</time>
      </trkpt>
      <trkpt lat="44.51813" lon="1.72867">
        <ele>116</ele>
        <time>2021-08-31T10:21:37Z</time>
      </trkpt>
      <trkpt lat="44.51793" lon="1.72857">
        <ele>118</ele>
        <time>2021-08-31T10:21:43Z</time>
      </trkpt>
      <trkpt lat="44.5177" lon="1.72852">
        <ele>121</ele>
        <time>2021-08-31T10:21:51Z</time>
      </trkpt>
      <trkpt lat="44.51764" lon="1.7285">
        <ele>122</ele>
        <time>2021-08-31T10:21:53Z</time>
      </trkpt>
      <trkpt lat="44.51732" lon="1.72839">
        <ele>122</ele>
        <time>2021-08-31T10:22:03Z</time>
      </trkpt>
      <trkpt lat="44.51664" lon="1.7279">
        <ele>129</ele>
        <time>2021-08-31T10:22:23Z</time>
      </trkpt>
      <trkpt lat="44.51636" lon="1.72756">
        <ele>130</ele>
        <time>2021-08-31T10:22:33Z</time>
      </trkpt>
      <trkpt lat="44.51615" lon="1.72712">
        <ele>134</ele>
        <time>2021-08-31T10:22:45Z</time>
      </trkpt>
      <trkpt lat="44.51594" lon="1.7264">
        <ele>136</ele>
        <time>2021-08-31T10:22:59Z</time>
      </trkpt>
      <trkpt lat="44.5158" lon="1.7251">
        <ele>135</ele>
        <time>2021-08-31T10:23:20Z</time>
      </trkpt>
      <trkpt lat="44.5158" lon="1.72491">
        <ele>134</ele>
        <time>2021-08-31T10:23:23Z</time>
      </trkpt>
      <trkpt lat="44.51579" lon="1.72434">
        <ele>131</ele>
        <time>2021-08-31T10:23:32Z</time>
      </trkpt>
      <trkpt lat="44.51627" lon="1.7222">
        <ele>129</ele>
        <time>2021-08-31T10:24:03Z</time>
      </trkpt>
      <trkpt lat="44.51648" lon="1.72122">
        <ele>130</ele>
        <time>2021-08-31T10:24:17Z</time>
      </trkpt>
      <trkpt lat="44.51649" lon="1.72108">
        <ele>131</ele>
        <time>2021-08-31T10:24:19Z</time>
      </trkpt>
      <trkpt lat="44.51663" lon="1.72046">
        <ele>136</ele>
        <time>2021-08-31T10:24:28Z</time>
      </trkpt>
      <trkpt lat="44.51669" lon="1.72032">
        <ele>137</ele>
        <time>2021-08-31T10:24:30Z</time>
      </trkpt>
      <trkpt lat="44.51694" lon="1.71999">
        <ele>139</ele>
        <time>2021-08-31T10:24:36Z</time>
      </trkpt>
      <trkpt lat="44.51717" lon="1.71978">
        <ele>142</ele>
        <time>2021-08-31T10:24:41Z</time>
      </trkpt>
      <trkpt lat="44.51739" lon="1.71974">
        <ele>144</ele>
        <time>2021-08-31T10:24:45Z</time>
      </trkpt>
      <trkpt lat="44.518" lon="1.71974">
        <ele>147</ele>
        <time>2021-08-31T10:24:58Z</time>
      </trkpt>
      <trkpt lat="44.51886" lon="1.71973">
        <ele>145</ele>
        <time>2021-08-31T10:25:27Z</time>
      </trkpt>
      <trkpt lat="44.51888" lon="1.71967">
        <ele>145</ele>
        <time>2021-08-31T10:25:29Z</time>
      </trkpt>
      <trkpt lat="44.51884" lon="1.71962">
        <ele>145</ele>
        <time>2021-08-31T10:25:31Z</time>
      </trkpt>
      <trkpt lat="44.51876" lon="1.71962">
        <ele>144</ele>
        <time>2021-08-31T10:25:33Z</time>
      </trkpt>
      <trkpt lat="44.51871" lon="1.71965">
        <ele>144</ele>
        <time>2021-08-31T10:25:35Z</time>
      </trkpt>
      <trkpt lat="44.51867" lon="1.71959">
        <ele>143</ele>
        <time>2021-08-31T10:25:39Z</time>
      </trkpt>
      <trkpt lat="44.51848" lon="1.7195">
        <ele>141</ele>
        <time>2021-08-31T10:26:05Z</time>
      </trkpt>
      <trkpt lat="44.5185" lon="1.71942">
        <ele>138</ele>
        <time>2021-08-31T10:35:11Z</time>
      </trkpt>
      <trkpt lat="44.51854" lon="1.7194">
        <ele>135</ele>
        <time>2021-08-31T10:37:37Z</time>
      </trkpt>
      <trkpt lat="44.51852" lon="1.71932">
        <ele>137</ele>
        <time>2021-08-31T10:52:36Z</time>
      </trkpt>
      <trkpt lat="44.51848" lon="1.71928">
        <ele>146</ele>
        <time>2021-08-31T10:54:50Z</time>
      </trkpt>
      <trkpt lat="44.51844" lon="1.7193">
        <ele>147</ele>
        <time>2021-08-31T10:58:05Z</time>
      </trkpt>
      <trkpt lat="44.5184" lon="1.71935">
        <ele>149</ele>
        <time>2021-08-31T10:58:09Z</time>
      </trkpt>
      <trkpt lat="44.51835" lon="1.71936">
        <ele>149</ele>
        <time>2021-08-31T10:58:15Z</time>
      </trkpt>
      <trkpt lat="44.51833" lon="1.71943">
        <ele>151</ele>
        <time>2021-08-31T10:58:23Z</time>
      </trkpt>
      <trkpt lat="44.51836" lon="1.71949">
        <ele>152</ele>
        <time>2021-08-31T10:58:28Z</time>
      </trkpt>
      <trkpt lat="44.51838" lon="1.71957">
        <ele>151</ele>
        <time>2021-08-31T10:58:32Z</time>
      </trkpt>
      <trkpt lat="44.51841" lon="1.71958">
        <ele>153</ele>
        <time>2021-08-31T11:01:08Z</time>
      </trkpt>
      <trkpt lat="44.51846" lon="1.71954">
        <ele>153</ele>
        <time>2021-08-31T11:01:10Z</time>
      </trkpt>
      <trkpt lat="44.51888" lon="1.71957">
        <ele>156</ele>
        <time>2021-08-31T11:01:26Z</time>
      </trkpt>
      <trkpt lat="44.51904" lon="1.71967">
        <ele>154</ele>
        <time>2021-08-31T11:01:33Z</time>
      </trkpt>
      <trkpt lat="44.51974" lon="1.71912">
        <ele>151</ele>
        <time>2021-08-31T11:01:59Z</time>
      </trkpt>
      <trkpt lat="44.51995" lon="1.71815">
        <ele>151</ele>
        <time>2021-08-31T11:02:19Z</time>
      </trkpt>
      <trkpt lat="44.52001" lon="1.7174">
        <ele>149</ele>
        <time>2021-08-31T11:02:33Z</time>
      </trkpt>
      <trkpt lat="44.51999" lon="1.71701">
        <ele>149</ele>
        <time>2021-08-31T11:02:41Z</time>
      </trkpt>
      <trkpt lat="44.51972" lon="1.7163">
        <ele>149</ele>
        <time>2021-08-31T11:02:54Z</time>
      </trkpt>
      <trkpt lat="44.51963" lon="1.71615">
        <ele>151</ele>
        <time>2021-08-31T11:02:57Z</time>
      </trkpt>
      <trkpt lat="44.51883" lon="1.71508">
        <ele>154</ele>
        <time>2021-08-31T11:03:23Z</time>
      </trkpt>
      <trkpt lat="44.51839" lon="1.71473">
        <ele>153</ele>
        <time>2021-08-31T11:03:35Z</time>
      </trkpt>
      <trkpt lat="44.51831" lon="1.71469">
        <ele>153</ele>
        <time>2021-08-31T11:03:37Z</time>
      </trkpt>
      <trkpt lat="44.51705" lon="1.71394">
        <ele>142</ele>
        <time>2021-08-31T11:04:08Z</time>
      </trkpt>
      <trkpt lat="44.51577" lon="1.71304">
        <ele>136</ele>
        <time>2021-08-31T11:04:39Z</time>
      </trkpt>
      <trkpt lat="44.51536" lon="1.7126">
        <ele>134</ele>
        <time>2021-08-31T11:04:49Z</time>
      </trkpt>
      <trkpt lat="44.5151" lon="1.71214">
        <ele>133</ele>
        <time>2021-08-31T11:04:57Z</time>
      </trkpt>
      <trkpt lat="44.51467" lon="1.71087">
        <ele>134</ele>
        <time>2021-08-31T11:05:16Z</time>
      </trkpt>
      <trkpt lat="44.5146" lon="1.71055">
        <ele>137</ele>
        <time>2021-08-31T11:05:21Z</time>
      </trkpt>
      <trkpt lat="44.5146" lon="1.7101">
        <ele>143</ele>
        <time>2021-08-31T11:05:28Z</time>
      </trkpt>
      <trkpt lat="44.51507" lon="1.70801">
        <ele>143</ele>
        <time>2021-08-31T11:05:58Z</time>
      </trkpt>
      <trkpt lat="44.51582" lon="1.70605">
        <ele>146</ele>
        <time>2021-08-31T11:06:28Z</time>
      </trkpt>
      <trkpt lat="44.51683" lon="1.70421">
        <ele>148</ele>
        <time>2021-08-31T11:06:59Z</time>
      </trkpt>
      <trkpt lat="44.51768" lon="1.70276">
        <ele>151</ele>
        <time>2021-08-31T11:07:24Z</time>
      </trkpt>
      <trkpt lat="44.51899" lon="1.70132">
        <ele>159</ele>
        <time>2021-08-31T11:07:56Z</time>
      </trkpt>
      <trkpt lat="44.5194" lon="1.70092">
        <ele>161</ele>
        <time>2021-08-31T11:08:06Z</time>
      </trkpt>
      <trkpt lat="44.51953" lon="1.70073">
        <ele>161</ele>
        <time>2021-08-31T11:08:10Z</time>
      </trkpt>
      <trkpt lat="44.51972" lon="1.70026">
        <ele>162</ele>
        <time>2021-08-31T11:08:18Z</time>
      </trkpt>
      <trkpt lat="44.51975" lon="1.69989">
        <ele>161</ele>
        <time>2021-08-31T11:08:24Z</time>
      </trkpt>
      <trkpt lat="44.51957" lon="1.69824">
        <ele>174</ele>
        <time>2021-08-31T11:08:51Z</time>
      </trkpt>
      <trkpt lat="44.51949" lon="1.69794">
        <ele>179</ele>
        <time>2021-08-31T11:08:56Z</time>
      </trkpt>
      <trkpt lat="44.51932" lon="1.6974">
        <ele>188</ele>
        <time>2021-08-31T11:09:04Z</time>
      </trkpt>
      <trkpt lat="44.51848" lon="1.69558">
        <ele>189</ele>
        <time>2021-08-31T11:09:33Z</time>
      </trkpt>
      <trkpt lat="44.51839" lon="1.6954">
        <ele>188</ele>
        <time>2021-08-31T11:09:37Z</time>
      </trkpt>
      <trkpt lat="44.51781" lon="1.69383">
        <ele>184</ele>
        <time>2021-08-31T11:10:03Z</time>
      </trkpt>
      <trkpt lat="44.51778" lon="1.69371">
        <ele>181</ele>
        <time>2021-08-31T11:10:05Z</time>
      </trkpt>
      <trkpt lat="44.51765" lon="1.6928">
        <ele>165</ele>
        <time>2021-08-31T11:10:19Z</time>
      </trkpt>
      <trkpt lat="44.51765" lon="1.69271">
        <ele>163</ele>
        <time>2021-08-31T11:10:21Z</time>
      </trkpt>
      <trkpt lat="44.51765" lon="1.69263">
        <ele>161</ele>
        <time>2021-08-31T11:10:23Z</time>
      </trkpt>
      <trkpt lat="44.51762" lon="1.69256">
        <ele>160</ele>
        <time>2021-08-31T11:10:25Z</time>
      </trkpt>
      <trkpt lat="44.51759" lon="1.6925">
        <ele>159</ele>
        <time>2021-08-31T11:10:27Z</time>
      </trkpt>
      <trkpt lat="44.51756" lon="1.69244">
        <ele>159</ele>
        <time>2021-08-31T11:10:29Z</time>
      </trkpt>
      <trkpt lat="44.51754" lon="1.69239">
        <ele>158</ele>
        <time>2021-08-31T11:10:31Z</time>
      </trkpt>
      <trkpt lat="44.5172" lon="1.69076">
        <ele>144</ele>
        <time>2021-08-31T11:11:02Z</time>
      </trkpt>
      <trkpt lat="44.5167" lon="1.6891">
        <ele>150</ele>
        <time>2021-08-31T11:11:26Z</time>
      </trkpt>
      <trkpt lat="44.51589" lon="1.68703">
        <ele>186</ele>
        <time>2021-08-31T11:11:57Z</time>
      </trkpt>
      <trkpt lat="44.51587" lon="1.68673">
        <ele>189</ele>
        <time>2021-08-31T11:12:01Z</time>
      </trkpt>
      <trkpt lat="44.51589" lon="1.68656">
        <ele>186</ele>
        <time>2021-08-31T11:12:03Z</time>
      </trkpt>
      <trkpt lat="44.51591" lon="1.68648">
        <ele>184</ele>
        <time>2021-08-31T11:12:04Z</time>
      </trkpt>
      <trkpt lat="44.51609" lon="1.68535">
        <ele>157</ele>
        <time>2021-08-31T11:12:18Z</time>
      </trkpt>
      <trkpt lat="44.51624" lon="1.68472">
        <ele>152</ele>
        <time>2021-08-31T11:12:27Z</time>
      </trkpt>
      <trkpt lat="44.51658" lon="1.6841">
        <ele>152</ele>
        <time>2021-08-31T11:12:37Z</time>
      </trkpt>
      <trkpt lat="44.51707" lon="1.68347">
        <ele>153</ele>
        <time>2021-08-31T11:12:50Z</time>
      </trkpt>
      <trkpt lat="44.51801" lon="1.6826">
        <ele>160</ele>
        <time>2021-08-31T11:13:11Z</time>
      </trkpt>
      <trkpt lat="44.51928" lon="1.68114">
        <ele>165</ele>
        <time>2021-08-31T11:13:42Z</time>
      </trkpt>
      <trkpt lat="44.51999" lon="1.67964">
        <ele>163</ele>
        <time>2021-08-31T11:14:07Z</time>
      </trkpt>
      <trkpt lat="44.52007" lon="1.67941">
        <ele>162</ele>
        <time>2021-08-31T11:14:11Z</time>
      </trkpt>
      <trkpt lat="44.52022" lon="1.67917">
        <ele>161</ele>
        <time>2021-08-31T11:14:15Z</time>
      </trkpt>
      <trkpt lat="44.52041" lon="1.679">
        <ele>161</ele>
        <time>2021-08-31T11:14:19Z</time>
      </trkpt>
      <trkpt lat="44.521" lon="1.67874">
        <ele>162</ele>
        <time>2021-08-31T11:14:31Z</time>
      </trkpt>
      <trkpt lat="44.52193" lon="1.67772">
        <ele>165</ele>
        <time>2021-08-31T11:14:53Z</time>
      </trkpt>
      <trkpt lat="44.52208" lon="1.6775">
        <ele>166</ele>
        <time>2021-08-31T11:14:57Z</time>
      </trkpt>
      <trkpt lat="44.52228" lon="1.67687">
        <ele>165</ele>
        <time>2021-08-31T11:15:07Z</time>
      </trkpt>
      <trkpt lat="44.52231" lon="1.67653">
        <ele>165</ele>
        <time>2021-08-31T11:15:13Z</time>
      </trkpt>
      <trkpt lat="44.52219" lon="1.67631">
        <ele>164</ele>
        <time>2021-08-31T11:15:20Z</time>
      </trkpt>
      <trkpt lat="44.5221" lon="1.67591">
        <ele>164</ele>
        <time>2021-08-31T11:15:26Z</time>
      </trkpt>
      <trkpt lat="44.52203" lon="1.67548">
        <ele>164</ele>
        <time>2021-08-31T11:15:35Z</time>
      </trkpt>
      <trkpt lat="44.52179" lon="1.67343">
        <ele>171</ele>
        <time>2021-08-31T11:16:12Z</time>
      </trkpt>
      <trkpt lat="44.52176" lon="1.67336">
        <ele>179</ele>
        <time>2021-08-31T11:16:13Z</time>
      </trkpt>
      <trkpt lat="44.5216" lon="1.67337">
        <ele>173</ele>
        <time>2021-08-31T11:16:14Z</time>
      </trkpt>
      <trkpt lat="44.52154" lon="1.67294">
        <ele>154</ele>
        <time>2021-08-31T11:16:23Z</time>
      </trkpt>
      <trkpt lat="44.52157" lon="1.67283">
        <ele>151</ele>
        <time>2021-08-31T11:16:25Z</time>
      </trkpt>
      <trkpt lat="44.52158" lon="1.67271">
        <ele>146</ele>
        <time>2021-08-31T11:16:27Z</time>
      </trkpt>
      <trkpt lat="44.52164" lon="1.6723">
        <ele>134</ele>
        <time>2021-08-31T11:16:34Z</time>
      </trkpt>
      <trkpt lat="44.52166" lon="1.67213">
        <ele>132</ele>
        <time>2021-08-31T11:16:37Z</time>
      </trkpt>
      <trkpt lat="44.52167" lon="1.67204">
        <ele>128</ele>
        <time>2021-08-31T11:16:39Z</time>
      </trkpt>
      <trkpt lat="44.52164" lon="1.67196">
        <ele>127</ele>
        <time>2021-08-31T11:16:40Z</time>
      </trkpt>
      <trkpt lat="44.52155" lon="1.67157">
        <ele>122</ele>
        <time>2021-08-31T11:16:44Z</time>
      </trkpt>
      <trkpt lat="44.52155" lon="1.67138">
        <ele>121</ele>
        <time>2021-08-31T11:16:46Z</time>
      </trkpt>
      <trkpt lat="44.52156" lon="1.67119">
        <ele>119</ele>
        <time>2021-08-31T11:16:48Z</time>
      </trkpt>
      <trkpt lat="44.52152" lon="1.67093">
        <ele>117</ele>
        <time>2021-08-31T11:16:51Z</time>
      </trkpt>
      <trkpt lat="44.52136" lon="1.67019">
        <ele>110</ele>
        <time>2021-08-31T11:17:02Z</time>
      </trkpt>
      <trkpt lat="44.52136" lon="1.66995">
        <ele>106</ele>
        <time>2021-08-31T11:17:07Z</time>
      </trkpt>
      <trkpt lat="44.52133" lon="1.66979">
        <ele>104</ele>
        <time>2021-08-31T11:17:13Z</time>
      </trkpt>
      <trkpt lat="44.5212" lon="1.66981">
        <ele>106</ele>
        <time>2021-08-31T11:17:17Z</time>
      </trkpt>
      <trkpt lat="44.52106" lon="1.6698">
        <ele>118</ele>
        <time>2021-08-31T11:17:21Z</time>
      </trkpt>
      <trkpt lat="44.52082" lon="1.66973">
        <ele>127</ele>
        <time>2021-08-31T11:17:26Z</time>
      </trkpt>
      <trkpt lat="44.52073" lon="1.6697">
        <ele>127</ele>
        <time>2021-08-31T11:17:28Z</time>
      </trkpt>
      <trkpt lat="44.52065" lon="1.66968">
        <ele>125</ele>
        <time>2021-08-31T11:17:30Z</time>
      </trkpt>
      <trkpt lat="44.52055" lon="1.66958">
        <ele>122</ele>
        <time>2021-08-31T11:17:33Z</time>
      </trkpt>
      <trkpt lat="44.52044" lon="1.66955">
        <ele>120</ele>
        <time>2021-08-31T11:17:36Z</time>
      </trkpt>
      <trkpt lat="44.51889" lon="1.66947">
        <ele>126</ele>
        <time>2021-08-31T11:18:06Z</time>
      </trkpt>
      <trkpt lat="44.51744" lon="1.67021">
        <ele>123</ele>
        <time>2021-08-31T11:18:35Z</time>
      </trkpt>
      <trkpt lat="44.51693" lon="1.67032">
        <ele>122</ele>
        <time>2021-08-31T11:18:45Z</time>
      </trkpt>
      <trkpt lat="44.51627" lon="1.67028">
        <ele>127</ele>
        <time>2021-08-31T11:18:58Z</time>
      </trkpt>
      <trkpt lat="44.51521" lon="1.67054">
        <ele>132</ele>
        <time>2021-08-31T11:19:19Z</time>
      </trkpt>
      <trkpt lat="44.51479" lon="1.67072">
        <ele>134</ele>
        <time>2021-08-31T11:19:26Z</time>
      </trkpt>
      <trkpt lat="44.51462" lon="1.67076">
        <ele>134</ele>
        <time>2021-08-31T11:19:29Z</time>
      </trkpt>
      <trkpt lat="44.51452" lon="1.67081">
        <ele>134</ele>
        <time>2021-08-31T11:19:31Z</time>
      </trkpt>
      <trkpt lat="44.51391" lon="1.67107">
        <ele>134</ele>
        <time>2021-08-31T11:19:42Z</time>
      </trkpt>
      <trkpt lat="44.51382" lon="1.67111">
        <ele>133</ele>
        <time>2021-08-31T11:19:44Z</time>
      </trkpt>
      <trkpt lat="44.51373" lon="1.67115">
        <ele>133</ele>
        <time>2021-08-31T11:19:46Z</time>
      </trkpt>
      <trkpt lat="44.51366" lon="1.67119">
        <ele>133</ele>
        <time>2021-08-31T11:19:48Z</time>
      </trkpt>
      <trkpt lat="44.51351" lon="1.67122">
        <ele>133</ele>
        <time>2021-08-31T11:19:51Z</time>
      </trkpt>
      <trkpt lat="44.51328" lon="1.67122">
        <ele>133</ele>
        <time>2021-08-31T11:19:55Z</time>
      </trkpt>
      <trkpt lat="44.51315" lon="1.67115">
        <ele>134</ele>
        <time>2021-08-31T11:19:57Z</time>
      </trkpt>
      <trkpt lat="44.51284" lon="1.67056">
        <ele>143</ele>
        <time>2021-08-31T11:20:06Z</time>
      </trkpt>
      <trkpt lat="44.51279" lon="1.67035">
        <ele>145</ele>
        <time>2021-08-31T11:20:09Z</time>
      </trkpt>
      <trkpt lat="44.51263" lon="1.66913">
        <ele>148</ele>
        <time>2021-08-31T11:20:25Z</time>
      </trkpt>
      <trkpt lat="44.51187" lon="1.66716">
        <ele>150</ele>
        <time>2021-08-31T11:20:55Z</time>
      </trkpt>
      <trkpt lat="44.51111" lon="1.6656">
        <ele>156</ele>
        <time>2021-08-31T11:21:20Z</time>
      </trkpt>
      <trkpt lat="44.51005" lon="1.66401">
        <ele>148</ele>
        <time>2021-08-31T11:21:51Z</time>
      </trkpt>
      <trkpt lat="44.50979" lon="1.6638">
        <ele>146</ele>
        <time>2021-08-31T11:21:58Z</time>
      </trkpt>
      <trkpt lat="44.50972" lon="1.66377">
        <ele>146</ele>
        <time>2021-08-31T11:22:00Z</time>
      </trkpt>
      <trkpt lat="44.50965" lon="1.66377">
        <ele>145</ele>
        <time>2021-08-31T11:22:02Z</time>
      </trkpt>
      <trkpt lat="44.50941" lon="1.66386">
        <ele>146</ele>
        <time>2021-08-31T11:22:08Z</time>
      </trkpt>
      <trkpt lat="44.50924" lon="1.66385">
        <ele>146</ele>
        <time>2021-08-31T11:22:12Z</time>
      </trkpt>
      <trkpt lat="44.50908" lon="1.66378">
        <ele>146</ele>
        <time>2021-08-31T11:22:15Z</time>
      </trkpt>
      <trkpt lat="44.50889" lon="1.66369">
        <ele>143</ele>
        <time>2021-08-31T11:22:18Z</time>
      </trkpt>
      <trkpt lat="44.5085" lon="1.66384">
        <ele>138</ele>
        <time>2021-08-31T11:22:25Z</time>
      </trkpt>
      <trkpt lat="44.50838" lon="1.6638">
        <ele>136</ele>
        <time>2021-08-31T11:22:27Z</time>
      </trkpt>
      <trkpt lat="44.50825" lon="1.66376">
        <ele>132</ele>
        <time>2021-08-31T11:22:29Z</time>
      </trkpt>
      <trkpt lat="44.50796" lon="1.66373">
        <ele>126</ele>
        <time>2021-08-31T11:22:35Z</time>
      </trkpt>
      <trkpt lat="44.50781" lon="1.66364">
        <ele>123</ele>
        <time>2021-08-31T11:22:38Z</time>
      </trkpt>
      <trkpt lat="44.50776" lon="1.66358">
        <ele>122</ele>
        <time>2021-08-31T11:22:39Z</time>
      </trkpt>
      <trkpt lat="44.50768" lon="1.66347">
        <ele>120</ele>
        <time>2021-08-31T11:22:41Z</time>
      </trkpt>
      <trkpt lat="44.50763" lon="1.66335">
        <ele>118</ele>
        <time>2021-08-31T11:22:43Z</time>
      </trkpt>
      <trkpt lat="44.50763" lon="1.66313">
        <ele>118</ele>
        <time>2021-08-31T11:22:47Z</time>
      </trkpt>
      <trkpt lat="44.50765" lon="1.66301">
        <ele>118</ele>
        <time>2021-08-31T11:22:49Z</time>
      </trkpt>
      <trkpt lat="44.50767" lon="1.66286">
        <ele>120</ele>
        <time>2021-08-31T11:22:51Z</time>
      </trkpt>
      <trkpt lat="44.50768" lon="1.66279">
        <ele>123</ele>
        <time>2021-08-31T11:22:52Z</time>
      </trkpt>
      <trkpt lat="44.50835" lon="1.66104">
        <ele>137</ele>
        <time>2021-08-31T11:23:22Z</time>
      </trkpt>
      <trkpt lat="44.50849" lon="1.66072">
        <ele>138</ele>
        <time>2021-08-31T11:23:28Z</time>
      </trkpt>
      <trkpt lat="44.50852" lon="1.66062">
        <ele>138</ele>
        <time>2021-08-31T11:23:30Z</time>
      </trkpt>
      <trkpt lat="44.50862" lon="1.66044">
        <ele>139</ele>
        <time>2021-08-31T11:23:34Z</time>
      </trkpt>
      <trkpt lat="44.5087" lon="1.66002">
        <ele>141</ele>
        <time>2021-08-31T11:23:42Z</time>
      </trkpt>
      <trkpt lat="44.50861" lon="1.65913">
        <ele>143</ele>
        <time>2021-08-31T11:23:59Z</time>
      </trkpt>
      <trkpt lat="44.5085" lon="1.65865">
        <ele>144</ele>
        <time>2021-08-31T11:24:08Z</time>
      </trkpt>
      <trkpt lat="44.50812" lon="1.65806">
        <ele>146</ele>
        <time>2021-08-31T11:24:23Z</time>
      </trkpt>
      <trkpt lat="44.50807" lon="1.65798">
        <ele>146</ele>
        <time>2021-08-31T11:24:25Z</time>
      </trkpt>
      <trkpt lat="44.50769" lon="1.65749">
        <ele>147</ele>
        <time>2021-08-31T11:24:40Z</time>
      </trkpt>
      <trkpt lat="44.50752" lon="1.6573">
        <ele>147</ele>
        <time>2021-08-31T11:24:47Z</time>
      </trkpt>
      <trkpt lat="44.5074" lon="1.65723">
        <ele>146</ele>
        <time>2021-08-31T11:24:51Z</time>
      </trkpt>
      <trkpt lat="44.50708" lon="1.65698">
        <ele>147</ele>
        <time>2021-08-31T11:25:01Z</time>
      </trkpt>
      <trkpt lat="44.50702" lon="1.65691">
        <ele>144</ele>
        <time>2021-08-31T11:25:04Z</time>
      </trkpt>
      <trkpt lat="44.50648" lon="1.65653">
        <ele>131</ele>
        <time>2021-08-31T11:25:22Z</time>
      </trkpt>
      <trkpt lat="44.50643" lon="1.65651">
        <ele>130</ele>
        <time>2021-08-31T11:25:24Z</time>
      </trkpt>
      <trkpt lat="44.5064" lon="1.65644">
        <ele>130</ele>
        <time>2021-08-31T11:25:27Z</time>
      </trkpt>
      <trkpt lat="44.50587" lon="1.65621">
        <ele>130</ele>
        <time>2021-08-31T11:25:41Z</time>
      </trkpt>
      <trkpt lat="44.5058" lon="1.65618">
        <ele>132</ele>
        <time>2021-08-31T11:25:43Z</time>
      </trkpt>
      <trkpt lat="44.50573" lon="1.65614">
        <ele>135</ele>
        <time>2021-08-31T11:25:45Z</time>
      </trkpt>
      <trkpt lat="44.50567" lon="1.65611">
        <ele>138</ele>
        <time>2021-08-31T11:25:47Z</time>
      </trkpt>
      <trkpt lat="44.50557" lon="1.65605">
        <ele>141</ele>
        <time>2021-08-31T11:25:52Z</time>
      </trkpt>
      <trkpt lat="44.50551" lon="1.65605">
        <ele>141</ele>
        <time>2021-08-31T11:25:57Z</time>
      </trkpt>
      <trkpt lat="44.50546" lon="1.65606">
        <ele>141</ele>
        <time>2021-08-31T11:26:17Z</time>
      </trkpt>
      <trkpt lat="44.50544" lon="1.65616">
        <ele>132</ele>
        <time>2021-08-31T11:28:55Z</time>
      </trkpt>
      <trkpt lat="44.50545" lon="1.65614">
        <ele>139</ele>
        <time>2021-08-31T11:33:46Z</time>
      </trkpt>
      <trkpt lat="44.5054" lon="1.65613">
        <ele>139</ele>
        <time>2021-08-31T11:43:25Z</time>
      </trkpt>
      <trkpt lat="44.50543" lon="1.65612">
        <ele>136</ele>
        <time>2021-08-31T11:54:18Z</time>
      </trkpt>
      <trkpt lat="44.5054" lon="1.65606">
        <ele>136</ele>
        <time>2021-08-31T11:54:38Z</time>
      </trkpt>
      <trkpt lat="44.50535" lon="1.65603">
        <ele>129</ele>
        <time>2021-08-31T11:54:52Z</time>
      </trkpt>
      <trkpt lat="44.50513" lon="1.65578">
        <ele>134</ele>
        <time>2021-08-31T11:55:23Z</time>
      </trkpt>
      <trkpt lat="44.50466" lon="1.65509">
        <ele>136</ele>
        <time>2021-08-31T11:55:45Z</time>
      </trkpt>
      <trkpt lat="44.50458" lon="1.655">
        <ele>136</ele>
        <time>2021-08-31T11:55:50Z</time>
      </trkpt>
      <trkpt lat="44.50453" lon="1.65503">
        <ele>136</ele>
        <time>2021-08-31T11:55:52Z</time>
      </trkpt>
      <trkpt lat="44.5045" lon="1.65498">
        <ele>138</ele>
        <time>2021-08-31T11:56:27Z</time>
      </trkpt>
      <trkpt lat="44.50448" lon="1.6549">
        <ele>138</ele>
        <time>2021-08-31T11:56:30Z</time>
      </trkpt>
      <trkpt lat="44.50443" lon="1.65478">
        <ele>138</ele>
        <time>2021-08-31T11:56:34Z</time>
      </trkpt>
      <trkpt lat="44.5044" lon="1.65472">
        <ele>138</ele>
        <time>2021-08-31T11:56:36Z</time>
      </trkpt>
      <trkpt lat="44.50438" lon="1.65465">
        <ele>138</ele>
        <time>2021-08-31T11:56:38Z</time>
      </trkpt>
      <trkpt lat="44.50434" lon="1.6546">
        <ele>138</ele>
        <time>2021-08-31T11:56:40Z</time>
      </trkpt>
      <trkpt lat="44.50428" lon="1.65452">
        <ele>137</ele>
        <time>2021-08-31T11:56:45Z</time>
      </trkpt>
      <trkpt lat="44.5042" lon="1.65448">
        <ele>138</ele>
        <time>2021-08-31T11:56:50Z</time>
      </trkpt>
      <trkpt lat="44.5042" lon="1.65455">
        <ele>140</ele>
        <time>2021-08-31T11:56:55Z</time>
      </trkpt>
      <trkpt lat="44.50425" lon="1.65453">
        <ele>141</ele>
        <time>2021-08-31T11:57:13Z</time>
      </trkpt>
      <trkpt lat="44.5043" lon="1.65448">
        <ele>141</ele>
        <time>2021-08-31T11:57:16Z</time>
      </trkpt>
      <trkpt lat="44.50425" lon="1.65444">
        <ele>141</ele>
        <time>2021-08-31T11:57:19Z</time>
      </trkpt>
      <trkpt lat="44.50413" lon="1.65427">
        <ele>140</ele>
        <time>2021-08-31T11:57:26Z</time>
      </trkpt>
      <trkpt lat="44.50407" lon="1.65417">
        <ele>136</ele>
        <time>2021-08-31T11:57:29Z</time>
      </trkpt>
      <trkpt lat="44.50401" lon="1.65406">
        <ele>134</ele>
        <time>2021-08-31T11:57:32Z</time>
      </trkpt>
      <trkpt lat="44.50395" lon="1.65393">
        <ele>129</ele>
        <time>2021-08-31T11:57:35Z</time>
      </trkpt>
      <trkpt lat="44.50388" lon="1.6538">
        <ele>125</ele>
        <time>2021-08-31T11:57:38Z</time>
      </trkpt>
      <trkpt lat="44.5038" lon="1.65367">
        <ele>120</ele>
        <time>2021-08-31T11:57:41Z</time>
      </trkpt>
      <trkpt lat="44.50364" lon="1.65341">
        <ele>116</ele>
        <time>2021-08-31T11:57:47Z</time>
      </trkpt>
      <trkpt lat="44.50356" lon="1.65331">
        <ele>114</ele>
        <time>2021-08-31T11:57:50Z</time>
      </trkpt>
      <trkpt lat="44.50348" lon="1.65322">
        <ele>113</ele>
        <time>2021-08-31T11:57:53Z</time>
      </trkpt>
      <trkpt lat="44.50343" lon="1.65316">
        <ele>112</ele>
        <time>2021-08-31T11:57:55Z</time>
      </trkpt>
      <trkpt lat="44.50318" lon="1.65284">
        <ele>115</ele>
        <time>2021-08-31T11:58:25Z</time>
      </trkpt>
      <trkpt lat="44.50224" lon="1.65138">
        <ele>112</ele>
        <time>2021-08-31T11:58:57Z</time>
      </trkpt>
      <trkpt lat="44.50166" lon="1.65065">
        <ele>115</ele>
        <time>2021-08-31T11:59:15Z</time>
      </trkpt>
      <trkpt lat="44.50091" lon="1.65002">
        <ele>119</ele>
        <time>2021-08-31T11:59:34Z</time>
      </trkpt>
      <trkpt lat="44.50061" lon="1.64987">
        <ele>119</ele>
        <time>2021-08-31T11:59:41Z</time>
      </trkpt>
      <trkpt lat="44.5001" lon="1.64977">
        <ele>117</ele>
        <time>2021-08-31T11:59:52Z</time>
      </trkpt>
      <trkpt lat="44.4995" lon="1.64985">
        <ele>117</ele>
        <time>2021-08-31T12:00:05Z</time>
      </trkpt>
      <trkpt lat="44.49922" lon="1.64996">
        <ele>118</ele>
        <time>2021-08-31T12:00:11Z</time>
      </trkpt>
      <trkpt lat="44.49885" lon="1.65025">
        <ele>117</ele>
        <time>2021-08-31T12:00:19Z</time>
      </trkpt>
      <trkpt lat="44.49791" lon="1.65176">
        <ele>116</ele>
        <time>2021-08-31T12:00:49Z</time>
      </trkpt>
      <trkpt lat="44.49723" lon="1.6533">
        <ele>121</ele>
        <time>2021-08-31T12:01:17Z</time>
      </trkpt>
      <trkpt lat="44.4972" lon="1.65335">
        <ele>121</ele>
        <time>2021-08-31T12:01:21Z</time>
      </trkpt>
      <trkpt lat="44.49716" lon="1.65343">
        <ele>121</ele>
        <time>2021-08-31T12:02:15Z</time>
      </trkpt>
      <trkpt lat="44.49717" lon="1.65351">
        <ele>123</ele>
        <time>2021-08-31T12:02:18Z</time>
      </trkpt>
      <trkpt lat="44.49711" lon="1.65366">
        <ele>125</ele>
        <time>2021-08-31T12:02:24Z</time>
      </trkpt>
      <trkpt lat="44.49709" lon="1.65372">
        <ele>125</ele>
        <time>2021-08-31T12:02:26Z</time>
      </trkpt>
      <trkpt lat="44.4966" lon="1.655">
        <ele>129</ele>
        <time>2021-08-31T12:02:52Z</time>
      </trkpt>
      <trkpt lat="44.49648" lon="1.65537">
        <ele>132</ele>
        <time>2021-08-31T12:02:58Z</time>
      </trkpt>
      <trkpt lat="44.49643" lon="1.65549">
        <ele>133</ele>
        <time>2021-08-31T12:03:00Z</time>
      </trkpt>
      <trkpt lat="44.49633" lon="1.65564">
        <ele>136</ele>
        <time>2021-08-31T12:03:03Z</time>
      </trkpt>
      <trkpt lat="44.49626" lon="1.65573">
        <ele>137</ele>
        <time>2021-08-31T12:03:05Z</time>
      </trkpt>
      <trkpt lat="44.49613" lon="1.65579">
        <ele>139</ele>
        <time>2021-08-31T12:03:08Z</time>
      </trkpt>
      <trkpt lat="44.49574" lon="1.6558">
        <ele>141</ele>
        <time>2021-08-31T12:03:16Z</time>
      </trkpt>
      <trkpt lat="44.4955" lon="1.65572">
        <ele>141</ele>
        <time>2021-08-31T12:03:21Z</time>
      </trkpt>
      <trkpt lat="44.49521" lon="1.65548">
        <ele>142</ele>
        <time>2021-08-31T12:03:28Z</time>
      </trkpt>
      <trkpt lat="44.495" lon="1.65522">
        <ele>142</ele>
        <time>2021-08-31T12:03:34Z</time>
      </trkpt>
      <trkpt lat="44.49451" lon="1.65436">
        <ele>141</ele>
        <time>2021-08-31T12:03:51Z</time>
      </trkpt>
      <trkpt lat="44.49396" lon="1.65384">
        <ele>143</ele>
        <time>2021-08-31T12:04:04Z</time>
      </trkpt>
      <trkpt lat="44.49373" lon="1.65372">
        <ele>144</ele>
        <time>2021-08-31T12:04:09Z</time>
      </trkpt>
      <trkpt lat="44.49343" lon="1.65369">
        <ele>143</ele>
        <time>2021-08-31T12:04:15Z</time>
      </trkpt>
      <trkpt lat="44.49334" lon="1.65372">
        <ele>143</ele>
        <time>2021-08-31T12:04:17Z</time>
      </trkpt>
      <trkpt lat="44.49334" lon="1.65393">
        <ele>162</ele>
        <time>2021-08-31T12:04:19Z</time>
      </trkpt>
      <trkpt lat="44.49298" lon="1.65405">
        <ele>163</ele>
        <time>2021-08-31T12:04:26Z</time>
      </trkpt>
      <trkpt lat="44.49265" lon="1.65432">
        <ele>163</ele>
        <time>2021-08-31T12:04:33Z</time>
      </trkpt>
      <trkpt lat="44.49222" lon="1.65466">
        <ele>163</ele>
        <time>2021-08-31T12:04:42Z</time>
      </trkpt>
      <trkpt lat="44.49184" lon="1.65481">
        <ele>162</ele>
        <time>2021-08-31T12:04:49Z</time>
      </trkpt>
      <trkpt lat="44.49118" lon="1.65499">
        <ele>158</ele>
        <time>2021-08-31T12:05:01Z</time>
      </trkpt>
      <trkpt lat="44.49089" lon="1.65497">
        <ele>157</ele>
        <time>2021-08-31T12:05:06Z</time>
      </trkpt>
      <trkpt lat="44.49045" lon="1.65475">
        <ele>155</ele>
        <time>2021-08-31T12:05:14Z</time>
      </trkpt>
      <trkpt lat="44.48984" lon="1.65413">
        <ele>152</ele>
        <time>2021-08-31T12:05:28Z</time>
      </trkpt>
      <trkpt lat="44.48868" lon="1.65279">
        <ele>148</ele>
        <time>2021-08-31T12:05:58Z</time>
      </trkpt>
      <trkpt lat="44.48747" lon="1.65139">
        <ele>149</ele>
        <time>2021-08-31T12:06:28Z</time>
      </trkpt>
      <trkpt lat="44.48648" lon="1.65036">
        <ele>147</ele>
        <time>2021-08-31T12:06:52Z</time>
      </trkpt>
      <trkpt lat="44.48599" lon="1.65011">
        <ele>146</ele>
        <time>2021-08-31T12:07:02Z</time>
      </trkpt>
      <trkpt lat="44.48488" lon="1.64988">
        <ele>147</ele>
        <time>2021-08-31T12:07:24Z</time>
      </trkpt>
      <trkpt lat="44.48377" lon="1.64977">
        <ele>140</ele>
        <time>2021-08-31T12:07:46Z</time>
      </trkpt>
      <trkpt lat="44.48274" lon="1.64992">
        <ele>135</ele>
        <time>2021-08-31T12:08:08Z</time>
      </trkpt>
      <trkpt lat="44.48227" lon="1.6501">
        <ele>137</ele>
        <time>2021-08-31T12:08:18Z</time>
      </trkpt>
      <trkpt lat="44.48123" lon="1.65026">
        <ele>138</ele>
        <time>2021-08-31T12:08:38Z</time>
      </trkpt>
      <trkpt lat="44.4797" lon="1.65093">
        <ele>140</ele>
        <time>2021-08-31T12:09:08Z</time>
      </trkpt>
      <trkpt lat="44.4791" lon="1.6512">
        <ele>143</ele>
        <time>2021-08-31T12:09:21Z</time>
      </trkpt>
      <trkpt lat="44.47906" lon="1.65121">
        <ele>143</ele>
        <time>2021-08-31T12:09:22Z</time>
      </trkpt>
      <trkpt lat="44.47889" lon="1.65119">
        <ele>140</ele>
        <time>2021-08-31T12:09:25Z</time>
      </trkpt>
      <trkpt lat="44.47875" lon="1.65116">
        <ele>139</ele>
        <time>2021-08-31T12:09:28Z</time>
      </trkpt>
      <trkpt lat="44.47861" lon="1.65108">
        <ele>138</ele>
        <time>2021-08-31T12:09:31Z</time>
      </trkpt>
      <trkpt lat="44.47843" lon="1.65075">
        <ele>136</ele>
        <time>2021-08-31T12:09:37Z</time>
      </trkpt>
      <trkpt lat="44.47835" lon="1.65054">
        <ele>136</ele>
        <time>2021-08-31T12:09:41Z</time>
      </trkpt>
      <trkpt lat="44.4783" lon="1.65046">
        <ele>136</ele>
        <time>2021-08-31T12:09:43Z</time>
      </trkpt>
      <trkpt lat="44.47825" lon="1.6504">
        <ele>136</ele>
        <time>2021-08-31T12:09:45Z</time>
      </trkpt>
      <trkpt lat="44.47817" lon="1.65037">
        <ele>137</ele>
        <time>2021-08-31T12:09:47Z</time>
      </trkpt>
      <trkpt lat="44.47717" lon="1.65149">
        <ele>135</ele>
        <time>2021-08-31T12:10:19Z</time>
      </trkpt>
      <trkpt lat="44.47664" lon="1.65208">
        <ele>133</ele>
        <time>2021-08-31T12:10:35Z</time>
      </trkpt>
      <trkpt lat="44.47611" lon="1.65241">
        <ele>132</ele>
        <time>2021-08-31T12:10:48Z</time>
      </trkpt>
      <trkpt lat="44.47551" lon="1.653">
        <ele>132</ele>
        <time>2021-08-31T12:11:05Z</time>
      </trkpt>
      <trkpt lat="44.47546" lon="1.65308">
        <ele>132</ele>
        <time>2021-08-31T12:11:07Z</time>
      </trkpt>
      <trkpt lat="44.47403" lon="1.65624">
        <ele>130</ele>
        <time>2021-08-31T12:12:04Z</time>
      </trkpt>
      <trkpt lat="44.47403" lon="1.65635">
        <ele>139</ele>
        <time>2021-08-31T12:12:05Z</time>
      </trkpt>
      <trkpt lat="44.47408" lon="1.65646">
        <ele>139</ele>
        <time>2021-08-31T12:12:06Z</time>
      </trkpt>
      <trkpt lat="44.47397" lon="1.65657">
        <ele>148</ele>
        <time>2021-08-31T12:12:08Z</time>
      </trkpt>
      <trkpt lat="44.47393" lon="1.6567">
        <ele>148</ele>
        <time>2021-08-31T12:12:10Z</time>
      </trkpt>
      <trkpt lat="44.47389" lon="1.65675">
        <ele>150</ele>
        <time>2021-08-31T12:12:11Z</time>
      </trkpt>
      <trkpt lat="44.47383" lon="1.65688">
        <ele>153</ele>
        <time>2021-08-31T12:12:13Z</time>
      </trkpt>
      <trkpt lat="44.47368" lon="1.65913">
        <ele>140</ele>
        <time>2021-08-31T12:12:44Z</time>
      </trkpt>
      <trkpt lat="44.47342" lon="1.6599">
        <ele>148</ele>
        <time>2021-08-31T12:12:56Z</time>
      </trkpt>
      <trkpt lat="44.473" lon="1.6602">
        <ele>150</ele>
        <time>2021-08-31T12:13:07Z</time>
      </trkpt>
      <trkpt lat="44.47296" lon="1.6609">
        <ele>145</ele>
        <time>2021-08-31T12:13:13Z</time>
      </trkpt>
      <trkpt lat="44.47311" lon="1.6613">
        <ele>138</ele>
        <time>2021-08-31T12:13:18Z</time>
      </trkpt>
      <trkpt lat="44.47309" lon="1.66177">
        <ele>155</ele>
        <time>2021-08-31T12:13:23Z</time>
      </trkpt>
      <trkpt lat="44.47301" lon="1.66288">
        <ele>143</ele>
        <time>2021-08-31T12:13:39Z</time>
      </trkpt>
      <trkpt lat="44.47247" lon="1.66446">
        <ele>144</ele>
        <time>2021-08-31T12:14:04Z</time>
      </trkpt>
      <trkpt lat="44.47244" lon="1.66452">
        <ele>144</ele>
        <time>2021-08-31T12:14:05Z</time>
      </trkpt>
      <trkpt lat="44.47226" lon="1.66487">
        <ele>133</ele>
        <time>2021-08-31T12:14:11Z</time>
      </trkpt>
      <trkpt lat="44.47182" lon="1.66534">
        <ele>130</ele>
        <time>2021-08-31T12:14:22Z</time>
      </trkpt>
      <trkpt lat="44.47133" lon="1.66566">
        <ele>131</ele>
        <time>2021-08-31T12:14:33Z</time>
      </trkpt>
      <trkpt lat="44.47124" lon="1.66573">
        <ele>132</ele>
        <time>2021-08-31T12:14:35Z</time>
      </trkpt>
      <trkpt lat="44.46982" lon="1.66669">
        <ele>133</ele>
        <time>2021-08-31T12:15:05Z</time>
      </trkpt>
      <trkpt lat="44.46865" lon="1.66759">
        <ele>136</ele>
        <time>2021-08-31T12:15:31Z</time>
      </trkpt>
      <trkpt lat="44.4683" lon="1.66804">
        <ele>137</ele>
        <time>2021-08-31T12:15:42Z</time>
      </trkpt>
      <trkpt lat="44.46794" lon="1.66871">
        <ele>137</ele>
        <time>2021-08-31T12:15:55Z</time>
      </trkpt>
      <trkpt lat="44.4678" lon="1.66907">
        <ele>138</ele>
        <time>2021-08-31T12:16:01Z</time>
      </trkpt>
      <trkpt lat="44.46765" lon="1.66994">
        <ele>134</ele>
        <time>2021-08-31T12:16:14Z</time>
      </trkpt>
      <trkpt lat="44.46766" lon="1.67046">
        <ele>135</ele>
        <time>2021-08-31T12:16:27Z</time>
      </trkpt>
      <trkpt lat="44.46769" lon="1.67057">
        <ele>136</ele>
        <time>2021-08-31T12:16:29Z</time>
      </trkpt>
      <trkpt lat="44.4677" lon="1.67068">
        <ele>136</ele>
        <time>2021-08-31T12:16:31Z</time>
      </trkpt>
      <trkpt lat="44.46784" lon="1.67165">
        <ele>135</ele>
        <time>2021-08-31T12:16:49Z</time>
      </trkpt>
      <trkpt lat="44.46787" lon="1.67176">
        <ele>135</ele>
        <time>2021-08-31T12:16:51Z</time>
      </trkpt>
      <trkpt lat="44.4679" lon="1.67199">
        <ele>135</ele>
        <time>2021-08-31T12:16:55Z</time>
      </trkpt>
      <trkpt lat="44.46835" lon="1.67371">
        <ele>137</ele>
        <time>2021-08-31T12:17:26Z</time>
      </trkpt>
      <trkpt lat="44.46842" lon="1.67393">
        <ele>138</ele>
        <time>2021-08-31T12:17:30Z</time>
      </trkpt>
      <trkpt lat="44.46863" lon="1.67431">
        <ele>139</ele>
        <time>2021-08-31T12:17:38Z</time>
      </trkpt>
      <trkpt lat="44.4689" lon="1.6746">
        <ele>140</ele>
        <time>2021-08-31T12:17:46Z</time>
      </trkpt>
      <trkpt lat="44.46897" lon="1.67463">
        <ele>140</ele>
        <time>2021-08-31T12:17:49Z</time>
      </trkpt>
      <trkpt lat="44.46965" lon="1.67489">
        <ele>139</ele>
        <time>2021-08-31T12:18:02Z</time>
      </trkpt>
      <trkpt lat="44.46977" lon="1.67498">
        <ele>137</ele>
        <time>2021-08-31T12:18:05Z</time>
      </trkpt>
      <trkpt lat="44.47007" lon="1.67535">
        <ele>139</ele>
        <time>2021-08-31T12:18:13Z</time>
      </trkpt>
      <trkpt lat="44.47021" lon="1.6756">
        <ele>141</ele>
        <time>2021-08-31T12:18:18Z</time>
      </trkpt>
      <trkpt lat="44.4703" lon="1.67567">
        <ele>141</ele>
        <time>2021-08-31T12:18:20Z</time>
      </trkpt>
      <trkpt lat="44.47046" lon="1.67579">
        <ele>143</ele>
        <time>2021-08-31T12:18:24Z</time>
      </trkpt>
      <trkpt lat="44.47051" lon="1.67583">
        <ele>141</ele>
        <time>2021-08-31T12:18:25Z</time>
      </trkpt>
      <trkpt lat="44.47066" lon="1.67621">
        <ele>137</ele>
        <time>2021-08-31T12:18:32Z</time>
      </trkpt>
      <trkpt lat="44.47127" lon="1.67742">
        <ele>133</ele>
        <time>2021-08-31T12:18:57Z</time>
      </trkpt>
      <trkpt lat="44.47131" lon="1.67755">
        <ele>133</ele>
        <time>2021-08-31T12:18:59Z</time>
      </trkpt>
      <trkpt lat="44.4714" lon="1.67824">
        <ele>131</ele>
        <time>2021-08-31T12:19:10Z</time>
      </trkpt>
      <trkpt lat="44.47204" lon="1.68013">
        <ele>131</ele>
        <time>2021-08-31T12:19:41Z</time>
      </trkpt>
      <trkpt lat="44.47217" lon="1.68145">
        <ele>131</ele>
        <time>2021-08-31T12:20:01Z</time>
      </trkpt>
      <trkpt lat="44.47229" lon="1.68359">
        <ele>133</ele>
        <time>2021-08-31T12:20:32Z</time>
      </trkpt>
      <trkpt lat="44.47229" lon="1.68381">
        <ele>132</ele>
        <time>2021-08-31T12:20:35Z</time>
      </trkpt>
      <trkpt lat="44.4722" lon="1.68422">
        <ele>132</ele>
        <time>2021-08-31T12:20:41Z</time>
      </trkpt>
      <trkpt lat="44.47174" lon="1.68504">
        <ele>132</ele>
        <time>2021-08-31T12:20:55Z</time>
      </trkpt>
      <trkpt lat="44.47098" lon="1.68617">
        <ele>137</ele>
        <time>2021-08-31T12:21:18Z</time>
      </trkpt>
      <trkpt lat="44.47086" lon="1.68638">
        <ele>136</ele>
        <time>2021-08-31T12:21:22Z</time>
      </trkpt>
      <trkpt lat="44.47078" lon="1.68648">
        <ele>137</ele>
        <time>2021-08-31T12:21:24Z</time>
      </trkpt>
      <trkpt lat="44.47074" lon="1.68651">
        <ele>137</ele>
        <time>2021-08-31T12:21:25Z</time>
      </trkpt>
      <trkpt lat="44.4707" lon="1.68652">
        <ele>138</ele>
        <time>2021-08-31T12:21:26Z</time>
      </trkpt>
      <trkpt lat="44.47065" lon="1.68651">
        <ele>138</ele>
        <time>2021-08-31T12:21:27Z</time>
      </trkpt>
      <trkpt lat="44.4706" lon="1.68647">
        <ele>138</ele>
        <time>2021-08-31T12:21:28Z</time>
      </trkpt>
      <trkpt lat="44.4704" lon="1.68598">
        <ele>139</ele>
        <time>2021-08-31T12:21:35Z</time>
      </trkpt>
      <trkpt lat="44.46983" lon="1.68402">
        <ele>144</ele>
        <time>2021-08-31T12:22:06Z</time>
      </trkpt>
      <trkpt lat="44.4693" lon="1.68215">
        <ele>147</ele>
        <time>2021-08-31T12:22:37Z</time>
      </trkpt>
      <trkpt lat="44.46912" lon="1.68161">
        <ele>149</ele>
        <time>2021-08-31T12:22:45Z</time>
      </trkpt>
      <trkpt lat="44.46913" lon="1.68151">
        <ele>148</ele>
        <time>2021-08-31T12:22:47Z</time>
      </trkpt>
      <trkpt lat="44.46915" lon="1.68143">
        <ele>148</ele>
        <time>2021-08-31T12:22:49Z</time>
      </trkpt>
      <trkpt lat="44.46914" lon="1.68136">
        <ele>147</ele>
        <time>2021-08-31T12:22:51Z</time>
      </trkpt>
      <trkpt lat="44.46911" lon="1.68132">
        <ele>146</ele>
        <time>2021-08-31T12:22:54Z</time>
      </trkpt>
      <trkpt lat="44.46909" lon="1.68125">
        <ele>145</ele>
        <time>2021-08-31T12:22:57Z</time>
      </trkpt>
      <trkpt lat="44.46905" lon="1.68119">
        <ele>145</ele>
        <time>2021-08-31T12:23:00Z</time>
      </trkpt>
      <trkpt lat="44.46902" lon="1.68115">
        <ele>144</ele>
        <time>2021-08-31T12:23:02Z</time>
      </trkpt>
      <trkpt lat="44.46899" lon="1.68105">
        <ele>143</ele>
        <time>2021-08-31T12:23:05Z</time>
      </trkpt>
      <trkpt lat="44.46868" lon="1.68062">
        <ele>144</ele>
        <time>2021-08-31T12:23:19Z</time>
      </trkpt>
      <trkpt lat="44.4685" lon="1.68034">
        <ele>147</ele>
        <time>2021-08-31T12:23:27Z</time>
      </trkpt>
      <trkpt lat="44.46841" lon="1.68023">
        <ele>148</ele>
        <time>2021-08-31T12:23:31Z</time>
      </trkpt>
      <trkpt lat="44.46837" lon="1.68018">
        <ele>148</ele>
        <time>2021-08-31T12:23:33Z</time>
      </trkpt>
      <trkpt lat="44.4683" lon="1.68007">
        <ele>148</ele>
        <time>2021-08-31T12:23:37Z</time>
      </trkpt>
      <trkpt lat="44.46827" lon="1.68002">
        <ele>148</ele>
        <time>2021-08-31T12:23:39Z</time>
      </trkpt>
      <trkpt lat="44.46806" lon="1.67969">
        <ele>147</ele>
        <time>2021-08-31T12:23:51Z</time>
      </trkpt>
      <trkpt lat="44.46803" lon="1.67964">
        <ele>147</ele>
        <time>2021-08-31T12:23:53Z</time>
      </trkpt>
      <trkpt lat="44.46799" lon="1.67959">
        <ele>147</ele>
        <time>2021-08-31T12:23:55Z</time>
      </trkpt>
      <trkpt lat="44.4677" lon="1.67918">
        <ele>149</ele>
        <time>2021-08-31T12:24:11Z</time>
      </trkpt>
      <trkpt lat="44.46755" lon="1.67909">
        <ele>150</ele>
        <time>2021-08-31T12:24:17Z</time>
      </trkpt>
      <trkpt lat="44.46749" lon="1.67908">
        <ele>151</ele>
        <time>2021-08-31T12:24:19Z</time>
      </trkpt>
      <trkpt lat="44.46738" lon="1.67912">
        <ele>152</ele>
        <time>2021-08-31T12:24:23Z</time>
      </trkpt>
      <trkpt lat="44.46722" lon="1.67919">
        <ele>153</ele>
        <time>2021-08-31T12:24:29Z</time>
      </trkpt>
      <trkpt lat="44.46707" lon="1.67919">
        <ele>154</ele>
        <time>2021-08-31T12:24:35Z</time>
      </trkpt>
      <trkpt lat="44.46696" lon="1.67918">
        <ele>155</ele>
        <time>2021-08-31T12:24:39Z</time>
      </trkpt>
      <trkpt lat="44.4667" lon="1.67899">
        <ele>157</ele>
        <time>2021-08-31T12:24:51Z</time>
      </trkpt>
      <trkpt lat="44.46637" lon="1.67869">
        <ele>156</ele>
        <time>2021-08-31T12:25:08Z</time>
      </trkpt>
      <trkpt lat="44.46591" lon="1.67825">
        <ele>147</ele>
        <time>2021-08-31T12:25:30Z</time>
      </trkpt>
      <trkpt lat="44.46585" lon="1.67812">
        <ele>146</ele>
        <time>2021-08-31T12:25:35Z</time>
      </trkpt>
      <trkpt lat="44.46582" lon="1.67794">
        <ele>148</ele>
        <time>2021-08-31T12:25:41Z</time>
      </trkpt>
      <trkpt lat="44.4658" lon="1.67753">
        <ele>153</ele>
        <time>2021-08-31T12:25:54Z</time>
      </trkpt>
      <trkpt lat="44.4658" lon="1.67732">
        <ele>155</ele>
        <time>2021-08-31T12:26:00Z</time>
      </trkpt>
      <trkpt lat="44.46578" lon="1.67708">
        <ele>155</ele>
        <time>2021-08-31T12:26:08Z</time>
      </trkpt>
      <trkpt lat="44.4657" lon="1.67677">
        <ele>157</ele>
        <time>2021-08-31T12:26:18Z</time>
      </trkpt>
      <trkpt lat="44.46567" lon="1.67671">
        <ele>157</ele>
        <time>2021-08-31T12:26:20Z</time>
      </trkpt>
      <trkpt lat="44.46547" lon="1.67619">
        <ele>157</ele>
        <time>2021-08-31T12:26:37Z</time>
      </trkpt>
      <trkpt lat="44.46547" lon="1.67613">
        <ele>157</ele>
        <time>2021-08-31T12:26:39Z</time>
      </trkpt>
      <trkpt lat="44.46546" lon="1.67606">
        <ele>159</ele>
        <time>2021-08-31T12:26:41Z</time>
      </trkpt>
      <trkpt lat="44.46519" lon="1.6751">
        <ele>168</ele>
        <time>2021-08-31T12:27:12Z</time>
      </trkpt>
      <trkpt lat="44.46505" lon="1.67404">
        <ele>175</ele>
        <time>2021-08-31T12:27:43Z</time>
      </trkpt>
      <trkpt lat="44.46501" lon="1.67368">
        <ele>179</ele>
        <time>2021-08-31T12:27:54Z</time>
      </trkpt>
      <trkpt lat="44.465" lon="1.67346">
        <ele>181</ele>
        <time>2021-08-31T12:28:01Z</time>
      </trkpt>
      <trkpt lat="44.465" lon="1.67339">
        <ele>182</ele>
        <time>2021-08-31T12:28:03Z</time>
      </trkpt>
      <trkpt lat="44.46499" lon="1.67333">
        <ele>182</ele>
        <time>2021-08-31T12:28:05Z</time>
      </trkpt>
      <trkpt lat="44.46496" lon="1.67327">
        <ele>183</ele>
        <time>2021-08-31T12:28:07Z</time>
      </trkpt>
      <trkpt lat="44.46492" lon="1.67323">
        <ele>183</ele>
        <time>2021-08-31T12:28:10Z</time>
      </trkpt>
      <trkpt lat="44.46468" lon="1.67307">
        <ele>186</ele>
        <time>2021-08-31T12:28:23Z</time>
      </trkpt>
      <trkpt lat="44.4643" lon="1.67286">
        <ele>189</ele>
        <time>2021-08-31T12:28:41Z</time>
      </trkpt>
      <trkpt lat="44.46425" lon="1.67283">
        <ele>189</ele>
        <time>2021-08-31T12:28:43Z</time>
      </trkpt>
      <trkpt lat="44.46422" lon="1.6728">
        <ele>189</ele>
        <time>2021-08-31T12:28:45Z</time>
      </trkpt>
      <trkpt lat="44.46408" lon="1.67265">
        <ele>189</ele>
        <time>2021-08-31T12:28:53Z</time>
      </trkpt>
      <trkpt lat="44.46405" lon="1.67259">
        <ele>190</ele>
        <time>2021-08-31T12:28:56Z</time>
      </trkpt>
      <trkpt lat="44.46397" lon="1.67244">
        <ele>190</ele>
        <time>2021-08-31T12:29:02Z</time>
      </trkpt>
      <trkpt lat="44.46395" lon="1.67239">
        <ele>190</ele>
        <time>2021-08-31T12:29:04Z</time>
      </trkpt>
      <trkpt lat="44.4639" lon="1.67198">
        <ele>193</ele>
        <time>2021-08-31T12:29:19Z</time>
      </trkpt>
      <trkpt lat="44.4637" lon="1.67138">
        <ele>202</ele>
        <time>2021-08-31T12:29:43Z</time>
      </trkpt>
      <trkpt lat="44.46368" lon="1.6712">
        <ele>203</ele>
        <time>2021-08-31T12:29:49Z</time>
      </trkpt>
      <trkpt lat="44.46368" lon="1.67111">
        <ele>204</ele>
        <time>2021-08-31T12:29:52Z</time>
      </trkpt>
      <trkpt lat="44.46377" lon="1.67083">
        <ele>206</ele>
        <time>2021-08-31T12:30:02Z</time>
      </trkpt>
      <trkpt lat="44.46381" lon="1.67076">
        <ele>207</ele>
        <time>2021-08-31T12:30:05Z</time>
      </trkpt>
      <trkpt lat="44.46401" lon="1.67014">
        <ele>211</ele>
        <time>2021-08-31T12:30:29Z</time>
      </trkpt>
      <trkpt lat="44.46405" lon="1.66975">
        <ele>214</ele>
        <time>2021-08-31T12:30:43Z</time>
      </trkpt>
      <trkpt lat="44.46405" lon="1.66968">
        <ele>214</ele>
        <time>2021-08-31T12:30:45Z</time>
      </trkpt>
      <trkpt lat="44.46405" lon="1.6696">
        <ele>215</ele>
        <time>2021-08-31T12:30:48Z</time>
      </trkpt>
      <trkpt lat="44.46406" lon="1.66951">
        <ele>215</ele>
        <time>2021-08-31T12:30:51Z</time>
      </trkpt>
      <trkpt lat="44.46406" lon="1.66935">
        <ele>215</ele>
        <time>2021-08-31T12:30:57Z</time>
      </trkpt>
      <trkpt lat="44.46407" lon="1.66927">
        <ele>215</ele>
        <time>2021-08-31T12:31:00Z</time>
      </trkpt>
      <trkpt lat="44.46406" lon="1.66857">
        <ele>218</ele>
        <time>2021-08-31T12:31:23Z</time>
      </trkpt>
      <trkpt lat="44.46393" lon="1.66825">
        <ele>219</ele>
        <time>2021-08-31T12:31:38Z</time>
      </trkpt>
      <trkpt lat="44.46394" lon="1.66803">
        <ele>218</ele>
        <time>2021-08-31T12:31:48Z</time>
      </trkpt>
      <trkpt lat="44.46396" lon="1.66796">
        <ele>218</ele>
        <time>2021-08-31T12:31:50Z</time>
      </trkpt>
      <trkpt lat="44.46399" lon="1.66788">
        <ele>219</ele>
        <time>2021-08-31T12:31:52Z</time>
      </trkpt>
      <trkpt lat="44.46407" lon="1.66776">
        <ele>220</ele>
        <time>2021-08-31T12:31:56Z</time>
      </trkpt>
      <trkpt lat="44.46417" lon="1.6677">
        <ele>223</ele>
        <time>2021-08-31T12:32:03Z</time>
      </trkpt>
      <trkpt lat="44.46422" lon="1.66772">
        <ele>226</ele>
        <time>2021-08-31T12:32:07Z</time>
      </trkpt>
      <trkpt lat="44.46426" lon="1.66768">
        <ele>227</ele>
        <time>2021-08-31T12:32:19Z</time>
      </trkpt>
      <trkpt lat="44.46431" lon="1.66769">
        <ele>229</ele>
        <time>2021-08-31T12:32:23Z</time>
      </trkpt>
      <trkpt lat="44.46436" lon="1.66771">
        <ele>230</ele>
        <time>2021-08-31T12:32:26Z</time>
      </trkpt>
      <trkpt lat="44.4644" lon="1.66771">
        <ele>232</ele>
        <time>2021-08-31T12:32:30Z</time>
      </trkpt>
      <trkpt lat="44.46437" lon="1.66765">
        <ele>233</ele>
        <time>2021-08-31T12:32:56Z</time>
      </trkpt>
      <trkpt lat="44.46432" lon="1.66766">
        <ele>233</ele>
        <time>2021-08-31T12:32:58Z</time>
      </trkpt>
      <trkpt lat="44.46427" lon="1.66765">
        <ele>233</ele>
        <time>2021-08-31T12:33:01Z</time>
      </trkpt>
      <trkpt lat="44.46422" lon="1.66765">
        <ele>232</ele>
        <time>2021-08-31T12:33:07Z</time>
      </trkpt>
      <trkpt lat="44.46424" lon="1.66772">
        <ele>232</ele>
        <time>2021-08-31T12:33:24Z</time>
      </trkpt>
      <trkpt lat="44.46428" lon="1.66775">
        <ele>232</ele>
        <time>2021-08-31T12:33:27Z</time>
      </trkpt>
      <trkpt lat="44.46433" lon="1.66774">
        <ele>232</ele>
        <time>2021-08-31T12:33:30Z</time>
      </trkpt>
      <trkpt lat="44.46437" lon="1.6677">
        <ele>232</ele>
        <time>2021-08-31T12:33:33Z</time>
      </trkpt>
      <trkpt lat="44.46437" lon="1.66763">
        <ele>232</ele>
        <time>2021-08-31T12:33:35Z</time>
      </trkpt>
      <trkpt lat="44.46433" lon="1.66758">
        <ele>232</ele>
        <time>2021-08-31T12:33:39Z</time>
      </trkpt>
      <trkpt lat="44.46436" lon="1.66761">
        <ele>234</ele>
        <time>2021-08-31T12:35:48Z</time>
      </trkpt>
      <trkpt lat="44.46437" lon="1.66761">
        <ele>238</ele>
        <time>2021-08-31T12:42:09Z</time>
      </trkpt>
      <trkpt lat="44.46432" lon="1.66762">
        <ele>237</ele>
        <time>2021-08-31T12:42:14Z</time>
      </trkpt>
      <trkpt lat="44.46433" lon="1.66763">
        <ele>237</ele>
        <time>2021-08-31T12:46:06Z</time>
      </trkpt>
      <trkpt lat="44.46433" lon="1.66768">
        <ele>233</ele>
        <time>2021-08-31T12:48:00Z</time>
      </trkpt>
      <trkpt lat="44.46428" lon="1.66766">
        <ele>233</ele>
        <time>2021-08-31T12:48:07Z</time>
      </trkpt>
      <trkpt lat="44.46422" lon="1.66768">
        <ele>234</ele>
        <time>2021-08-31T12:48:12Z</time>
      </trkpt>
      <trkpt lat="44.46431" lon="1.66776">
        <ele>234</ele>
        <time>2021-08-31T12:48:37Z</time>
      </trkpt>
      <trkpt lat="44.46432" lon="1.6679">
        <ele>228</ele>
        <time>2021-08-31T12:49:29Z</time>
      </trkpt>
      <trkpt lat="44.46433" lon="1.66796">
        <ele>226</ele>
        <time>2021-08-31T12:49:41Z</time>
      </trkpt>
      <trkpt lat="44.4644" lon="1.66802">
        <ele>225</ele>
        <time>2021-08-31T12:51:09Z</time>
      </trkpt>
      <trkpt lat="44.46436" lon="1.66797">
        <ele>224</ele>
        <time>2021-08-31T12:52:40Z</time>
      </trkpt>
      <trkpt lat="44.46431" lon="1.66802">
        <ele>226</ele>
        <time>2021-08-31T12:52:52Z</time>
      </trkpt>
      <trkpt lat="44.46432" lon="1.66809">
        <ele>222</ele>
        <time>2021-08-31T12:54:46Z</time>
      </trkpt>
      <trkpt lat="44.46436" lon="1.66813">
        <ele>222</ele>
        <time>2021-08-31T12:55:01Z</time>
      </trkpt>
      <trkpt lat="44.46439" lon="1.66817">
        <ele>221</ele>
        <time>2021-08-31T12:55:06Z</time>
      </trkpt>
      <trkpt lat="44.46444" lon="1.6682">
        <ele>220</ele>
        <time>2021-08-31T12:55:10Z</time>
      </trkpt>
      <trkpt lat="44.46448" lon="1.66824">
        <ele>222</ele>
        <time>2021-08-31T12:55:35Z</time>
      </trkpt>
      <trkpt lat="44.46451" lon="1.66829">
        <ele>223</ele>
        <time>2021-08-31T12:55:53Z</time>
      </trkpt>
      <trkpt lat="44.46435" lon="1.6678">
        <ele>224</ele>
        <time>2021-08-31T13:49:10Z</time>
      </trkpt>
      <trkpt lat="44.46435" lon="1.6678">
        <ele>224</ele>
        <time>2021-08-31T13:49:11Z</time>
      </trkpt>
      <trkpt lat="44.46438" lon="1.66772">
        <ele>224</ele>
        <time>2021-08-31T13:49:43Z</time>
      </trkpt>
      <trkpt lat="44.46437" lon="1.66765">
        <ele>222</ele>
        <time>2021-08-31T13:49:48Z</time>
      </trkpt>
      <trkpt lat="44.46436" lon="1.66765">
        <ele>224</ele>
        <time>2021-08-31T13:58:02Z</time>
      </trkpt>
      <trkpt lat="44.46429" lon="1.66767">
        <ele>224</ele>
        <time>2021-08-31T13:58:20Z</time>
      </trkpt>
      <trkpt lat="44.46411" lon="1.6677">
        <ele>229</ele>
        <time>2021-08-31T13:58:27Z</time>
      </trkpt>
      <trkpt lat="44.46406" lon="1.66773">
        <ele>229</ele>
        <time>2021-08-31T13:58:29Z</time>
      </trkpt>
      <trkpt lat="44.46399" lon="1.66776">
        <ele>229</ele>
        <time>2021-08-31T13:58:31Z</time>
      </trkpt>
      <trkpt lat="44.46393" lon="1.66782">
        <ele>229</ele>
        <time>2021-08-31T13:58:33Z</time>
      </trkpt>
      <trkpt lat="44.46389" lon="1.668">
        <ele>228</ele>
        <time>2021-08-31T13:58:37Z</time>
      </trkpt>
      <trkpt lat="44.46389" lon="1.66807">
        <ele>227</ele>
        <time>2021-08-31T13:58:39Z</time>
      </trkpt>
      <trkpt lat="44.46395" lon="1.66834">
        <ele>224</ele>
        <time>2021-08-31T13:58:50Z</time>
      </trkpt>
      <trkpt lat="44.46397" lon="1.66828">
        <ele>227</ele>
        <time>2021-08-31T13:59:01Z</time>
      </trkpt>
      <trkpt lat="44.46395" lon="1.66821">
        <ele>229</ele>
        <time>2021-08-31T13:59:08Z</time>
      </trkpt>
      <trkpt lat="44.46396" lon="1.66814">
        <ele>230</ele>
        <time>2021-08-31T13:59:11Z</time>
      </trkpt>
      <trkpt lat="44.464" lon="1.66811">
        <ele>233</ele>
        <time>2021-08-31T13:59:49Z</time>
      </trkpt>
      <trkpt lat="44.464" lon="1.66823">
        <ele>233</ele>
        <time>2021-08-31T14:01:11Z</time>
      </trkpt>
      <trkpt lat="44.46398" lon="1.66817">
        <ele>232</ele>
        <time>2021-08-31T14:02:01Z</time>
      </trkpt>
      <trkpt lat="44.46394" lon="1.66812">
        <ele>232</ele>
        <time>2021-08-31T14:02:04Z</time>
      </trkpt>
      <trkpt lat="44.46396" lon="1.66828">
        <ele>230</ele>
        <time>2021-08-31T14:02:40Z</time>
      </trkpt>
      <trkpt lat="44.46403" lon="1.66843">
        <ele>230</ele>
        <time>2021-08-31T14:02:43Z</time>
      </trkpt>
      <trkpt lat="44.4641" lon="1.66858">
        <ele>230</ele>
        <time>2021-08-31T14:02:46Z</time>
      </trkpt>
      <trkpt lat="44.46408" lon="1.67006">
        <ele>222</ele>
        <time>2021-08-31T14:03:15Z</time>
      </trkpt>
      <trkpt lat="44.46395" lon="1.67047">
        <ele>220</ele>
        <time>2021-08-31T14:03:24Z</time>
      </trkpt>
      <trkpt lat="44.46391" lon="1.67057">
        <ele>218</ele>
        <time>2021-08-31T14:03:29Z</time>
      </trkpt>
      <trkpt lat="44.46388" lon="1.67064">
        <ele>217</ele>
        <time>2021-08-31T14:08:11Z</time>
      </trkpt>
      <trkpt lat="44.46366" lon="1.67106">
        <ele>214</ele>
        <time>2021-08-31T14:08:23Z</time>
      </trkpt>
      <trkpt lat="44.46361" lon="1.67121">
        <ele>212</ele>
        <time>2021-08-31T14:08:29Z</time>
      </trkpt>
      <trkpt lat="44.46362" lon="1.67128">
        <ele>211</ele>
        <time>2021-08-31T14:08:41Z</time>
      </trkpt>
      <trkpt lat="44.46368" lon="1.67126">
        <ele>210</ele>
        <time>2021-08-31T14:08:44Z</time>
      </trkpt>
      <trkpt lat="44.46364" lon="1.67124">
        <ele>210</ele>
        <time>2021-08-31T14:09:13Z</time>
      </trkpt>
      <trkpt lat="44.46361" lon="1.67128">
        <ele>210</ele>
        <time>2021-08-31T14:09:17Z</time>
      </trkpt>
      <trkpt lat="44.46366" lon="1.67132">
        <ele>210</ele>
        <time>2021-08-31T14:09:29Z</time>
      </trkpt>
      <trkpt lat="44.4637" lon="1.67147">
        <ele>208</ele>
        <time>2021-08-31T14:09:33Z</time>
      </trkpt>
      <trkpt lat="44.46375" lon="1.67157">
        <ele>207</ele>
        <time>2021-08-31T14:09:35Z</time>
      </trkpt>
      <trkpt lat="44.4638" lon="1.67169">
        <ele>206</ele>
        <time>2021-08-31T14:09:37Z</time>
      </trkpt>
      <trkpt lat="44.4639" lon="1.67187">
        <ele>204</ele>
        <time>2021-08-31T14:09:40Z</time>
      </trkpt>
      <trkpt lat="44.46394" lon="1.67201">
        <ele>204</ele>
        <time>2021-08-31T14:09:42Z</time>
      </trkpt>
      <trkpt lat="44.46393" lon="1.67217">
        <ele>203</ele>
        <time>2021-08-31T14:09:44Z</time>
      </trkpt>
      <trkpt lat="44.46395" lon="1.67232">
        <ele>202</ele>
        <time>2021-08-31T14:09:46Z</time>
      </trkpt>
      <trkpt lat="44.46405" lon="1.67253">
        <ele>200</ele>
        <time>2021-08-31T14:09:49Z</time>
      </trkpt>
      <trkpt lat="44.46424" lon="1.67271">
        <ele>197</ele>
        <time>2021-08-31T14:09:53Z</time>
      </trkpt>
      <trkpt lat="44.4644" lon="1.67281">
        <ele>194</ele>
        <time>2021-08-31T14:09:59Z</time>
      </trkpt>
      <trkpt lat="44.46449" lon="1.67284">
        <ele>191</ele>
        <time>2021-08-31T14:10:01Z</time>
      </trkpt>
      <trkpt lat="44.46474" lon="1.673">
        <ele>187</ele>
        <time>2021-08-31T14:10:07Z</time>
      </trkpt>
      <trkpt lat="44.46479" lon="1.67306">
        <ele>186</ele>
        <time>2021-08-31T14:10:09Z</time>
      </trkpt>
      <trkpt lat="44.46486" lon="1.67318">
        <ele>185</ele>
        <time>2021-08-31T14:12:31Z</time>
      </trkpt>
      <trkpt lat="44.46492" lon="1.67328">
        <ele>184</ele>
        <time>2021-08-31T14:12:36Z</time>
      </trkpt>
      <trkpt lat="44.46493" lon="1.67334">
        <ele>182</ele>
        <time>2021-08-31T14:12:49Z</time>
      </trkpt>
      <trkpt lat="44.46491" lon="1.67362">
        <ele>181</ele>
        <time>2021-08-31T14:12:55Z</time>
      </trkpt>
      <trkpt lat="44.46514" lon="1.67566">
        <ele>166</ele>
        <time>2021-08-31T14:13:19Z</time>
      </trkpt>
      <trkpt lat="44.46557" lon="1.67696">
        <ele>157</ele>
        <time>2021-08-31T14:13:33Z</time>
      </trkpt>
      <trkpt lat="44.46561" lon="1.67739">
        <ele>154</ele>
        <time>2021-08-31T14:13:37Z</time>
      </trkpt>
      <trkpt lat="44.4656" lon="1.67798">
        <ele>152</ele>
        <time>2021-08-31T14:13:43Z</time>
      </trkpt>
      <trkpt lat="44.46563" lon="1.67814">
        <ele>150</ele>
        <time>2021-08-31T14:13:45Z</time>
      </trkpt>
      <trkpt lat="44.46578" lon="1.6783">
        <ele>147</ele>
        <time>2021-08-31T14:13:48Z</time>
      </trkpt>
      <trkpt lat="44.46675" lon="1.67918">
        <ele>136</ele>
        <time>2021-08-31T14:14:03Z</time>
      </trkpt>
      <trkpt lat="44.46694" lon="1.67924">
        <ele>136</ele>
        <time>2021-08-31T14:14:05Z</time>
      </trkpt>
      <trkpt lat="44.46711" lon="1.67922">
        <ele>137</ele>
        <time>2021-08-31T14:14:07Z</time>
      </trkpt>
      <trkpt lat="44.46734" lon="1.67912">
        <ele>136</ele>
        <time>2021-08-31T14:14:10Z</time>
      </trkpt>
      <trkpt lat="44.46749" lon="1.67914">
        <ele>136</ele>
        <time>2021-08-31T14:14:12Z</time>
      </trkpt>
      <trkpt lat="44.46761" lon="1.67924">
        <ele>136</ele>
        <time>2021-08-31T14:14:14Z</time>
      </trkpt>
      <trkpt lat="44.46885" lon="1.68101">
        <ele>127</ele>
        <time>2021-08-31T14:14:40Z</time>
      </trkpt>
      <trkpt lat="44.46918" lon="1.68205">
        <ele>128</ele>
        <time>2021-08-31T14:14:54Z</time>
      </trkpt>
      <trkpt lat="44.46918" lon="1.68215">
        <ele>128</ele>
        <time>2021-08-31T14:14:56Z</time>
      </trkpt>
      <trkpt lat="44.4691" lon="1.68231">
        <ele>128</ele>
        <time>2021-08-31T14:14:59Z</time>
      </trkpt>
      <trkpt lat="44.46898" lon="1.68241">
        <ele>128</ele>
        <time>2021-08-31T14:15:02Z</time>
      </trkpt>
      <trkpt lat="44.46891" lon="1.68251">
        <ele>129</ele>
        <time>2021-08-31T14:15:04Z</time>
      </trkpt>
      <trkpt lat="44.4688" lon="1.68262">
        <ele>130</ele>
        <time>2021-08-31T14:15:07Z</time>
      </trkpt>
      <trkpt lat="44.46836" lon="1.68279">
        <ele>131</ele>
        <time>2021-08-31T14:15:17Z</time>
      </trkpt>
      <trkpt lat="44.46753" lon="1.68311">
        <ele>140</ele>
        <time>2021-08-31T14:15:40Z</time>
      </trkpt>
      <trkpt lat="44.4672" lon="1.68324">
        <ele>139</ele>
        <time>2021-08-31T14:15:48Z</time>
      </trkpt>
      <trkpt lat="44.46589" lon="1.68371">
        <ele>134</ele>
        <time>2021-08-31T14:16:19Z</time>
      </trkpt>
      <trkpt lat="44.46517" lon="1.68402">
        <ele>135</ele>
        <time>2021-08-31T14:16:36Z</time>
      </trkpt>
      <trkpt lat="44.46478" lon="1.68427">
        <ele>136</ele>
        <time>2021-08-31T14:16:47Z</time>
      </trkpt>
      <trkpt lat="44.46435" lon="1.68441">
        <ele>133</ele>
        <time>2021-08-31T14:17:01Z</time>
      </trkpt>
      <trkpt lat="44.46429" lon="1.68443">
        <ele>132</ele>
        <time>2021-08-31T14:17:03Z</time>
      </trkpt>
      <trkpt lat="44.46396" lon="1.68463">
        <ele>131</ele>
        <time>2021-08-31T14:17:13Z</time>
      </trkpt>
      <trkpt lat="44.46391" lon="1.68467">
        <ele>132</ele>
        <time>2021-08-31T14:17:15Z</time>
      </trkpt>
      <trkpt lat="44.46387" lon="1.68472">
        <ele>132</ele>
        <time>2021-08-31T14:17:17Z</time>
      </trkpt>
      <trkpt lat="44.46382" lon="1.68476">
        <ele>134</ele>
        <time>2021-08-31T14:17:20Z</time>
      </trkpt>
      <trkpt lat="44.46377" lon="1.68479">
        <ele>136</ele>
        <time>2021-08-31T14:18:58Z</time>
      </trkpt>
      <trkpt lat="44.46277" lon="1.68558">
        <ele>132</ele>
        <time>2021-08-31T14:19:29Z</time>
      </trkpt>
      <trkpt lat="44.46174" lon="1.68627">
        <ele>125</ele>
        <time>2021-08-31T14:19:59Z</time>
      </trkpt>
      <trkpt lat="44.46105" lon="1.68689">
        <ele>123</ele>
        <time>2021-08-31T14:20:19Z</time>
      </trkpt>
      <trkpt lat="44.45989" lon="1.688">
        <ele>125</ele>
        <time>2021-08-31T14:20:49Z</time>
      </trkpt>
      <trkpt lat="44.45914" lon="1.68881">
        <ele>122</ele>
        <time>2021-08-31T14:21:07Z</time>
      </trkpt>
      <trkpt lat="44.45883" lon="1.68928">
        <ele>119</ele>
        <time>2021-08-31T14:21:16Z</time>
      </trkpt>
      <trkpt lat="44.45835" lon="1.68991">
        <ele>118</ele>
        <time>2021-08-31T14:21:30Z</time>
      </trkpt>
      <trkpt lat="44.45827" lon="1.68993">
        <ele>117</ele>
        <time>2021-08-31T14:21:32Z</time>
      </trkpt>
      <trkpt lat="44.45814" lon="1.69012">
        <ele>114</ele>
        <time>2021-08-31T14:21:38Z</time>
      </trkpt>
      <trkpt lat="44.45784" lon="1.69042">
        <ele>113</ele>
        <time>2021-08-31T14:21:46Z</time>
      </trkpt>
      <trkpt lat="44.45772" lon="1.69062">
        <ele>112</ele>
        <time>2021-08-31T14:21:49Z</time>
      </trkpt>
      <trkpt lat="44.45756" lon="1.69076">
        <ele>111</ele>
        <time>2021-08-31T14:21:53Z</time>
      </trkpt>
      <trkpt lat="44.45747" lon="1.69096">
        <ele>113</ele>
        <time>2021-08-31T14:21:57Z</time>
      </trkpt>
      <trkpt lat="44.45736" lon="1.69126">
        <ele>114</ele>
        <time>2021-08-31T14:22:03Z</time>
      </trkpt>
      <trkpt lat="44.45732" lon="1.69133">
        <ele>115</ele>
        <time>2021-08-31T14:22:05Z</time>
      </trkpt>
      <trkpt lat="44.45701" lon="1.69244">
        <ele>119</ele>
        <time>2021-08-31T14:22:24Z</time>
      </trkpt>
      <trkpt lat="44.4569" lon="1.69262">
        <ele>120</ele>
        <time>2021-08-31T14:22:28Z</time>
      </trkpt>
      <trkpt lat="44.45684" lon="1.69273">
        <ele>119</ele>
        <time>2021-08-31T14:22:30Z</time>
      </trkpt>
      <trkpt lat="44.45681" lon="1.69284">
        <ele>118</ele>
        <time>2021-08-31T14:22:32Z</time>
      </trkpt>
      <trkpt lat="44.45663" lon="1.69311">
        <ele>116</ele>
        <time>2021-08-31T14:22:38Z</time>
      </trkpt>
      <trkpt lat="44.45656" lon="1.69338">
        <ele>116</ele>
        <time>2021-08-31T14:22:42Z</time>
      </trkpt>
      <trkpt lat="44.45655" lon="1.69346">
        <ele>116</ele>
        <time>2021-08-31T14:22:43Z</time>
      </trkpt>
      <trkpt lat="44.45643" lon="1.69418">
        <ele>119</ele>
        <time>2021-08-31T14:22:52Z</time>
      </trkpt>
      <trkpt lat="44.45636" lon="1.69429">
        <ele>121</ele>
        <time>2021-08-31T14:22:54Z</time>
      </trkpt>
      <trkpt lat="44.4563" lon="1.69431">
        <ele>121</ele>
        <time>2021-08-31T14:22:55Z</time>
      </trkpt>
      <trkpt lat="44.45626" lon="1.69445">
        <ele>123</ele>
        <time>2021-08-31T14:22:59Z</time>
      </trkpt>
      <trkpt lat="44.45626" lon="1.69455">
        <ele>122</ele>
        <time>2021-08-31T14:23:02Z</time>
      </trkpt>
      <trkpt lat="44.45622" lon="1.69462">
        <ele>123</ele>
        <time>2021-08-31T14:23:04Z</time>
      </trkpt>
      <trkpt lat="44.45574" lon="1.69473">
        <ele>127</ele>
        <time>2021-08-31T14:23:18Z</time>
      </trkpt>
      <trkpt lat="44.45569" lon="1.69474">
        <ele>127</ele>
        <time>2021-08-31T14:23:20Z</time>
      </trkpt>
      <trkpt lat="44.45563" lon="1.69476">
        <ele>128</ele>
        <time>2021-08-31T14:23:22Z</time>
      </trkpt>
      <trkpt lat="44.45528" lon="1.6948">
        <ele>130</ele>
        <time>2021-08-31T14:23:32Z</time>
      </trkpt>
      <trkpt lat="44.45512" lon="1.69481">
        <ele>131</ele>
        <time>2021-08-31T14:23:36Z</time>
      </trkpt>
      <trkpt lat="44.45498" lon="1.69487">
        <ele>132</ele>
        <time>2021-08-31T14:23:39Z</time>
      </trkpt>
      <trkpt lat="44.45471" lon="1.69504">
        <ele>134</ele>
        <time>2021-08-31T14:23:44Z</time>
      </trkpt>
      <trkpt lat="44.45445" lon="1.69516">
        <ele>136</ele>
        <time>2021-08-31T14:23:48Z</time>
      </trkpt>
      <trkpt lat="44.45435" lon="1.69528">
        <ele>136</ele>
        <time>2021-08-31T14:23:50Z</time>
      </trkpt>
      <trkpt lat="44.45431" lon="1.69536">
        <ele>136</ele>
        <time>2021-08-31T14:23:51Z</time>
      </trkpt>
      <trkpt lat="44.45425" lon="1.69552">
        <ele>135</ele>
        <time>2021-08-31T14:23:53Z</time>
      </trkpt>
      <trkpt lat="44.45427" lon="1.69612">
        <ele>134</ele>
        <time>2021-08-31T14:24:01Z</time>
      </trkpt>
      <trkpt lat="44.45434" lon="1.69662">
        <ele>133</ele>
        <time>2021-08-31T14:24:10Z</time>
      </trkpt>
      <trkpt lat="44.45432" lon="1.6967">
        <ele>133</ele>
        <time>2021-08-31T14:25:03Z</time>
      </trkpt>
      <trkpt lat="44.45436" lon="1.69673">
        <ele>133</ele>
        <time>2021-08-31T14:25:06Z</time>
      </trkpt>
      <trkpt lat="44.45542" lon="1.69692">
        <ele>135</ele>
        <time>2021-08-31T14:25:38Z</time>
      </trkpt>
      <trkpt lat="44.45624" lon="1.69706">
        <ele>137</ele>
        <time>2021-08-31T14:26:08Z</time>
      </trkpt>
      <trkpt lat="44.45668" lon="1.69707">
        <ele>138</ele>
        <time>2021-08-31T14:26:24Z</time>
      </trkpt>
      <trkpt lat="44.45686" lon="1.69723">
        <ele>137</ele>
        <time>2021-08-31T14:26:29Z</time>
      </trkpt>
      <trkpt lat="44.45692" lon="1.69736">
        <ele>137</ele>
        <time>2021-08-31T14:26:31Z</time>
      </trkpt>
      <trkpt lat="44.45695" lon="1.69757">
        <ele>136</ele>
        <time>2021-08-31T14:26:33Z</time>
      </trkpt>
      <trkpt lat="44.45698" lon="1.69845">
        <ele>136</ele>
        <time>2021-08-31T14:26:47Z</time>
      </trkpt>
      <trkpt lat="44.4575" lon="1.70045">
        <ele>134</ele>
        <time>2021-08-31T14:27:17Z</time>
      </trkpt>
      <trkpt lat="44.45799" lon="1.70253">
        <ele>137</ele>
        <time>2021-08-31T14:27:48Z</time>
      </trkpt>
      <trkpt lat="44.45822" lon="1.70354">
        <ele>135</ele>
        <time>2021-08-31T14:28:04Z</time>
      </trkpt>
      <trkpt lat="44.45834" lon="1.70388">
        <ele>136</ele>
        <time>2021-08-31T14:28:10Z</time>
      </trkpt>
      <trkpt lat="44.45867" lon="1.70525">
        <ele>144</ele>
        <time>2021-08-31T14:28:32Z</time>
      </trkpt>
      <trkpt lat="44.45928" lon="1.70682">
        <ele>146</ele>
        <time>2021-08-31T14:28:58Z</time>
      </trkpt>
      <trkpt lat="44.45953" lon="1.70796">
        <ele>149</ele>
        <time>2021-08-31T14:29:16Z</time>
      </trkpt>
      <trkpt lat="44.45959" lon="1.70814">
        <ele>149</ele>
        <time>2021-08-31T14:29:19Z</time>
      </trkpt>
      <trkpt lat="44.45969" lon="1.7083">
        <ele>151</ele>
        <time>2021-08-31T14:29:22Z</time>
      </trkpt>
      <trkpt lat="44.45975" lon="1.70856">
        <ele>151</ele>
        <time>2021-08-31T14:29:26Z</time>
      </trkpt>
      <trkpt lat="44.45976" lon="1.70869">
        <ele>150</ele>
        <time>2021-08-31T14:29:28Z</time>
      </trkpt>
      <trkpt lat="44.45983" lon="1.70911">
        <ele>147</ele>
        <time>2021-08-31T14:29:34Z</time>
      </trkpt>
      <trkpt lat="44.46013" lon="1.71068">
        <ele>142</ele>
        <time>2021-08-31T14:29:59Z</time>
      </trkpt>
      <trkpt lat="44.46017" lon="1.71114">
        <ele>139</ele>
        <time>2021-08-31T14:30:06Z</time>
      </trkpt>
      <trkpt lat="44.46016" lon="1.71126">
        <ele>139</ele>
        <time>2021-08-31T14:30:08Z</time>
      </trkpt>
      <trkpt lat="44.46039" lon="1.71319">
        <ele>136</ele>
        <time>2021-08-31T14:30:39Z</time>
      </trkpt>
      <trkpt lat="44.46048" lon="1.71395">
        <ele>135</ele>
        <time>2021-08-31T14:30:50Z</time>
      </trkpt>
      <trkpt lat="44.46059" lon="1.71431">
        <ele>135</ele>
        <time>2021-08-31T14:30:55Z</time>
      </trkpt>
      <trkpt lat="44.46132" lon="1.71594">
        <ele>141</ele>
        <time>2021-08-31T14:31:26Z</time>
      </trkpt>
      <trkpt lat="44.46135" lon="1.71602">
        <ele>141</ele>
        <time>2021-08-31T14:31:28Z</time>
      </trkpt>
      <trkpt lat="44.46137" lon="1.71611">
        <ele>141</ele>
        <time>2021-08-31T14:31:30Z</time>
      </trkpt>
      <trkpt lat="44.46151" lon="1.71658">
        <ele>142</ele>
        <time>2021-08-31T14:31:39Z</time>
      </trkpt>
      <trkpt lat="44.46178" lon="1.71701">
        <ele>142</ele>
        <time>2021-08-31T14:31:49Z</time>
      </trkpt>
      <trkpt lat="44.46198" lon="1.71722">
        <ele>141</ele>
        <time>2021-08-31T14:31:55Z</time>
      </trkpt>
      <trkpt lat="44.46275" lon="1.71776">
        <ele>139</ele>
        <time>2021-08-31T14:32:13Z</time>
      </trkpt>
      <trkpt lat="44.46357" lon="1.71786">
        <ele>136</ele>
        <time>2021-08-31T14:32:27Z</time>
      </trkpt>
      <trkpt lat="44.4637" lon="1.71792">
        <ele>136</ele>
        <time>2021-08-31T14:32:29Z</time>
      </trkpt>
      <trkpt lat="44.4638" lon="1.71803">
        <ele>137</ele>
        <time>2021-08-31T14:32:31Z</time>
      </trkpt>
      <trkpt lat="44.46433" lon="1.71891">
        <ele>137</ele>
        <time>2021-08-31T14:32:47Z</time>
      </trkpt>
      <trkpt lat="44.46449" lon="1.71935">
        <ele>137</ele>
        <time>2021-08-31T14:32:54Z</time>
      </trkpt>
      <trkpt lat="44.46456" lon="1.71973">
        <ele>137</ele>
        <time>2021-08-31T14:32:59Z</time>
      </trkpt>
      <trkpt lat="44.46448" lon="1.72201">
        <ele>134</ele>
        <time>2021-08-31T14:33:30Z</time>
      </trkpt>
      <trkpt lat="44.46442" lon="1.72378">
        <ele>133</ele>
        <time>2021-08-31T14:33:56Z</time>
      </trkpt>
      <trkpt lat="44.46403" lon="1.72525">
        <ele>134</ele>
        <time>2021-08-31T14:34:21Z</time>
      </trkpt>
      <trkpt lat="44.46399" lon="1.72555">
        <ele>133</ele>
        <time>2021-08-31T14:34:27Z</time>
      </trkpt>
      <trkpt lat="44.46399" lon="1.72566">
        <ele>132</ele>
        <time>2021-08-31T14:34:29Z</time>
      </trkpt>
      <trkpt lat="44.46399" lon="1.72577">
        <ele>131</ele>
        <time>2021-08-31T14:34:31Z</time>
      </trkpt>
      <trkpt lat="44.46404" lon="1.72605">
        <ele>133</ele>
        <time>2021-08-31T14:34:35Z</time>
      </trkpt>
      <trkpt lat="44.46405" lon="1.72626">
        <ele>134</ele>
        <time>2021-08-31T14:34:38Z</time>
      </trkpt>
      <trkpt lat="44.46389" lon="1.7269">
        <ele>137</ele>
        <time>2021-08-31T14:34:50Z</time>
      </trkpt>
      <trkpt lat="44.46307" lon="1.72852">
        <ele>139</ele>
        <time>2021-08-31T14:35:20Z</time>
      </trkpt>
      <trkpt lat="44.46296" lon="1.72892">
        <ele>137</ele>
        <time>2021-08-31T14:35:30Z</time>
      </trkpt>
      <trkpt lat="44.46289" lon="1.72908">
        <ele>136</ele>
        <time>2021-08-31T14:35:34Z</time>
      </trkpt>
      <trkpt lat="44.46267" lon="1.72978">
        <ele>131</ele>
        <time>2021-08-31T14:35:45Z</time>
      </trkpt>
      <trkpt lat="44.46239" lon="1.7302">
        <ele>131</ele>
        <time>2021-08-31T14:35:51Z</time>
      </trkpt>
      <trkpt lat="44.46227" lon="1.73038">
        <ele>131</ele>
        <time>2021-08-31T14:35:54Z</time>
      </trkpt>
      <trkpt lat="44.46107" lon="1.73236">
        <ele>136</ele>
        <time>2021-08-31T14:36:24Z</time>
      </trkpt>
      <trkpt lat="44.46005" lon="1.73428">
        <ele>137</ele>
        <time>2021-08-31T14:36:55Z</time>
      </trkpt>
      <trkpt lat="44.45976" lon="1.73494">
        <ele>140</ele>
        <time>2021-08-31T14:37:06Z</time>
      </trkpt>
      <trkpt lat="44.45939" lon="1.73709">
        <ele>142</ele>
        <time>2021-08-31T14:37:36Z</time>
      </trkpt>
      <trkpt lat="44.45932" lon="1.73782">
        <ele>142</ele>
        <time>2021-08-31T14:37:46Z</time>
      </trkpt>
      <trkpt lat="44.45926" lon="1.7381">
        <ele>142</ele>
        <time>2021-08-31T14:37:50Z</time>
      </trkpt>
      <trkpt lat="44.4591" lon="1.73866">
        <ele>144</ele>
        <time>2021-08-31T14:37:58Z</time>
      </trkpt>
      <trkpt lat="44.4589" lon="1.7397">
        <ele>148</ele>
        <time>2021-08-31T14:38:13Z</time>
      </trkpt>
      <trkpt lat="44.45891" lon="1.74058">
        <ele>148</ele>
        <time>2021-08-31T14:38:25Z</time>
      </trkpt>
      <trkpt lat="44.45905" lon="1.74119">
        <ele>147</ele>
        <time>2021-08-31T14:38:33Z</time>
      </trkpt>
      <trkpt lat="44.4597" lon="1.74262">
        <ele>140</ele>
        <time>2021-08-31T14:38:56Z</time>
      </trkpt>
      <trkpt lat="44.46038" lon="1.74347">
        <ele>138</ele>
        <time>2021-08-31T14:39:13Z</time>
      </trkpt>
      <trkpt lat="44.46059" lon="1.74359">
        <ele>137</ele>
        <time>2021-08-31T14:39:17Z</time>
      </trkpt>
      <trkpt lat="44.46174" lon="1.74426">
        <ele>139</ele>
        <time>2021-08-31T14:39:42Z</time>
      </trkpt>
      <trkpt lat="44.46208" lon="1.74454">
        <ele>140</ele>
        <time>2021-08-31T14:39:51Z</time>
      </trkpt>
      <trkpt lat="44.46213" lon="1.7446">
        <ele>139</ele>
        <time>2021-08-31T14:39:53Z</time>
      </trkpt>
      <trkpt lat="44.46216" lon="1.74466">
        <ele>140</ele>
        <time>2021-08-31T14:39:55Z</time>
      </trkpt>
      <trkpt lat="44.46219" lon="1.74471">
        <ele>140</ele>
        <time>2021-08-31T14:39:57Z</time>
      </trkpt>
      <trkpt lat="44.46222" lon="1.74476">
        <ele>140</ele>
        <time>2021-08-31T14:39:59Z</time>
      </trkpt>
      <trkpt lat="44.46225" lon="1.74484">
        <ele>140</ele>
        <time>2021-08-31T14:40:02Z</time>
      </trkpt>
      <trkpt lat="44.46232" lon="1.74505">
        <ele>141</ele>
        <time>2021-08-31T14:40:09Z</time>
      </trkpt>
      <trkpt lat="44.46237" lon="1.74519">
        <ele>140</ele>
        <time>2021-08-31T14:40:13Z</time>
      </trkpt>
      <trkpt lat="44.46261" lon="1.74606">
        <ele>139</ele>
        <time>2021-08-31T14:40:33Z</time>
      </trkpt>
      <trkpt lat="44.46262" lon="1.74615">
        <ele>139</ele>
        <time>2021-08-31T14:40:35Z</time>
      </trkpt>
      <trkpt lat="44.46264" lon="1.74625">
        <ele>140</ele>
        <time>2021-08-31T14:40:37Z</time>
      </trkpt>
      <trkpt lat="44.46268" lon="1.74644">
        <ele>139</ele>
        <time>2021-08-31T14:40:41Z</time>
      </trkpt>
      <trkpt lat="44.46273" lon="1.74663">
        <ele>140</ele>
        <time>2021-08-31T14:40:45Z</time>
      </trkpt>
      <trkpt lat="44.46277" lon="1.7468">
        <ele>141</ele>
        <time>2021-08-31T14:40:49Z</time>
      </trkpt>
      <trkpt lat="44.4628" lon="1.74705">
        <ele>141</ele>
        <time>2021-08-31T14:40:55Z</time>
      </trkpt>
      <trkpt lat="44.46279" lon="1.74713">
        <ele>141</ele>
        <time>2021-08-31T14:40:57Z</time>
      </trkpt>
      <trkpt lat="44.4626" lon="1.7476">
        <ele>138</ele>
        <time>2021-08-31T14:41:11Z</time>
      </trkpt>
      <trkpt lat="44.46248" lon="1.74785">
        <ele>134</ele>
        <time>2021-08-31T14:41:17Z</time>
      </trkpt>
      <trkpt lat="44.46243" lon="1.7479">
        <ele>134</ele>
        <time>2021-08-31T14:41:19Z</time>
      </trkpt>
      <trkpt lat="44.4621" lon="1.74835">
        <ele>136</ele>
        <time>2021-08-31T14:41:32Z</time>
      </trkpt>
      <trkpt lat="44.46207" lon="1.7484">
        <ele>137</ele>
        <time>2021-08-31T14:41:34Z</time>
      </trkpt>
      <trkpt lat="44.46208" lon="1.74847">
        <ele>137</ele>
        <time>2021-08-31T14:41:37Z</time>
      </trkpt>
      <trkpt lat="44.46248" lon="1.74917">
        <ele>140</ele>
        <time>2021-08-31T14:42:02Z</time>
      </trkpt>
      <trkpt lat="44.46261" lon="1.74918">
        <ele>139</ele>
        <time>2021-08-31T14:42:06Z</time>
      </trkpt>
      <trkpt lat="44.4629" lon="1.74911">
        <ele>140</ele>
        <time>2021-08-31T14:42:17Z</time>
      </trkpt>
      <trkpt lat="44.46294" lon="1.74905">
        <ele>142</ele>
        <time>2021-08-31T14:42:56Z</time>
      </trkpt>
      <trkpt lat="44.46315" lon="1.74893">
        <ele>146</ele>
        <time>2021-08-31T14:43:03Z</time>
      </trkpt>
      <trkpt lat="44.4634" lon="1.7488">
        <ele>147</ele>
        <time>2021-08-31T14:43:09Z</time>
      </trkpt>
      <trkpt lat="44.46424" lon="1.74854">
        <ele>155</ele>
        <time>2021-08-31T14:43:30Z</time>
      </trkpt>
      <trkpt lat="44.46444" lon="1.74844">
        <ele>156</ele>
        <time>2021-08-31T14:43:35Z</time>
      </trkpt>
      <trkpt lat="44.46487" lon="1.74807">
        <ele>153</ele>
        <time>2021-08-31T14:43:45Z</time>
      </trkpt>
      <trkpt lat="44.465" lon="1.74801">
        <ele>152</ele>
        <time>2021-08-31T14:43:47Z</time>
      </trkpt>
      <trkpt lat="44.46507" lon="1.74799">
        <ele>151</ele>
        <time>2021-08-31T14:43:48Z</time>
      </trkpt>
      <trkpt lat="44.46519" lon="1.74799">
        <ele>151</ele>
        <time>2021-08-31T14:43:50Z</time>
      </trkpt>
      <trkpt lat="44.46559" lon="1.7482">
        <ele>150</ele>
        <time>2021-08-31T14:43:58Z</time>
      </trkpt>
      <trkpt lat="44.46568" lon="1.74829">
        <ele>150</ele>
        <time>2021-08-31T14:44:00Z</time>
      </trkpt>
      <trkpt lat="44.46616" lon="1.74918">
        <ele>148</ele>
        <time>2021-08-31T14:44:15Z</time>
      </trkpt>
      <trkpt lat="44.46629" lon="1.74953">
        <ele>146</ele>
        <time>2021-08-31T14:44:20Z</time>
      </trkpt>
      <trkpt lat="44.46633" lon="1.7501">
        <ele>144</ele>
        <time>2021-08-31T14:44:26Z</time>
      </trkpt>
      <trkpt lat="44.46633" lon="1.75051">
        <ele>143</ele>
        <time>2021-08-31T14:44:30Z</time>
      </trkpt>
      <trkpt lat="44.4663" lon="1.75071">
        <ele>143</ele>
        <time>2021-08-31T14:44:32Z</time>
      </trkpt>
      <trkpt lat="44.46624" lon="1.75088">
        <ele>143</ele>
        <time>2021-08-31T14:44:34Z</time>
      </trkpt>
      <trkpt lat="44.46613" lon="1.75109">
        <ele>143</ele>
        <time>2021-08-31T14:44:37Z</time>
      </trkpt>
      <trkpt lat="44.46584" lon="1.75134">
        <ele>143</ele>
        <time>2021-08-31T14:44:44Z</time>
      </trkpt>
      <trkpt lat="44.46544" lon="1.75166">
        <ele>144</ele>
        <time>2021-08-31T14:44:56Z</time>
      </trkpt>
      <trkpt lat="44.46538" lon="1.75169">
        <ele>140</ele>
        <time>2021-08-31T14:44:59Z</time>
      </trkpt>
      <trkpt lat="44.46533" lon="1.75172">
        <ele>139</ele>
        <time>2021-08-31T14:45:01Z</time>
      </trkpt>
      <trkpt lat="44.46527" lon="1.75178">
        <ele>136</ele>
        <time>2021-08-31T14:45:04Z</time>
      </trkpt>
      <trkpt lat="44.46521" lon="1.75184">
        <ele>133</ele>
        <time>2021-08-31T14:45:06Z</time>
      </trkpt>
      <trkpt lat="44.46513" lon="1.75189">
        <ele>132</ele>
        <time>2021-08-31T14:45:08Z</time>
      </trkpt>
      <trkpt lat="44.46451" lon="1.75233">
        <ele>123</ele>
        <time>2021-08-31T14:45:21Z</time>
      </trkpt>
      <trkpt lat="44.46447" lon="1.75239">
        <ele>122</ele>
        <time>2021-08-31T14:45:22Z</time>
      </trkpt>
      <trkpt lat="44.46416" lon="1.75301">
        <ele>123</ele>
        <time>2021-08-31T14:45:31Z</time>
      </trkpt>
      <trkpt lat="44.46314" lon="1.75412">
        <ele>124</ele>
        <time>2021-08-31T14:45:58Z</time>
      </trkpt>
      <trkpt lat="44.46305" lon="1.7542">
        <ele>125</ele>
        <time>2021-08-31T14:46:00Z</time>
      </trkpt>
      <trkpt lat="44.46278" lon="1.75446">
        <ele>125</ele>
        <time>2021-08-31T14:46:07Z</time>
      </trkpt>
      <trkpt lat="44.46226" lon="1.75483">
        <ele>120</ele>
        <time>2021-08-31T14:46:24Z</time>
      </trkpt>
      <trkpt lat="44.46187" lon="1.75505">
        <ele>113</ele>
        <time>2021-08-31T14:46:36Z</time>
      </trkpt>
      <trkpt lat="44.4607" lon="1.75607">
        <ele>123</ele>
        <time>2021-08-31T14:47:07Z</time>
      </trkpt>
      <trkpt lat="44.46055" lon="1.75621">
        <ele>124</ele>
        <time>2021-08-31T14:47:11Z</time>
      </trkpt>
      <trkpt lat="44.46047" lon="1.75627">
        <ele>124</ele>
        <time>2021-08-31T14:47:13Z</time>
      </trkpt>
      <trkpt lat="44.46002" lon="1.75668">
        <ele>125</ele>
        <time>2021-08-31T14:47:23Z</time>
      </trkpt>
      <trkpt lat="44.45995" lon="1.75679">
        <ele>125</ele>
        <time>2021-08-31T14:47:25Z</time>
      </trkpt>
      <trkpt lat="44.4599" lon="1.75693">
        <ele>125</ele>
        <time>2021-08-31T14:47:27Z</time>
      </trkpt>
      <trkpt lat="44.45985" lon="1.75714">
        <ele>124</ele>
        <time>2021-08-31T14:47:30Z</time>
      </trkpt>
      <trkpt lat="44.45983" lon="1.75746">
        <ele>123</ele>
        <time>2021-08-31T14:47:34Z</time>
      </trkpt>
      <trkpt lat="44.46007" lon="1.7592">
        <ele>129</ele>
        <time>2021-08-31T14:47:57Z</time>
      </trkpt>
      <trkpt lat="44.46003" lon="1.76128">
        <ele>136</ele>
        <time>2021-08-31T14:48:27Z</time>
      </trkpt>
      <trkpt lat="44.46" lon="1.76218">
        <ele>138</ele>
        <time>2021-08-31T14:48:39Z</time>
      </trkpt>
      <trkpt lat="44.45967" lon="1.76424">
        <ele>139</ele>
        <time>2021-08-31T14:49:10Z</time>
      </trkpt>
      <trkpt lat="44.45947" lon="1.76597">
        <ele>140</ele>
        <time>2021-08-31T14:49:36Z</time>
      </trkpt>
      <trkpt lat="44.45948" lon="1.76646">
        <ele>141</ele>
        <time>2021-08-31T14:49:43Z</time>
      </trkpt>
      <trkpt lat="44.45981" lon="1.76839">
        <ele>144</ele>
        <time>2021-08-31T14:50:13Z</time>
      </trkpt>
      <trkpt lat="44.45998" lon="1.76959">
        <ele>149</ele>
        <time>2021-08-31T14:50:36Z</time>
      </trkpt>
      <trkpt lat="44.46" lon="1.76965">
        <ele>149</ele>
        <time>2021-08-31T14:50:39Z</time>
      </trkpt>
      <trkpt lat="44.46003" lon="1.76972">
        <ele>149</ele>
        <time>2021-08-31T14:50:43Z</time>
      </trkpt>
      <trkpt lat="44.46005" lon="1.76979">
        <ele>148</ele>
        <time>2021-08-31T14:51:05Z</time>
      </trkpt>
      <trkpt lat="44.46007" lon="1.76986">
        <ele>148</ele>
        <time>2021-08-31T14:51:08Z</time>
      </trkpt>
      <trkpt lat="44.46028" lon="1.77121">
        <ele>143</ele>
        <time>2021-08-31T14:51:38Z</time>
      </trkpt>
      <trkpt lat="44.46038" lon="1.77161">
        <ele>142</ele>
        <time>2021-08-31T14:51:46Z</time>
      </trkpt>
      <trkpt lat="44.46063" lon="1.77218">
        <ele>140</ele>
        <time>2021-08-31T14:51:58Z</time>
      </trkpt>
      <trkpt lat="44.46068" lon="1.77226">
        <ele>139</ele>
        <time>2021-08-31T14:52:00Z</time>
      </trkpt>
      <trkpt lat="44.46072" lon="1.77233">
        <ele>139</ele>
        <time>2021-08-31T14:52:02Z</time>
      </trkpt>
      <trkpt lat="44.46128" lon="1.77351">
        <ele>137</ele>
        <time>2021-08-31T14:52:26Z</time>
      </trkpt>
      <trkpt lat="44.46133" lon="1.77373">
        <ele>138</ele>
        <time>2021-08-31T14:52:30Z</time>
      </trkpt>
      <trkpt lat="44.46132" lon="1.77451">
        <ele>139</ele>
        <time>2021-08-31T14:52:48Z</time>
      </trkpt>
      <trkpt lat="44.46129" lon="1.77539">
        <ele>142</ele>
        <time>2021-08-31T14:53:10Z</time>
      </trkpt>
      <trkpt lat="44.46125" lon="1.77574">
        <ele>143</ele>
        <time>2021-08-31T14:53:18Z</time>
      </trkpt>
      <trkpt lat="44.46119" lon="1.77592">
        <ele>145</ele>
        <time>2021-08-31T14:53:22Z</time>
      </trkpt>
      <trkpt lat="44.46114" lon="1.77605">
        <ele>146</ele>
        <time>2021-08-31T14:53:26Z</time>
      </trkpt>
      <trkpt lat="44.46106" lon="1.77615">
        <ele>146</ele>
        <time>2021-08-31T14:53:30Z</time>
      </trkpt>
      <trkpt lat="44.46101" lon="1.77621">
        <ele>146</ele>
        <time>2021-08-31T14:53:32Z</time>
      </trkpt>
      <trkpt lat="44.46072" lon="1.77652">
        <ele>147</ele>
        <time>2021-08-31T14:53:46Z</time>
      </trkpt>
      <trkpt lat="44.46061" lon="1.77654">
        <ele>147</ele>
        <time>2021-08-31T14:53:50Z</time>
      </trkpt>
      <trkpt lat="44.46044" lon="1.77651">
        <ele>147</ele>
        <time>2021-08-31T14:53:56Z</time>
      </trkpt>
      <trkpt lat="44.46025" lon="1.77643">
        <ele>147</ele>
        <time>2021-08-31T14:54:04Z</time>
      </trkpt>
      <trkpt lat="44.46015" lon="1.77635">
        <ele>147</ele>
        <time>2021-08-31T14:54:09Z</time>
      </trkpt>
      <trkpt lat="44.4601" lon="1.7763">
        <ele>147</ele>
        <time>2021-08-31T14:54:12Z</time>
      </trkpt>
      <trkpt lat="44.46002" lon="1.77622">
        <ele>147</ele>
        <time>2021-08-31T14:54:17Z</time>
      </trkpt>
      <trkpt lat="44.45997" lon="1.77618">
        <ele>147</ele>
        <time>2021-08-31T14:54:19Z</time>
      </trkpt>
      <trkpt lat="44.45985" lon="1.77603">
        <ele>148</ele>
        <time>2021-08-31T14:54:26Z</time>
      </trkpt>
      <trkpt lat="44.45979" lon="1.77598">
        <ele>148</ele>
        <time>2021-08-31T14:54:29Z</time>
      </trkpt>
      <trkpt lat="44.45934" lon="1.77545">
        <ele>154</ele>
        <time>2021-08-31T14:54:53Z</time>
      </trkpt>
      <trkpt lat="44.45928" lon="1.77541">
        <ele>154</ele>
        <time>2021-08-31T14:54:55Z</time>
      </trkpt>
      <trkpt lat="44.45923" lon="1.77539">
        <ele>154</ele>
        <time>2021-08-31T14:54:57Z</time>
      </trkpt>
      <trkpt lat="44.45918" lon="1.77541">
        <ele>154</ele>
        <time>2021-08-31T14:54:59Z</time>
      </trkpt>
      <trkpt lat="44.45914" lon="1.77546">
        <ele>154</ele>
        <time>2021-08-31T14:55:01Z</time>
      </trkpt>
      <trkpt lat="44.4591" lon="1.77551">
        <ele>154</ele>
        <time>2021-08-31T14:55:03Z</time>
      </trkpt>
      <trkpt lat="44.45908" lon="1.77557">
        <ele>154</ele>
        <time>2021-08-31T14:55:05Z</time>
      </trkpt>
      <trkpt lat="44.45908" lon="1.77565">
        <ele>154</ele>
        <time>2021-08-31T14:55:08Z</time>
      </trkpt>
      <trkpt lat="44.45911" lon="1.77573">
        <ele>154</ele>
        <time>2021-08-31T14:55:11Z</time>
      </trkpt>
      <trkpt lat="44.45916" lon="1.77578">
        <ele>154</ele>
        <time>2021-08-31T14:55:14Z</time>
      </trkpt>
      <trkpt lat="44.45921" lon="1.77582">
        <ele>153</ele>
        <time>2021-08-31T14:55:17Z</time>
      </trkpt>
      <trkpt lat="44.45931" lon="1.77593">
        <ele>153</ele>
        <time>2021-08-31T14:55:23Z</time>
      </trkpt>
      <trkpt lat="44.45943" lon="1.77605">
        <ele>154</ele>
        <time>2021-08-31T14:55:30Z</time>
      </trkpt>
      <trkpt lat="44.45947" lon="1.7761">
        <ele>153</ele>
        <time>2021-08-31T14:55:32Z</time>
      </trkpt>
      <trkpt lat="44.45951" lon="1.77614">
        <ele>153</ele>
        <time>2021-08-31T14:55:34Z</time>
      </trkpt>
      <trkpt lat="44.45954" lon="1.77619">
        <ele>153</ele>
        <time>2021-08-31T14:55:36Z</time>
      </trkpt>
      <trkpt lat="44.45996" lon="1.7767">
        <ele>152</ele>
        <time>2021-08-31T14:55:56Z</time>
      </trkpt>
      <trkpt lat="44.46049" lon="1.77744">
        <ele>144</ele>
        <time>2021-08-31T14:56:25Z</time>
      </trkpt>
      <trkpt lat="44.46054" lon="1.77757">
        <ele>142</ele>
        <time>2021-08-31T14:56:29Z</time>
      </trkpt>
      <trkpt lat="44.46057" lon="1.77764">
        <ele>140</ele>
        <time>2021-08-31T14:56:31Z</time>
      </trkpt>
      <trkpt lat="44.46066" lon="1.77787">
        <ele>136</ele>
        <time>2021-08-31T14:56:37Z</time>
      </trkpt>
      <trkpt lat="44.46072" lon="1.778">
        <ele>133</ele>
        <time>2021-08-31T14:56:40Z</time>
      </trkpt>
      <trkpt lat="44.46082" lon="1.7781">
        <ele>131</ele>
        <time>2021-08-31T14:56:43Z</time>
      </trkpt>
      <trkpt lat="44.46116" lon="1.77822">
        <ele>133</ele>
        <time>2021-08-31T14:56:50Z</time>
      </trkpt>
      <trkpt lat="44.46165" lon="1.77822">
        <ele>140</ele>
        <time>2021-08-31T14:57:02Z</time>
      </trkpt>
      <trkpt lat="44.46216" lon="1.77839">
        <ele>146</ele>
        <time>2021-08-31T14:57:23Z</time>
      </trkpt>
      <trkpt lat="44.4622" lon="1.77841">
        <ele>146</ele>
        <time>2021-08-31T14:57:25Z</time>
      </trkpt>
      <trkpt lat="44.46251" lon="1.77852">
        <ele>148</ele>
        <time>2021-08-31T14:57:38Z</time>
      </trkpt>
      <trkpt lat="44.46256" lon="1.77854">
        <ele>149</ele>
        <time>2021-08-31T14:57:41Z</time>
      </trkpt>
      <trkpt lat="44.46301" lon="1.77886">
        <ele>157</ele>
        <time>2021-08-31T14:57:59Z</time>
      </trkpt>
      <trkpt lat="44.4631" lon="1.77896">
        <ele>158</ele>
        <time>2021-08-31T14:58:03Z</time>
      </trkpt>
      <trkpt lat="44.46328" lon="1.77901">
        <ele>159</ele>
        <time>2021-08-31T14:58:10Z</time>
      </trkpt>
      <trkpt lat="44.46342" lon="1.77902">
        <ele>163</ele>
        <time>2021-08-31T14:58:18Z</time>
      </trkpt>
      <trkpt lat="44.46344" lon="1.77909">
        <ele>164</ele>
        <time>2021-08-31T14:58:56Z</time>
      </trkpt>
      <trkpt lat="44.4634" lon="1.77908">
        <ele>165</ele>
        <time>2021-08-31T14:58:58Z</time>
      </trkpt>
      <trkpt lat="44.46335" lon="1.7791">
        <ele>165</ele>
        <time>2021-08-31T14:59:00Z</time>
      </trkpt>
      <trkpt lat="44.46329" lon="1.77912">
        <ele>170</ele>
        <time>2021-08-31T14:59:03Z</time>
      </trkpt>
      <trkpt lat="44.46324" lon="1.7791">
        <ele>172</ele>
        <time>2021-08-31T14:59:07Z</time>
      </trkpt>
      <trkpt lat="44.4632" lon="1.77909">
        <ele>174</ele>
        <time>2021-08-31T15:00:04Z</time>
      </trkpt>
      <trkpt lat="44.46315" lon="1.7791">
        <ele>175</ele>
        <time>2021-08-31T15:00:14Z</time>
      </trkpt>
      <trkpt lat="44.4631" lon="1.7791">
        <ele>176</ele>
        <time>2021-08-31T15:00:20Z</time>
      </trkpt>
      <trkpt lat="44.46306" lon="1.77914">
        <ele>179</ele>
        <time>2021-08-31T15:01:08Z</time>
      </trkpt>
      <trkpt lat="44.46299" lon="1.77906">
        <ele>181</ele>
        <time>2021-08-31T15:01:22Z</time>
      </trkpt>
      <trkpt lat="44.46289" lon="1.77898">
        <ele>182</ele>
        <time>2021-08-31T15:01:33Z</time>
      </trkpt>
      <trkpt lat="44.46286" lon="1.77893">
        <ele>182</ele>
        <time>2021-08-31T15:01:50Z</time>
      </trkpt>
    </trkseg>
  </trk>
</gpx>